<?xml version="1.0" encoding="UTF-8" standalone="no" ?>
<gpx xmlns="http://www.topografix.com/GPX/1/1" xmlns:xsi="http://www.w3.org/2001/XMLSchema-instance" xsi:schemaLocation="http://www.topografix.com/GPX/1/1 http://www.topografix.com/GPX/1/1/gpx.xsd" version="1.1" creator="VisuGPX - https://www.visugpx.com">
  <metadata>
    <name>CampagnePastre-Les-trois-fontaines</name>
    <desc><![CDATA[Grenami :
trace d'Alain C. pour Vendredi 5 Janvier 2018
]]></desc>
  </metadata>
  <trk>
    <name><![CDATA[8221801-Les Trois Fontaines]]></name>
    <trkseg>
      <trkpt lat="43.23762" lon="5.36633">
        <ele>22</ele>
        <time>2017-12-30T22:11:43Z</time>
      </trkpt>
      <trkpt lat="43.23765" lon="5.36641">
        <ele>22</ele>
        <time>2017-12-30T22:12:43Z</time>
      </trkpt>
      <trkpt lat="43.23768" lon="5.36648">
        <ele>22</ele>
        <time>2017-12-30T22:13:43Z</time>
      </trkpt>
      <trkpt lat="43.23772" lon="5.36656">
        <ele>22</ele>
        <time>2017-12-30T22:14:43Z</time>
      </trkpt>
      <trkpt lat="43.23776" lon="5.36664">
        <ele>23</ele>
        <time>2017-12-30T22:15:43Z</time>
      </trkpt>
      <trkpt lat="43.2378" lon="5.36671">
        <ele>23</ele>
        <time>2017-12-30T22:16:43Z</time>
      </trkpt>
      <trkpt lat="43.23783" lon="5.36679">
        <ele>23</ele>
        <time>2017-12-30T22:17:43Z</time>
      </trkpt>
      <trkpt lat="43.23786" lon="5.36686">
        <ele>23</ele>
        <time>2017-12-30T22:18:43Z</time>
      </trkpt>
      <trkpt lat="43.23788" lon="5.36694">
        <ele>23</ele>
        <time>2017-12-30T22:19:43Z</time>
      </trkpt>
      <trkpt lat="43.23793" lon="5.36703">
        <ele>23</ele>
        <time>2017-12-30T22:20:43Z</time>
      </trkpt>
      <trkpt lat="43.23798" lon="5.3671">
        <ele>23</ele>
        <time>2017-12-30T22:21:43Z</time>
      </trkpt>
      <trkpt lat="43.23802" lon="5.3672">
        <ele>24</ele>
        <time>2017-12-30T22:22:43Z</time>
      </trkpt>
      <trkpt lat="43.23805" lon="5.36727">
        <ele>24</ele>
        <time>2017-12-30T22:23:43Z</time>
      </trkpt>
      <trkpt lat="43.23809" lon="5.36734">
        <ele>24</ele>
        <time>2017-12-30T22:24:43Z</time>
      </trkpt>
      <trkpt lat="43.23812" lon="5.36741">
        <ele>24</ele>
        <time>2017-12-30T22:25:43Z</time>
      </trkpt>
      <trkpt lat="43.23815" lon="5.36749">
        <ele>24</ele>
        <time>2017-12-30T22:26:43Z</time>
      </trkpt>
      <trkpt lat="43.23817" lon="5.36757">
        <ele>24</ele>
        <time>2017-12-30T22:27:43Z</time>
      </trkpt>
      <trkpt lat="43.23821" lon="5.36764">
        <ele>24</ele>
        <time>2017-12-30T22:28:43Z</time>
      </trkpt>
      <trkpt lat="43.23825" lon="5.36773">
        <ele>25</ele>
        <time>2017-12-30T22:29:43Z</time>
      </trkpt>
      <trkpt lat="43.23828" lon="5.36781">
        <ele>25</ele>
        <time>2017-12-30T22:30:43Z</time>
      </trkpt>
      <trkpt lat="43.23831" lon="5.36788">
        <ele>25</ele>
        <time>2017-12-30T22:31:43Z</time>
      </trkpt>
      <trkpt lat="43.23835" lon="5.36797">
        <ele>25</ele>
        <time>2017-12-30T22:32:43Z</time>
      </trkpt>
      <trkpt lat="43.23837" lon="5.36805">
        <ele>25</ele>
        <time>2017-12-30T22:33:43Z</time>
      </trkpt>
      <trkpt lat="43.2384" lon="5.36812">
        <ele>25</ele>
        <time>2017-12-30T22:34:43Z</time>
      </trkpt>
      <trkpt lat="43.23842" lon="5.36822">
        <ele>25</ele>
        <time>2017-12-30T22:35:43Z</time>
      </trkpt>
      <trkpt lat="43.23845" lon="5.3683">
        <ele>26</ele>
        <time>2017-12-30T22:36:43Z</time>
      </trkpt>
      <trkpt lat="43.23846" lon="5.36838">
        <ele>26</ele>
        <time>2017-12-30T22:37:43Z</time>
      </trkpt>
      <trkpt lat="43.23841" lon="5.36844">
        <ele>26</ele>
        <time>2017-12-30T22:38:43Z</time>
      </trkpt>
      <trkpt lat="43.23836" lon="5.36848">
        <ele>26</ele>
        <time>2017-12-30T22:39:43Z</time>
      </trkpt>
      <trkpt lat="43.23829" lon="5.36855">
        <ele>27</ele>
        <time>2017-12-30T22:40:43Z</time>
      </trkpt>
      <trkpt lat="43.23824" lon="5.36861">
        <ele>27</ele>
        <time>2017-12-30T22:41:43Z</time>
      </trkpt>
      <trkpt lat="43.23818" lon="5.36866">
        <ele>27</ele>
        <time>2017-12-30T22:42:43Z</time>
      </trkpt>
      <trkpt lat="43.23813" lon="5.36872">
        <ele>28</ele>
        <time>2017-12-30T22:43:43Z</time>
      </trkpt>
      <trkpt lat="43.23807" lon="5.36878">
        <ele>28</ele>
        <time>2017-12-30T22:44:43Z</time>
      </trkpt>
      <trkpt lat="43.23802" lon="5.36884">
        <ele>28</ele>
        <time>2017-12-30T22:45:43Z</time>
      </trkpt>
      <trkpt lat="43.23797" lon="5.36889">
        <ele>28</ele>
        <time>2017-12-30T22:46:43Z</time>
      </trkpt>
      <trkpt lat="43.23792" lon="5.36894">
        <ele>29</ele>
        <time>2017-12-30T22:47:43Z</time>
      </trkpt>
      <trkpt lat="43.23787" lon="5.369">
        <ele>29</ele>
        <time>2017-12-30T22:48:43Z</time>
      </trkpt>
      <trkpt lat="43.2378" lon="5.36904">
        <ele>29</ele>
        <time>2017-12-30T22:49:43Z</time>
      </trkpt>
      <trkpt lat="43.23775" lon="5.36909">
        <ele>29</ele>
        <time>2017-12-30T22:50:43Z</time>
      </trkpt>
      <trkpt lat="43.2377" lon="5.36913">
        <ele>30</ele>
        <time>2017-12-30T22:51:43Z</time>
      </trkpt>
      <trkpt lat="43.23765" lon="5.36918">
        <ele>30</ele>
        <time>2017-12-30T22:52:43Z</time>
      </trkpt>
      <trkpt lat="43.23759" lon="5.36924">
        <ele>30</ele>
        <time>2017-12-30T22:53:43Z</time>
      </trkpt>
      <trkpt lat="43.23754" lon="5.36929">
        <ele>30</ele>
        <time>2017-12-30T22:54:43Z</time>
      </trkpt>
      <trkpt lat="43.23748" lon="5.36935">
        <ele>31</ele>
        <time>2017-12-30T22:55:43Z</time>
      </trkpt>
      <trkpt lat="43.23743" lon="5.3694">
        <ele>31</ele>
        <time>2017-12-30T22:56:43Z</time>
      </trkpt>
      <trkpt lat="43.23737" lon="5.36945">
        <ele>31</ele>
        <time>2017-12-30T22:57:43Z</time>
      </trkpt>
      <trkpt lat="43.23732" lon="5.36951">
        <ele>32</ele>
        <time>2017-12-30T22:58:43Z</time>
      </trkpt>
      <trkpt lat="43.23727" lon="5.36956">
        <ele>32</ele>
        <time>2017-12-30T22:59:43Z</time>
      </trkpt>
      <trkpt lat="43.23721" lon="5.36961">
        <ele>32</ele>
        <time>2017-12-30T23:00:43Z</time>
      </trkpt>
      <trkpt lat="43.23715" lon="5.36966">
        <ele>33</ele>
        <time>2017-12-30T23:01:43Z</time>
      </trkpt>
      <trkpt lat="43.2371" lon="5.36972">
        <ele>33</ele>
        <time>2017-12-30T23:02:43Z</time>
      </trkpt>
      <trkpt lat="43.23704" lon="5.36977">
        <ele>34</ele>
        <time>2017-12-30T23:03:43Z</time>
      </trkpt>
      <trkpt lat="43.23698" lon="5.36983">
        <ele>34</ele>
        <time>2017-12-30T23:04:43Z</time>
      </trkpt>
      <trkpt lat="43.23692" lon="5.36989">
        <ele>35</ele>
        <time>2017-12-30T23:05:43Z</time>
      </trkpt>
      <trkpt lat="43.23687" lon="5.36994">
        <ele>36</ele>
        <time>2017-12-30T23:06:43Z</time>
      </trkpt>
      <trkpt lat="43.23681" lon="5.37">
        <ele>36</ele>
        <time>2017-12-30T23:07:43Z</time>
      </trkpt>
      <trkpt lat="43.23675" lon="5.37005">
        <ele>37</ele>
        <time>2017-12-30T23:08:43Z</time>
      </trkpt>
      <trkpt lat="43.23669" lon="5.37012">
        <ele>37</ele>
        <time>2017-12-30T23:09:43Z</time>
      </trkpt>
      <trkpt lat="43.23663" lon="5.37017">
        <ele>38</ele>
        <time>2017-12-30T23:10:43Z</time>
      </trkpt>
      <trkpt lat="43.23657" lon="5.37023">
        <ele>38</ele>
        <time>2017-12-30T23:11:43Z</time>
      </trkpt>
      <trkpt lat="43.23651" lon="5.37029">
        <ele>39</ele>
        <time>2017-12-30T23:12:43Z</time>
      </trkpt>
      <trkpt lat="43.23645" lon="5.37034">
        <ele>39</ele>
        <time>2017-12-30T23:13:43Z</time>
      </trkpt>
      <trkpt lat="43.23639" lon="5.37039">
        <ele>39</ele>
        <time>2017-12-30T23:14:43Z</time>
      </trkpt>
      <trkpt lat="43.23633" lon="5.37046">
        <ele>40</ele>
        <time>2017-12-30T23:15:43Z</time>
      </trkpt>
      <trkpt lat="43.23628" lon="5.37052">
        <ele>40</ele>
        <time>2017-12-30T23:16:43Z</time>
      </trkpt>
      <trkpt lat="43.23622" lon="5.37056">
        <ele>40</ele>
        <time>2017-12-30T23:17:43Z</time>
      </trkpt>
      <trkpt lat="43.23617" lon="5.37061">
        <ele>41</ele>
        <time>2017-12-30T23:18:43Z</time>
      </trkpt>
      <trkpt lat="43.23611" lon="5.37067">
        <ele>41</ele>
        <time>2017-12-30T23:19:43Z</time>
      </trkpt>
      <trkpt lat="43.23605" lon="5.37071">
        <ele>41</ele>
        <time>2017-12-30T23:20:43Z</time>
      </trkpt>
      <trkpt lat="43.236" lon="5.37076">
        <ele>41</ele>
        <time>2017-12-30T23:21:43Z</time>
      </trkpt>
      <trkpt lat="43.23594" lon="5.37082">
        <ele>42</ele>
        <time>2017-12-30T23:22:43Z</time>
      </trkpt>
      <trkpt lat="43.23589" lon="5.37087">
        <ele>42</ele>
        <time>2017-12-30T23:23:43Z</time>
      </trkpt>
      <trkpt lat="43.23584" lon="5.37092">
        <ele>42</ele>
        <time>2017-12-30T23:24:43Z</time>
      </trkpt>
      <trkpt lat="43.23577" lon="5.37098">
        <ele>43</ele>
        <time>2017-12-30T23:25:43Z</time>
      </trkpt>
      <trkpt lat="43.23572" lon="5.37104">
        <ele>44</ele>
        <time>2017-12-30T23:26:43Z</time>
      </trkpt>
      <trkpt lat="43.23566" lon="5.37111">
        <ele>45</ele>
        <time>2017-12-30T23:27:43Z</time>
      </trkpt>
      <trkpt lat="43.2356" lon="5.37115">
        <ele>45</ele>
        <time>2017-12-30T23:28:43Z</time>
      </trkpt>
      <trkpt lat="43.23554" lon="5.37121">
        <ele>46</ele>
        <time>2017-12-30T23:29:43Z</time>
      </trkpt>
      <trkpt lat="43.23549" lon="5.37127">
        <ele>47</ele>
        <time>2017-12-30T23:30:43Z</time>
      </trkpt>
      <trkpt lat="43.23542" lon="5.37132">
        <ele>47</ele>
        <time>2017-12-30T23:31:43Z</time>
      </trkpt>
      <trkpt lat="43.23536" lon="5.37137">
        <ele>48</ele>
        <time>2017-12-30T23:32:43Z</time>
      </trkpt>
      <trkpt lat="43.23531" lon="5.37143">
        <ele>49</ele>
        <time>2017-12-30T23:33:43Z</time>
      </trkpt>
      <trkpt lat="43.23526" lon="5.37148">
        <ele>49</ele>
        <time>2017-12-30T23:34:43Z</time>
      </trkpt>
      <trkpt lat="43.23521" lon="5.37152">
        <ele>50</ele>
        <time>2017-12-30T23:35:43Z</time>
      </trkpt>
      <trkpt lat="43.23515" lon="5.37158">
        <ele>51</ele>
        <time>2017-12-30T23:36:43Z</time>
      </trkpt>
      <trkpt lat="43.23509" lon="5.37165">
        <ele>51</ele>
        <time>2017-12-30T23:37:43Z</time>
      </trkpt>
      <trkpt lat="43.23503" lon="5.37172">
        <ele>52</ele>
        <time>2017-12-30T23:38:43Z</time>
      </trkpt>
      <trkpt lat="43.23497" lon="5.37178">
        <ele>52</ele>
        <time>2017-12-30T23:39:43Z</time>
      </trkpt>
      <trkpt lat="43.23491" lon="5.37183">
        <ele>53</ele>
        <time>2017-12-30T23:40:43Z</time>
      </trkpt>
      <trkpt lat="43.23485" lon="5.37188">
        <ele>53</ele>
        <time>2017-12-30T23:41:43Z</time>
      </trkpt>
      <trkpt lat="43.23479" lon="5.37195">
        <ele>53</ele>
        <time>2017-12-30T23:42:43Z</time>
      </trkpt>
      <trkpt lat="43.23472" lon="5.372">
        <ele>53</ele>
        <time>2017-12-30T23:43:43Z</time>
      </trkpt>
      <trkpt lat="43.23466" lon="5.37207">
        <ele>54</ele>
        <time>2017-12-30T23:44:43Z</time>
      </trkpt>
      <trkpt lat="43.2346" lon="5.37212">
        <ele>54</ele>
        <time>2017-12-30T23:45:43Z</time>
      </trkpt>
      <trkpt lat="43.23454" lon="5.37218">
        <ele>55</ele>
        <time>2017-12-30T23:46:43Z</time>
      </trkpt>
      <trkpt lat="43.23447" lon="5.37223">
        <ele>55</ele>
        <time>2017-12-30T23:47:43Z</time>
      </trkpt>
      <trkpt lat="43.23442" lon="5.37222">
        <ele>55</ele>
        <time>2017-12-30T23:48:43Z</time>
      </trkpt>
      <trkpt lat="43.23436" lon="5.37218">
        <ele>55</ele>
        <time>2017-12-30T23:49:43Z</time>
      </trkpt>
      <trkpt lat="43.23432" lon="5.37211">
        <ele>55</ele>
        <time>2017-12-30T23:50:43Z</time>
      </trkpt>
      <trkpt lat="43.23428" lon="5.37204">
        <ele>54</ele>
        <time>2017-12-30T23:51:43Z</time>
      </trkpt>
      <trkpt lat="43.23423" lon="5.37198">
        <ele>54</ele>
        <time>2017-12-30T23:52:43Z</time>
      </trkpt>
      <trkpt lat="43.23417" lon="5.37193">
        <ele>53</ele>
        <time>2017-12-30T23:53:43Z</time>
      </trkpt>
      <trkpt lat="43.23412" lon="5.37187">
        <ele>53</ele>
        <time>2017-12-30T23:54:43Z</time>
      </trkpt>
      <trkpt lat="43.23406" lon="5.37183">
        <ele>53</ele>
        <time>2017-12-30T23:55:43Z</time>
      </trkpt>
      <trkpt lat="43.23399" lon="5.37181">
        <ele>53</ele>
        <time>2017-12-30T23:56:43Z</time>
      </trkpt>
      <trkpt lat="43.23394" lon="5.37182">
        <ele>53</ele>
        <time>2017-12-30T23:57:43Z</time>
      </trkpt>
      <trkpt lat="43.23388" lon="5.37184">
        <ele>54</ele>
        <time>2017-12-30T23:58:43Z</time>
      </trkpt>
      <trkpt lat="43.23382" lon="5.37185">
        <ele>54</ele>
        <time>2017-12-30T23:59:43Z</time>
      </trkpt>
      <trkpt lat="43.23375" lon="5.37189">
        <ele>54</ele>
        <time>2017-12-31T00:00:43Z</time>
      </trkpt>
      <trkpt lat="43.23369" lon="5.37194">
        <ele>55</ele>
        <time>2017-12-31T00:01:43Z</time>
      </trkpt>
      <trkpt lat="43.23363" lon="5.37198">
        <ele>55</ele>
        <time>2017-12-31T00:02:43Z</time>
      </trkpt>
      <trkpt lat="43.23357" lon="5.37204">
        <ele>56</ele>
        <time>2017-12-31T00:03:43Z</time>
      </trkpt>
      <trkpt lat="43.23352" lon="5.3721">
        <ele>56</ele>
        <time>2017-12-31T00:04:43Z</time>
      </trkpt>
      <trkpt lat="43.23347" lon="5.37217">
        <ele>57</ele>
        <time>2017-12-31T00:05:43Z</time>
      </trkpt>
      <trkpt lat="43.23342" lon="5.37222">
        <ele>57</ele>
        <time>2017-12-31T00:06:43Z</time>
      </trkpt>
      <trkpt lat="43.23337" lon="5.37229">
        <ele>57</ele>
        <time>2017-12-31T00:07:43Z</time>
      </trkpt>
      <trkpt lat="43.23331" lon="5.37238">
        <ele>58</ele>
        <time>2017-12-31T00:08:43Z</time>
      </trkpt>
      <trkpt lat="43.23324" lon="5.37245">
        <ele>58</ele>
        <time>2017-12-31T00:09:43Z</time>
      </trkpt>
      <trkpt lat="43.2332" lon="5.37254">
        <ele>59</ele>
        <time>2017-12-31T00:10:43Z</time>
      </trkpt>
      <trkpt lat="43.23317" lon="5.37264">
        <ele>59</ele>
        <time>2017-12-31T00:11:43Z</time>
      </trkpt>
      <trkpt lat="43.23314" lon="5.37275">
        <ele>60</ele>
        <time>2017-12-31T00:12:43Z</time>
      </trkpt>
      <trkpt lat="43.2331" lon="5.37283">
        <ele>60</ele>
        <time>2017-12-31T00:13:43Z</time>
      </trkpt>
      <trkpt lat="43.23305" lon="5.37291">
        <ele>61</ele>
        <time>2017-12-31T00:14:43Z</time>
      </trkpt>
      <trkpt lat="43.23299" lon="5.37297">
        <ele>61</ele>
        <time>2017-12-31T00:15:43Z</time>
      </trkpt>
      <trkpt lat="43.23294" lon="5.37305">
        <ele>61</ele>
        <time>2017-12-31T00:16:43Z</time>
      </trkpt>
      <trkpt lat="43.23288" lon="5.37315">
        <ele>62</ele>
        <time>2017-12-31T00:17:43Z</time>
      </trkpt>
      <trkpt lat="43.23283" lon="5.37322">
        <ele>62</ele>
        <time>2017-12-31T00:18:43Z</time>
      </trkpt>
      <trkpt lat="43.2328" lon="5.37333">
        <ele>62</ele>
        <time>2017-12-31T00:19:43Z</time>
      </trkpt>
      <trkpt lat="43.23281" lon="5.37343">
        <ele>63</ele>
        <time>2017-12-31T00:20:43Z</time>
      </trkpt>
      <trkpt lat="43.23275" lon="5.3735">
        <ele>64</ele>
        <time>2017-12-31T00:21:43Z</time>
      </trkpt>
      <trkpt lat="43.23267" lon="5.37349">
        <ele>64</ele>
        <time>2017-12-31T00:22:43Z</time>
      </trkpt>
      <trkpt lat="43.23258" lon="5.37347">
        <ele>64</ele>
        <time>2017-12-31T00:23:43Z</time>
      </trkpt>
      <trkpt lat="43.23251" lon="5.37348">
        <ele>64</ele>
        <time>2017-12-31T00:24:43Z</time>
      </trkpt>
      <trkpt lat="43.23242" lon="5.37347">
        <ele>65</ele>
        <time>2017-12-31T00:25:43Z</time>
      </trkpt>
      <trkpt lat="43.23235" lon="5.37348">
        <ele>65</ele>
        <time>2017-12-31T00:26:43Z</time>
      </trkpt>
      <trkpt lat="43.23229" lon="5.37354">
        <ele>66</ele>
        <time>2017-12-31T00:27:43Z</time>
      </trkpt>
      <trkpt lat="43.23223" lon="5.37363">
        <ele>67</ele>
        <time>2017-12-31T00:28:43Z</time>
      </trkpt>
      <trkpt lat="43.23216" lon="5.3737">
        <ele>67</ele>
        <time>2017-12-31T00:29:43Z</time>
      </trkpt>
      <trkpt lat="43.23209" lon="5.37375">
        <ele>68</ele>
        <time>2017-12-31T00:30:43Z</time>
      </trkpt>
      <trkpt lat="43.23202" lon="5.37378">
        <ele>68</ele>
        <time>2017-12-31T00:31:43Z</time>
      </trkpt>
      <trkpt lat="43.23195" lon="5.37383">
        <ele>68</ele>
        <time>2017-12-31T00:32:43Z</time>
      </trkpt>
      <trkpt lat="43.23188" lon="5.37389">
        <ele>68</ele>
        <time>2017-12-31T00:33:43Z</time>
      </trkpt>
      <trkpt lat="43.23182" lon="5.37396">
        <ele>68</ele>
        <time>2017-12-31T00:34:43Z</time>
      </trkpt>
      <trkpt lat="43.23176" lon="5.37402">
        <ele>67</ele>
        <time>2017-12-31T00:35:43Z</time>
      </trkpt>
      <trkpt lat="43.2317" lon="5.37407">
        <ele>67</ele>
        <time>2017-12-31T00:36:43Z</time>
      </trkpt>
      <trkpt lat="43.23164" lon="5.37413">
        <ele>67</ele>
        <time>2017-12-31T00:37:43Z</time>
      </trkpt>
      <trkpt lat="43.23159" lon="5.37418">
        <ele>67</ele>
        <time>2017-12-31T00:38:43Z</time>
      </trkpt>
      <trkpt lat="43.23153" lon="5.37424">
        <ele>69</ele>
        <time>2017-12-31T00:39:43Z</time>
      </trkpt>
      <trkpt lat="43.23147" lon="5.37429">
        <ele>70</ele>
        <time>2017-12-31T00:40:43Z</time>
      </trkpt>
      <trkpt lat="43.23142" lon="5.37434">
        <ele>71</ele>
        <time>2017-12-31T00:41:43Z</time>
      </trkpt>
      <trkpt lat="43.23137" lon="5.37438">
        <ele>71</ele>
        <time>2017-12-31T00:42:43Z</time>
      </trkpt>
      <trkpt lat="43.23131" lon="5.37446">
        <ele>72</ele>
        <time>2017-12-31T00:43:43Z</time>
      </trkpt>
      <trkpt lat="43.23126" lon="5.37453">
        <ele>72</ele>
        <time>2017-12-31T00:44:43Z</time>
      </trkpt>
      <trkpt lat="43.23118" lon="5.37456">
        <ele>73</ele>
        <time>2017-12-31T00:45:43Z</time>
      </trkpt>
      <trkpt lat="43.23113" lon="5.3746">
        <ele>73</ele>
        <time>2017-12-31T00:46:43Z</time>
      </trkpt>
      <trkpt lat="43.23106" lon="5.37463">
        <ele>73</ele>
        <time>2017-12-31T00:47:43Z</time>
      </trkpt>
      <trkpt lat="43.23098" lon="5.37468">
        <ele>73</ele>
        <time>2017-12-31T00:48:43Z</time>
      </trkpt>
      <trkpt lat="43.23091" lon="5.37473">
        <ele>73</ele>
        <time>2017-12-31T00:49:43Z</time>
      </trkpt>
      <trkpt lat="43.23085" lon="5.37475">
        <ele>73</ele>
        <time>2017-12-31T00:50:43Z</time>
      </trkpt>
      <trkpt lat="43.23079" lon="5.37481">
        <ele>74</ele>
        <time>2017-12-31T00:51:43Z</time>
      </trkpt>
      <trkpt lat="43.23072" lon="5.37488">
        <ele>76</ele>
        <time>2017-12-31T00:52:43Z</time>
      </trkpt>
      <trkpt lat="43.23066" lon="5.37493">
        <ele>78</ele>
        <time>2017-12-31T00:53:43Z</time>
      </trkpt>
      <trkpt lat="43.2306" lon="5.37497">
        <ele>79</ele>
        <time>2017-12-31T00:54:43Z</time>
      </trkpt>
      <trkpt lat="43.23055" lon="5.37503">
        <ele>81</ele>
        <time>2017-12-31T00:55:43Z</time>
      </trkpt>
      <trkpt lat="43.23048" lon="5.37508">
        <ele>84</ele>
        <time>2017-12-31T00:56:43Z</time>
      </trkpt>
      <trkpt lat="43.23043" lon="5.37515">
        <ele>86</ele>
        <time>2017-12-31T00:57:43Z</time>
      </trkpt>
      <trkpt lat="43.23038" lon="5.37521">
        <ele>87</ele>
        <time>2017-12-31T00:58:43Z</time>
      </trkpt>
      <trkpt lat="43.23031" lon="5.37528">
        <ele>89</ele>
        <time>2017-12-31T00:59:43Z</time>
      </trkpt>
      <trkpt lat="43.23025" lon="5.37534">
        <ele>90</ele>
        <time>2017-12-31T01:00:43Z</time>
      </trkpt>
      <trkpt lat="43.23021" lon="5.37542">
        <ele>90</ele>
        <time>2017-12-31T01:01:43Z</time>
      </trkpt>
      <trkpt lat="43.23017" lon="5.3755">
        <ele>90</ele>
        <time>2017-12-31T01:02:43Z</time>
      </trkpt>
      <trkpt lat="43.23013" lon="5.37559">
        <ele>90</ele>
        <time>2017-12-31T01:03:43Z</time>
      </trkpt>
      <trkpt lat="43.2301" lon="5.37569">
        <ele>89</ele>
        <time>2017-12-31T01:04:43Z</time>
      </trkpt>
      <trkpt lat="43.23006" lon="5.37576">
        <ele>88</ele>
        <time>2017-12-31T01:05:43Z</time>
      </trkpt>
      <trkpt lat="43.23001" lon="5.37582">
        <ele>87</ele>
        <time>2017-12-31T01:06:43Z</time>
      </trkpt>
      <trkpt lat="43.22994" lon="5.37587">
        <ele>90</ele>
        <time>2017-12-31T01:07:43Z</time>
      </trkpt>
      <trkpt lat="43.22986" lon="5.37589">
        <ele>93</ele>
        <time>2017-12-31T01:08:43Z</time>
      </trkpt>
      <trkpt lat="43.22978" lon="5.3759">
        <ele>96</ele>
        <time>2017-12-31T01:09:43Z</time>
      </trkpt>
      <trkpt lat="43.22971" lon="5.3759">
        <ele>98</ele>
        <time>2017-12-31T01:10:43Z</time>
      </trkpt>
      <trkpt lat="43.22963" lon="5.3759">
        <ele>101</ele>
        <time>2017-12-31T01:11:43Z</time>
      </trkpt>
      <trkpt lat="43.22956" lon="5.3759">
        <ele>103</ele>
        <time>2017-12-31T01:12:43Z</time>
      </trkpt>
      <trkpt lat="43.22949" lon="5.37593">
        <ele>106</ele>
        <time>2017-12-31T01:13:43Z</time>
      </trkpt>
      <trkpt lat="43.22943" lon="5.37598">
        <ele>108</ele>
        <time>2017-12-31T01:14:43Z</time>
      </trkpt>
      <trkpt lat="43.22938" lon="5.37604">
        <ele>109</ele>
        <time>2017-12-31T01:15:43Z</time>
      </trkpt>
      <trkpt lat="43.22933" lon="5.37611">
        <ele>111</ele>
        <time>2017-12-31T01:16:43Z</time>
      </trkpt>
      <trkpt lat="43.22929" lon="5.37617">
        <ele>112</ele>
        <time>2017-12-31T01:17:43Z</time>
      </trkpt>
      <trkpt lat="43.22923" lon="5.37623">
        <ele>113</ele>
        <time>2017-12-31T01:18:43Z</time>
      </trkpt>
      <trkpt lat="43.22918" lon="5.37629">
        <ele>114</ele>
        <time>2017-12-31T01:19:43Z</time>
      </trkpt>
      <trkpt lat="43.22911" lon="5.37635">
        <ele>116</ele>
        <time>2017-12-31T01:20:43Z</time>
      </trkpt>
      <trkpt lat="43.22905" lon="5.37641">
        <ele>118</ele>
        <time>2017-12-31T01:21:43Z</time>
      </trkpt>
      <trkpt lat="43.229" lon="5.37646">
        <ele>120</ele>
        <time>2017-12-31T01:22:43Z</time>
      </trkpt>
      <trkpt lat="43.22893" lon="5.3765">
        <ele>122</ele>
        <time>2017-12-31T01:23:43Z</time>
      </trkpt>
      <trkpt lat="43.22887" lon="5.37651">
        <ele>124</ele>
        <time>2017-12-31T01:24:43Z</time>
      </trkpt>
      <trkpt lat="43.22881" lon="5.37654">
        <ele>125</ele>
        <time>2017-12-31T01:25:43Z</time>
      </trkpt>
      <trkpt lat="43.22874" lon="5.3766">
        <ele>127</ele>
        <time>2017-12-31T01:26:43Z</time>
      </trkpt>
      <trkpt lat="43.22868" lon="5.37666">
        <ele>129</ele>
        <time>2017-12-31T01:27:43Z</time>
      </trkpt>
      <trkpt lat="43.22863" lon="5.37672">
        <ele>131</ele>
        <time>2017-12-31T01:28:43Z</time>
      </trkpt>
      <trkpt lat="43.22858" lon="5.37677">
        <ele>132</ele>
        <time>2017-12-31T01:29:43Z</time>
      </trkpt>
      <trkpt lat="43.22852" lon="5.37683">
        <ele>134</ele>
        <time>2017-12-31T01:30:43Z</time>
      </trkpt>
      <trkpt lat="43.22847" lon="5.37691">
        <ele>135</ele>
        <time>2017-12-31T01:31:43Z</time>
      </trkpt>
      <trkpt lat="43.22842" lon="5.37697">
        <ele>137</ele>
        <time>2017-12-31T01:32:43Z</time>
      </trkpt>
      <trkpt lat="43.22836" lon="5.37705">
        <ele>138</ele>
        <time>2017-12-31T01:33:43Z</time>
      </trkpt>
      <trkpt lat="43.22831" lon="5.37713">
        <ele>139</ele>
        <time>2017-12-31T01:34:43Z</time>
      </trkpt>
      <trkpt lat="43.22824" lon="5.37716">
        <ele>140</ele>
        <time>2017-12-31T01:35:43Z</time>
      </trkpt>
      <trkpt lat="43.22818" lon="5.37721">
        <ele>140</ele>
        <time>2017-12-31T01:36:43Z</time>
      </trkpt>
      <trkpt lat="43.22812" lon="5.37726">
        <ele>140</ele>
        <time>2017-12-31T01:37:43Z</time>
      </trkpt>
      <trkpt lat="43.22804" lon="5.37732">
        <ele>141</ele>
        <time>2017-12-31T01:38:43Z</time>
      </trkpt>
      <trkpt lat="43.22798" lon="5.37733">
        <ele>141</ele>
        <time>2017-12-31T01:39:43Z</time>
      </trkpt>
      <trkpt lat="43.22792" lon="5.37737">
        <ele>141</ele>
        <time>2017-12-31T01:40:43Z</time>
      </trkpt>
      <trkpt lat="43.22786" lon="5.3774">
        <ele>141</ele>
        <time>2017-12-31T01:41:43Z</time>
      </trkpt>
      <trkpt lat="43.22779" lon="5.37744">
        <ele>141</ele>
        <time>2017-12-31T01:42:43Z</time>
      </trkpt>
      <trkpt lat="43.22772" lon="5.37748">
        <ele>140</ele>
        <time>2017-12-31T01:43:43Z</time>
      </trkpt>
      <trkpt lat="43.22765" lon="5.3775">
        <ele>140</ele>
        <time>2017-12-31T01:44:43Z</time>
      </trkpt>
      <trkpt lat="43.22759" lon="5.37754">
        <ele>141</ele>
        <time>2017-12-31T01:45:43Z</time>
      </trkpt>
      <trkpt lat="43.22753" lon="5.37759">
        <ele>142</ele>
        <time>2017-12-31T01:46:43Z</time>
      </trkpt>
      <trkpt lat="43.22747" lon="5.37761">
        <ele>143</ele>
        <time>2017-12-31T01:47:43Z</time>
      </trkpt>
      <trkpt lat="43.2274" lon="5.37766">
        <ele>146</ele>
        <time>2017-12-31T01:48:43Z</time>
      </trkpt>
      <trkpt lat="43.22733" lon="5.3777">
        <ele>149</ele>
        <time>2017-12-31T01:49:43Z</time>
      </trkpt>
      <trkpt lat="43.22728" lon="5.37775">
        <ele>151</ele>
        <time>2017-12-31T01:50:43Z</time>
      </trkpt>
      <trkpt lat="43.22723" lon="5.37781">
        <ele>152</ele>
        <time>2017-12-31T01:51:43Z</time>
      </trkpt>
      <trkpt lat="43.22718" lon="5.37787">
        <ele>154</ele>
        <time>2017-12-31T01:52:43Z</time>
      </trkpt>
      <trkpt lat="43.22712" lon="5.37793">
        <ele>155</ele>
        <time>2017-12-31T01:53:43Z</time>
      </trkpt>
      <trkpt lat="43.22707" lon="5.37798">
        <ele>156</ele>
        <time>2017-12-31T01:54:43Z</time>
      </trkpt>
      <trkpt lat="43.22701" lon="5.37805">
        <ele>157</ele>
        <time>2017-12-31T01:55:43Z</time>
      </trkpt>
      <trkpt lat="43.22696" lon="5.37813">
        <ele>157</ele>
        <time>2017-12-31T01:56:43Z</time>
      </trkpt>
      <trkpt lat="43.22693" lon="5.37821">
        <ele>156</ele>
        <time>2017-12-31T01:57:43Z</time>
      </trkpt>
      <trkpt lat="43.22696" lon="5.37827">
        <ele>155</ele>
        <time>2017-12-31T01:58:43Z</time>
      </trkpt>
      <trkpt lat="43.227" lon="5.37835">
        <ele>154</ele>
        <time>2017-12-31T01:59:43Z</time>
      </trkpt>
      <trkpt lat="43.22704" lon="5.37844">
        <ele>156</ele>
        <time>2017-12-31T02:00:43Z</time>
      </trkpt>
      <trkpt lat="43.22709" lon="5.37852">
        <ele>158</ele>
        <time>2017-12-31T02:01:43Z</time>
      </trkpt>
      <trkpt lat="43.22714" lon="5.37861">
        <ele>160</ele>
        <time>2017-12-31T02:02:43Z</time>
      </trkpt>
      <trkpt lat="43.22717" lon="5.3787">
        <ele>162</ele>
        <time>2017-12-31T02:03:43Z</time>
      </trkpt>
      <trkpt lat="43.22718" lon="5.37878">
        <ele>164</ele>
        <time>2017-12-31T02:04:43Z</time>
      </trkpt>
      <trkpt lat="43.22718" lon="5.37888">
        <ele>166</ele>
        <time>2017-12-31T02:05:43Z</time>
      </trkpt>
      <trkpt lat="43.22721" lon="5.37895">
        <ele>168</ele>
        <time>2017-12-31T02:06:43Z</time>
      </trkpt>
      <trkpt lat="43.22725" lon="5.37903">
        <ele>169</ele>
        <time>2017-12-31T02:07:43Z</time>
      </trkpt>
      <trkpt lat="43.22732" lon="5.37908">
        <ele>169</ele>
        <time>2017-12-31T02:08:43Z</time>
      </trkpt>
      <trkpt lat="43.2274" lon="5.3791">
        <ele>168</ele>
        <time>2017-12-31T02:09:43Z</time>
      </trkpt>
      <trkpt lat="43.22747" lon="5.37912">
        <ele>167</ele>
        <time>2017-12-31T02:10:43Z</time>
      </trkpt>
      <trkpt lat="43.22754" lon="5.37912">
        <ele>166</ele>
        <time>2017-12-31T02:11:43Z</time>
      </trkpt>
      <trkpt lat="43.22762" lon="5.37914">
        <ele>168</ele>
        <time>2017-12-31T02:12:43Z</time>
      </trkpt>
      <trkpt lat="43.22767" lon="5.37919">
        <ele>170</ele>
        <time>2017-12-31T02:13:43Z</time>
      </trkpt>
      <trkpt lat="43.22767" lon="5.37928">
        <ele>173</ele>
        <time>2017-12-31T02:14:43Z</time>
      </trkpt>
      <trkpt lat="43.22766" lon="5.37936">
        <ele>176</ele>
        <time>2017-12-31T02:15:43Z</time>
      </trkpt>
      <trkpt lat="43.22768" lon="5.37943">
        <ele>179</ele>
        <time>2017-12-31T02:16:43Z</time>
      </trkpt>
      <trkpt lat="43.22771" lon="5.37953">
        <ele>183</ele>
        <time>2017-12-31T02:17:43Z</time>
      </trkpt>
      <trkpt lat="43.22765" lon="5.37958">
        <ele>184</ele>
        <time>2017-12-31T02:18:43Z</time>
      </trkpt>
      <trkpt lat="43.22761" lon="5.37965">
        <ele>186</ele>
        <time>2017-12-31T02:19:43Z</time>
      </trkpt>
      <trkpt lat="43.22764" lon="5.37972">
        <ele>188</ele>
        <time>2017-12-31T02:20:43Z</time>
      </trkpt>
      <trkpt lat="43.22768" lon="5.3798">
        <ele>192</ele>
        <time>2017-12-31T02:21:43Z</time>
      </trkpt>
      <trkpt lat="43.22763" lon="5.37985">
        <ele>193</ele>
        <time>2017-12-31T02:22:43Z</time>
      </trkpt>
      <trkpt lat="43.2276" lon="5.37993">
        <ele>195</ele>
        <time>2017-12-31T02:23:43Z</time>
      </trkpt>
      <trkpt lat="43.22762" lon="5.38002">
        <ele>199</ele>
        <time>2017-12-31T02:24:43Z</time>
      </trkpt>
      <trkpt lat="43.22769" lon="5.38008">
        <ele>202</ele>
        <time>2017-12-31T02:25:43Z</time>
      </trkpt>
      <trkpt lat="43.22777" lon="5.38013">
        <ele>205</ele>
        <time>2017-12-31T02:26:43Z</time>
      </trkpt>
      <trkpt lat="43.22782" lon="5.3802">
        <ele>208</ele>
        <time>2017-12-31T02:27:43Z</time>
      </trkpt>
      <trkpt lat="43.22779" lon="5.38027">
        <ele>209</ele>
        <time>2017-12-31T02:28:43Z</time>
      </trkpt>
      <trkpt lat="43.22775" lon="5.38035">
        <ele>211</ele>
        <time>2017-12-31T02:29:43Z</time>
      </trkpt>
      <trkpt lat="43.22771" lon="5.38044">
        <ele>213</ele>
        <time>2017-12-31T02:30:43Z</time>
      </trkpt>
      <trkpt lat="43.22767" lon="5.38051">
        <ele>215</ele>
        <time>2017-12-31T02:31:43Z</time>
      </trkpt>
      <trkpt lat="43.22764" lon="5.3806">
        <ele>217</ele>
        <time>2017-12-31T02:32:43Z</time>
      </trkpt>
      <trkpt lat="43.22761" lon="5.38068">
        <ele>219</ele>
        <time>2017-12-31T02:33:43Z</time>
      </trkpt>
      <trkpt lat="43.22756" lon="5.38074">
        <ele>220</ele>
        <time>2017-12-31T02:34:43Z</time>
      </trkpt>
      <trkpt lat="43.22754" lon="5.38084">
        <ele>223</ele>
        <time>2017-12-31T02:35:43Z</time>
      </trkpt>
      <trkpt lat="43.22748" lon="5.38088">
        <ele>224</ele>
        <time>2017-12-31T02:36:43Z</time>
      </trkpt>
      <trkpt lat="43.22742" lon="5.38092">
        <ele>226</ele>
        <time>2017-12-31T02:37:43Z</time>
      </trkpt>
      <trkpt lat="43.22736" lon="5.38092">
        <ele>227</ele>
        <time>2017-12-31T02:38:43Z</time>
      </trkpt>
      <trkpt lat="43.22729" lon="5.38094">
        <ele>229</ele>
        <time>2017-12-31T02:39:43Z</time>
      </trkpt>
      <trkpt lat="43.22723" lon="5.38098">
        <ele>231</ele>
        <time>2017-12-31T02:40:43Z</time>
      </trkpt>
      <trkpt lat="43.22719" lon="5.38105">
        <ele>234</ele>
        <time>2017-12-31T02:41:43Z</time>
      </trkpt>
      <trkpt lat="43.2272" lon="5.38114">
        <ele>236</ele>
        <time>2017-12-31T02:42:43Z</time>
      </trkpt>
      <trkpt lat="43.22717" lon="5.38121">
        <ele>239</ele>
        <time>2017-12-31T02:43:43Z</time>
      </trkpt>
      <trkpt lat="43.22712" lon="5.38126">
        <ele>241</ele>
        <time>2017-12-31T02:44:43Z</time>
      </trkpt>
      <trkpt lat="43.22708" lon="5.38134">
        <ele>244</ele>
        <time>2017-12-31T02:45:43Z</time>
      </trkpt>
      <trkpt lat="43.22704" lon="5.38141">
        <ele>247</ele>
        <time>2017-12-31T02:46:43Z</time>
      </trkpt>
      <trkpt lat="43.22699" lon="5.38145">
        <ele>249</ele>
        <time>2017-12-31T02:47:43Z</time>
      </trkpt>
      <trkpt lat="43.22694" lon="5.38143">
        <ele>250</ele>
        <time>2017-12-31T02:48:43Z</time>
      </trkpt>
      <trkpt lat="43.22689" lon="5.38137">
        <ele>249</ele>
        <time>2017-12-31T02:49:43Z</time>
      </trkpt>
      <trkpt lat="43.22683" lon="5.38131">
        <ele>248</ele>
        <time>2017-12-31T02:50:43Z</time>
      </trkpt>
      <trkpt lat="43.22678" lon="5.38126">
        <ele>248</ele>
        <time>2017-12-31T02:51:43Z</time>
      </trkpt>
      <trkpt lat="43.22673" lon="5.38121">
        <ele>248</ele>
        <time>2017-12-31T02:52:43Z</time>
      </trkpt>
      <trkpt lat="43.22668" lon="5.38114">
        <ele>247</ele>
        <time>2017-12-31T02:53:43Z</time>
      </trkpt>
      <trkpt lat="43.22663" lon="5.38107">
        <ele>246</ele>
        <time>2017-12-31T02:54:43Z</time>
      </trkpt>
      <trkpt lat="43.22659" lon="5.38098">
        <ele>245</ele>
        <time>2017-12-31T02:55:43Z</time>
      </trkpt>
      <trkpt lat="43.22656" lon="5.38091">
        <ele>244</ele>
        <time>2017-12-31T02:56:43Z</time>
      </trkpt>
      <trkpt lat="43.22651" lon="5.38084">
        <ele>244</ele>
        <time>2017-12-31T02:57:43Z</time>
      </trkpt>
      <trkpt lat="43.22647" lon="5.38076">
        <ele>243</ele>
        <time>2017-12-31T02:58:43Z</time>
      </trkpt>
      <trkpt lat="43.22645" lon="5.38068">
        <ele>242</ele>
        <time>2017-12-31T02:59:43Z</time>
      </trkpt>
      <trkpt lat="43.22643" lon="5.38061">
        <ele>242</ele>
        <time>2017-12-31T03:00:43Z</time>
      </trkpt>
      <trkpt lat="43.2264" lon="5.38052">
        <ele>241</ele>
        <time>2017-12-31T03:01:43Z</time>
      </trkpt>
      <trkpt lat="43.2264" lon="5.38045">
        <ele>239</ele>
        <time>2017-12-31T03:02:43Z</time>
      </trkpt>
      <trkpt lat="43.22636" lon="5.38038">
        <ele>239</ele>
        <time>2017-12-31T03:03:43Z</time>
      </trkpt>
      <trkpt lat="43.22632" lon="5.3803">
        <ele>239</ele>
        <time>2017-12-31T03:04:43Z</time>
      </trkpt>
      <trkpt lat="43.2263" lon="5.38021">
        <ele>237</ele>
        <time>2017-12-31T03:05:43Z</time>
      </trkpt>
      <trkpt lat="43.22628" lon="5.38013">
        <ele>236</ele>
        <time>2017-12-31T03:06:43Z</time>
      </trkpt>
      <trkpt lat="43.22628" lon="5.38003">
        <ele>234</ele>
        <time>2017-12-31T03:07:43Z</time>
      </trkpt>
      <trkpt lat="43.22622" lon="5.37999">
        <ele>234</ele>
        <time>2017-12-31T03:08:43Z</time>
      </trkpt>
      <trkpt lat="43.22616" lon="5.37993">
        <ele>234</ele>
        <time>2017-12-31T03:09:43Z</time>
      </trkpt>
      <trkpt lat="43.22611" lon="5.3799">
        <ele>235</ele>
        <time>2017-12-31T03:10:43Z</time>
      </trkpt>
      <trkpt lat="43.22605" lon="5.37986">
        <ele>235</ele>
        <time>2017-12-31T03:11:43Z</time>
      </trkpt>
      <trkpt lat="43.226" lon="5.3798">
        <ele>235</ele>
        <time>2017-12-31T03:12:43Z</time>
      </trkpt>
      <trkpt lat="43.22595" lon="5.37972">
        <ele>235</ele>
        <time>2017-12-31T03:13:43Z</time>
      </trkpt>
      <trkpt lat="43.22594" lon="5.37966">
        <ele>233</ele>
        <time>2017-12-31T03:14:43Z</time>
      </trkpt>
      <trkpt lat="43.22592" lon="5.37959">
        <ele>232</ele>
        <time>2017-12-31T03:15:43Z</time>
      </trkpt>
      <trkpt lat="43.22591" lon="5.3795">
        <ele>231</ele>
        <time>2017-12-31T03:16:43Z</time>
      </trkpt>
      <trkpt lat="43.22589" lon="5.37943">
        <ele>230</ele>
        <time>2017-12-31T03:17:43Z</time>
      </trkpt>
      <trkpt lat="43.22584" lon="5.37936">
        <ele>230</ele>
        <time>2017-12-31T03:18:43Z</time>
      </trkpt>
      <trkpt lat="43.22579" lon="5.3793">
        <ele>229</ele>
        <time>2017-12-31T03:19:43Z</time>
      </trkpt>
      <trkpt lat="43.22572" lon="5.37928">
        <ele>229</ele>
        <time>2017-12-31T03:20:43Z</time>
      </trkpt>
      <trkpt lat="43.22565" lon="5.37928">
        <ele>229</ele>
        <time>2017-12-31T03:21:43Z</time>
      </trkpt>
      <trkpt lat="43.22559" lon="5.37924">
        <ele>229</ele>
        <time>2017-12-31T03:22:43Z</time>
      </trkpt>
      <trkpt lat="43.22552" lon="5.3792">
        <ele>228</ele>
        <time>2017-12-31T03:23:43Z</time>
      </trkpt>
      <trkpt lat="43.22546" lon="5.37918">
        <ele>228</ele>
        <time>2017-12-31T03:24:43Z</time>
      </trkpt>
      <trkpt lat="43.22539" lon="5.37918">
        <ele>228</ele>
        <time>2017-12-31T03:25:43Z</time>
      </trkpt>
      <trkpt lat="43.22532" lon="5.37913">
        <ele>229</ele>
        <time>2017-12-31T03:26:43Z</time>
      </trkpt>
      <trkpt lat="43.22526" lon="5.37912">
        <ele>229</ele>
        <time>2017-12-31T03:27:43Z</time>
      </trkpt>
      <trkpt lat="43.2252" lon="5.37912">
        <ele>229</ele>
        <time>2017-12-31T03:28:43Z</time>
      </trkpt>
      <trkpt lat="43.22514" lon="5.37918">
        <ele>229</ele>
        <time>2017-12-31T03:29:43Z</time>
      </trkpt>
      <trkpt lat="43.22508" lon="5.37924">
        <ele>230</ele>
        <time>2017-12-31T03:30:43Z</time>
      </trkpt>
      <trkpt lat="43.22502" lon="5.3793">
        <ele>231</ele>
        <time>2017-12-31T03:31:43Z</time>
      </trkpt>
      <trkpt lat="43.22497" lon="5.37935">
        <ele>232</ele>
        <time>2017-12-31T03:32:43Z</time>
      </trkpt>
      <trkpt lat="43.2249" lon="5.37937">
        <ele>233</ele>
        <time>2017-12-31T03:33:43Z</time>
      </trkpt>
      <trkpt lat="43.22484" lon="5.37937">
        <ele>233</ele>
        <time>2017-12-31T03:34:43Z</time>
      </trkpt>
      <trkpt lat="43.22478" lon="5.37932">
        <ele>234</ele>
        <time>2017-12-31T03:35:43Z</time>
      </trkpt>
      <trkpt lat="43.22472" lon="5.3793">
        <ele>234</ele>
        <time>2017-12-31T03:36:43Z</time>
      </trkpt>
      <trkpt lat="43.22467" lon="5.37925">
        <ele>234</ele>
        <time>2017-12-31T03:37:43Z</time>
      </trkpt>
      <trkpt lat="43.22462" lon="5.37919">
        <ele>235</ele>
        <time>2017-12-31T03:38:43Z</time>
      </trkpt>
      <trkpt lat="43.22457" lon="5.37913">
        <ele>236</ele>
        <time>2017-12-31T03:39:43Z</time>
      </trkpt>
      <trkpt lat="43.22451" lon="5.37907">
        <ele>237</ele>
        <time>2017-12-31T03:40:43Z</time>
      </trkpt>
      <trkpt lat="43.22445" lon="5.37902">
        <ele>239</ele>
        <time>2017-12-31T03:41:43Z</time>
      </trkpt>
      <trkpt lat="43.22441" lon="5.37895">
        <ele>240</ele>
        <time>2017-12-31T03:42:43Z</time>
      </trkpt>
      <trkpt lat="43.22436" lon="5.37889">
        <ele>242</ele>
        <time>2017-12-31T03:43:43Z</time>
      </trkpt>
      <trkpt lat="43.22431" lon="5.37883">
        <ele>244</ele>
        <time>2017-12-31T03:44:43Z</time>
      </trkpt>
      <trkpt lat="43.22427" lon="5.37876">
        <ele>246</ele>
        <time>2017-12-31T03:45:43Z</time>
      </trkpt>
      <trkpt lat="43.22423" lon="5.37869">
        <ele>247</ele>
        <time>2017-12-31T03:46:43Z</time>
      </trkpt>
      <trkpt lat="43.22419" lon="5.37861">
        <ele>250</ele>
        <time>2017-12-31T03:47:43Z</time>
      </trkpt>
      <trkpt lat="43.22414" lon="5.37854">
        <ele>252</ele>
        <time>2017-12-31T03:48:43Z</time>
      </trkpt>
      <trkpt lat="43.22409" lon="5.37847">
        <ele>253</ele>
        <time>2017-12-31T03:49:43Z</time>
      </trkpt>
      <trkpt lat="43.22404" lon="5.37845">
        <ele>254</ele>
        <time>2017-12-31T03:50:43Z</time>
      </trkpt>
      <trkpt lat="43.22404" lon="5.37854">
        <ele>253</ele>
        <time>2017-12-31T03:51:43Z</time>
      </trkpt>
      <trkpt lat="43.22404" lon="5.37862">
        <ele>252</ele>
        <time>2017-12-31T03:52:43Z</time>
      </trkpt>
      <trkpt lat="43.22404" lon="5.3787">
        <ele>251</ele>
        <time>2017-12-31T03:53:43Z</time>
      </trkpt>
      <trkpt lat="43.22402" lon="5.3788">
        <ele>250</ele>
        <time>2017-12-31T03:54:43Z</time>
      </trkpt>
      <trkpt lat="43.22398" lon="5.37888">
        <ele>250</ele>
        <time>2017-12-31T03:55:43Z</time>
      </trkpt>
      <trkpt lat="43.22392" lon="5.37896">
        <ele>250</ele>
        <time>2017-12-31T03:56:43Z</time>
      </trkpt>
      <trkpt lat="43.22387" lon="5.37902">
        <ele>251</ele>
        <time>2017-12-31T03:57:43Z</time>
      </trkpt>
      <trkpt lat="43.22381" lon="5.37906">
        <ele>252</ele>
        <time>2017-12-31T03:58:43Z</time>
      </trkpt>
      <trkpt lat="43.22375" lon="5.37902">
        <ele>254</ele>
        <time>2017-12-31T03:59:43Z</time>
      </trkpt>
      <trkpt lat="43.2237" lon="5.37894">
        <ele>256</ele>
        <time>2017-12-31T04:00:43Z</time>
      </trkpt>
      <trkpt lat="43.22366" lon="5.37887">
        <ele>257</ele>
        <time>2017-12-31T04:01:43Z</time>
      </trkpt>
      <trkpt lat="43.22361" lon="5.37879">
        <ele>258</ele>
        <time>2017-12-31T04:02:43Z</time>
      </trkpt>
      <trkpt lat="43.22356" lon="5.37871">
        <ele>259</ele>
        <time>2017-12-31T04:03:43Z</time>
      </trkpt>
      <trkpt lat="43.22351" lon="5.37864">
        <ele>260</ele>
        <time>2017-12-31T04:04:43Z</time>
      </trkpt>
      <trkpt lat="43.22347" lon="5.37858">
        <ele>261</ele>
        <time>2017-12-31T04:05:43Z</time>
      </trkpt>
      <trkpt lat="43.22344" lon="5.37848">
        <ele>261</ele>
        <time>2017-12-31T04:06:43Z</time>
      </trkpt>
      <trkpt lat="43.22345" lon="5.37839">
        <ele>260</ele>
        <time>2017-12-31T04:07:43Z</time>
      </trkpt>
      <trkpt lat="43.22343" lon="5.3783">
        <ele>261</ele>
        <time>2017-12-31T04:08:43Z</time>
      </trkpt>
      <trkpt lat="43.22337" lon="5.37827">
        <ele>261</ele>
        <time>2017-12-31T04:09:43Z</time>
      </trkpt>
      <trkpt lat="43.22333" lon="5.37834">
        <ele>261</ele>
        <time>2017-12-31T04:10:43Z</time>
      </trkpt>
      <trkpt lat="43.22327" lon="5.37833">
        <ele>259</ele>
        <time>2017-12-31T04:11:43Z</time>
      </trkpt>
      <trkpt lat="43.22327" lon="5.37822">
        <ele>260</ele>
        <time>2017-12-31T04:12:43Z</time>
      </trkpt>
      <trkpt lat="43.22329" lon="5.37814">
        <ele>261</ele>
        <time>2017-12-31T04:13:43Z</time>
      </trkpt>
      <trkpt lat="43.22329" lon="5.37805">
        <ele>262</ele>
        <time>2017-12-31T04:14:43Z</time>
      </trkpt>
      <trkpt lat="43.22329" lon="5.37795">
        <ele>262</ele>
        <time>2017-12-31T04:15:43Z</time>
      </trkpt>
      <trkpt lat="43.22326" lon="5.37786">
        <ele>262</ele>
        <time>2017-12-31T04:16:43Z</time>
      </trkpt>
      <trkpt lat="43.22323" lon="5.37779">
        <ele>261</ele>
        <time>2017-12-31T04:17:43Z</time>
      </trkpt>
      <trkpt lat="43.22321" lon="5.37771">
        <ele>261</ele>
        <time>2017-12-31T04:18:43Z</time>
      </trkpt>
      <trkpt lat="43.22317" lon="5.37764">
        <ele>260</ele>
        <time>2017-12-31T04:19:43Z</time>
      </trkpt>
      <trkpt lat="43.22315" lon="5.37757">
        <ele>259</ele>
        <time>2017-12-31T04:20:43Z</time>
      </trkpt>
      <trkpt lat="43.22312" lon="5.3775">
        <ele>258</ele>
        <time>2017-12-31T04:21:43Z</time>
      </trkpt>
      <trkpt lat="43.22308" lon="5.37743">
        <ele>258</ele>
        <time>2017-12-31T04:22:43Z</time>
      </trkpt>
      <trkpt lat="43.22302" lon="5.37737">
        <ele>256</ele>
        <time>2017-12-31T04:23:43Z</time>
      </trkpt>
      <trkpt lat="43.22297" lon="5.3773">
        <ele>255</ele>
        <time>2017-12-31T04:24:43Z</time>
      </trkpt>
      <trkpt lat="43.22293" lon="5.37723">
        <ele>255</ele>
        <time>2017-12-31T04:25:43Z</time>
      </trkpt>
      <trkpt lat="43.22287" lon="5.37717">
        <ele>253</ele>
        <time>2017-12-31T04:26:43Z</time>
      </trkpt>
      <trkpt lat="43.22282" lon="5.37711">
        <ele>252</ele>
        <time>2017-12-31T04:27:43Z</time>
      </trkpt>
      <trkpt lat="43.22281" lon="5.37702">
        <ele>252</ele>
        <time>2017-12-31T04:28:43Z</time>
      </trkpt>
      <trkpt lat="43.22276" lon="5.37697">
        <ele>251</ele>
        <time>2017-12-31T04:29:43Z</time>
      </trkpt>
      <trkpt lat="43.22273" lon="5.3769">
        <ele>250</ele>
        <time>2017-12-31T04:30:43Z</time>
      </trkpt>
      <trkpt lat="43.22272" lon="5.37683">
        <ele>250</ele>
        <time>2017-12-31T04:31:43Z</time>
      </trkpt>
      <trkpt lat="43.22271" lon="5.37674">
        <ele>251</ele>
        <time>2017-12-31T04:32:43Z</time>
      </trkpt>
      <trkpt lat="43.22271" lon="5.37666">
        <ele>252</ele>
        <time>2017-12-31T04:33:43Z</time>
      </trkpt>
      <trkpt lat="43.22267" lon="5.37659">
        <ele>251</ele>
        <time>2017-12-31T04:34:43Z</time>
      </trkpt>
      <trkpt lat="43.22264" lon="5.37652">
        <ele>251</ele>
        <time>2017-12-31T04:35:43Z</time>
      </trkpt>
      <trkpt lat="43.22262" lon="5.37644">
        <ele>252</ele>
        <time>2017-12-31T04:36:43Z</time>
      </trkpt>
      <trkpt lat="43.22257" lon="5.37639">
        <ele>250</ele>
        <time>2017-12-31T04:37:43Z</time>
      </trkpt>
      <trkpt lat="43.22252" lon="5.37644">
        <ele>246</ele>
        <time>2017-12-31T04:38:43Z</time>
      </trkpt>
      <trkpt lat="43.22246" lon="5.37649">
        <ele>244</ele>
        <time>2017-12-31T04:39:43Z</time>
      </trkpt>
      <trkpt lat="43.2224" lon="5.37652">
        <ele>243</ele>
        <time>2017-12-31T04:40:43Z</time>
      </trkpt>
      <trkpt lat="43.22234" lon="5.37649">
        <ele>244</ele>
        <time>2017-12-31T04:41:43Z</time>
      </trkpt>
      <trkpt lat="43.22231" lon="5.37641">
        <ele>246</ele>
        <time>2017-12-31T04:42:43Z</time>
      </trkpt>
      <trkpt lat="43.22227" lon="5.37634">
        <ele>247</ele>
        <time>2017-12-31T04:43:43Z</time>
      </trkpt>
      <trkpt lat="43.22222" lon="5.37627">
        <ele>249</ele>
        <time>2017-12-31T04:44:43Z</time>
      </trkpt>
      <trkpt lat="43.22216" lon="5.37629">
        <ele>249</ele>
        <time>2017-12-31T04:45:43Z</time>
      </trkpt>
      <trkpt lat="43.22216" lon="5.37639">
        <ele>246</ele>
        <time>2017-12-31T04:46:43Z</time>
      </trkpt>
      <trkpt lat="43.22217" lon="5.37647">
        <ele>244</ele>
        <time>2017-12-31T04:47:43Z</time>
      </trkpt>
      <trkpt lat="43.22216" lon="5.37656">
        <ele>242</ele>
        <time>2017-12-31T04:48:43Z</time>
      </trkpt>
      <trkpt lat="43.22214" lon="5.37665">
        <ele>240</ele>
        <time>2017-12-31T04:49:43Z</time>
      </trkpt>
      <trkpt lat="43.22211" lon="5.37672">
        <ele>239</ele>
        <time>2017-12-31T04:50:43Z</time>
      </trkpt>
      <trkpt lat="43.22209" lon="5.3768">
        <ele>238</ele>
        <time>2017-12-31T04:51:43Z</time>
      </trkpt>
      <trkpt lat="43.22207" lon="5.37688">
        <ele>236</ele>
        <time>2017-12-31T04:52:43Z</time>
      </trkpt>
      <trkpt lat="43.22205" lon="5.37695">
        <ele>235</ele>
        <time>2017-12-31T04:53:43Z</time>
      </trkpt>
      <trkpt lat="43.22203" lon="5.37704">
        <ele>233</ele>
        <time>2017-12-31T04:54:43Z</time>
      </trkpt>
      <trkpt lat="43.222" lon="5.37712">
        <ele>231</ele>
        <time>2017-12-31T04:55:43Z</time>
      </trkpt>
      <trkpt lat="43.22197" lon="5.3772">
        <ele>229</ele>
        <time>2017-12-31T04:56:43Z</time>
      </trkpt>
      <trkpt lat="43.22195" lon="5.37731">
        <ele>226</ele>
        <time>2017-12-31T04:57:43Z</time>
      </trkpt>
      <trkpt lat="43.22195" lon="5.3774">
        <ele>224</ele>
        <time>2017-12-31T04:58:43Z</time>
      </trkpt>
      <trkpt lat="43.22195" lon="5.3775">
        <ele>222</ele>
        <time>2017-12-31T04:59:43Z</time>
      </trkpt>
      <trkpt lat="43.22194" lon="5.3776">
        <ele>222</ele>
        <time>2017-12-31T05:00:43Z</time>
      </trkpt>
      <trkpt lat="43.22195" lon="5.37768">
        <ele>222</ele>
        <time>2017-12-31T05:01:43Z</time>
      </trkpt>
      <trkpt lat="43.22191" lon="5.37776">
        <ele>221</ele>
        <time>2017-12-31T05:02:43Z</time>
      </trkpt>
      <trkpt lat="43.22185" lon="5.37785">
        <ele>220</ele>
        <time>2017-12-31T05:03:43Z</time>
      </trkpt>
      <trkpt lat="43.22181" lon="5.37792">
        <ele>219</ele>
        <time>2017-12-31T05:04:43Z</time>
      </trkpt>
      <trkpt lat="43.22176" lon="5.37799">
        <ele>217</ele>
        <time>2017-12-31T05:05:43Z</time>
      </trkpt>
      <trkpt lat="43.22171" lon="5.37806">
        <ele>216</ele>
        <time>2017-12-31T05:06:43Z</time>
      </trkpt>
      <trkpt lat="43.22164" lon="5.37811">
        <ele>214</ele>
        <time>2017-12-31T05:07:43Z</time>
      </trkpt>
      <trkpt lat="43.22158" lon="5.37815">
        <ele>212</ele>
        <time>2017-12-31T05:08:43Z</time>
      </trkpt>
      <trkpt lat="43.22152" lon="5.37821">
        <ele>210</ele>
        <time>2017-12-31T05:09:43Z</time>
      </trkpt>
      <trkpt lat="43.22147" lon="5.37823">
        <ele>209</ele>
        <time>2017-12-31T05:10:43Z</time>
      </trkpt>
      <trkpt lat="43.22142" lon="5.37821">
        <ele>208</ele>
        <time>2017-12-31T05:11:43Z</time>
      </trkpt>
      <trkpt lat="43.22135" lon="5.3782">
        <ele>206</ele>
        <time>2017-12-31T05:12:43Z</time>
      </trkpt>
      <trkpt lat="43.22129" lon="5.3782">
        <ele>205</ele>
        <time>2017-12-31T05:13:43Z</time>
      </trkpt>
      <trkpt lat="43.22124" lon="5.37821">
        <ele>203</ele>
        <time>2017-12-31T05:14:43Z</time>
      </trkpt>
      <trkpt lat="43.22117" lon="5.37821">
        <ele>202</ele>
        <time>2017-12-31T05:15:43Z</time>
      </trkpt>
      <trkpt lat="43.22112" lon="5.37816">
        <ele>201</ele>
        <time>2017-12-31T05:16:43Z</time>
      </trkpt>
      <trkpt lat="43.22106" lon="5.37815">
        <ele>200</ele>
        <time>2017-12-31T05:17:43Z</time>
      </trkpt>
      <trkpt lat="43.22099" lon="5.37818">
        <ele>198</ele>
        <time>2017-12-31T05:18:43Z</time>
      </trkpt>
      <trkpt lat="43.22093" lon="5.37818">
        <ele>197</ele>
        <time>2017-12-31T05:19:43Z</time>
      </trkpt>
      <trkpt lat="43.22087" lon="5.37821">
        <ele>194</ele>
        <time>2017-12-31T05:20:43Z</time>
      </trkpt>
      <trkpt lat="43.22082" lon="5.37827">
        <ele>191</ele>
        <time>2017-12-31T05:21:43Z</time>
      </trkpt>
      <trkpt lat="43.22076" lon="5.37833">
        <ele>187</ele>
        <time>2017-12-31T05:22:43Z</time>
      </trkpt>
      <trkpt lat="43.22071" lon="5.3784">
        <ele>184</ele>
        <time>2017-12-31T05:23:43Z</time>
      </trkpt>
      <trkpt lat="43.22066" lon="5.37847">
        <ele>182</ele>
        <time>2017-12-31T05:24:43Z</time>
      </trkpt>
      <trkpt lat="43.22063" lon="5.37855">
        <ele>179</ele>
        <time>2017-12-31T05:25:43Z</time>
      </trkpt>
      <trkpt lat="43.22061" lon="5.37864">
        <ele>178</ele>
        <time>2017-12-31T05:26:43Z</time>
      </trkpt>
      <trkpt lat="43.22058" lon="5.37872">
        <ele>176</ele>
        <time>2017-12-31T05:27:43Z</time>
      </trkpt>
      <trkpt lat="43.22055" lon="5.3788">
        <ele>173</ele>
        <time>2017-12-31T05:28:43Z</time>
      </trkpt>
      <trkpt lat="43.2205" lon="5.37875">
        <ele>172</ele>
        <time>2017-12-31T05:29:43Z</time>
      </trkpt>
      <trkpt lat="43.22045" lon="5.37869">
        <ele>171</ele>
        <time>2017-12-31T05:30:43Z</time>
      </trkpt>
      <trkpt lat="43.2204" lon="5.37876">
        <ele>168</ele>
        <time>2017-12-31T05:31:43Z</time>
      </trkpt>
      <trkpt lat="43.22041" lon="5.37882">
        <ele>167</ele>
        <time>2017-12-31T05:32:43Z</time>
      </trkpt>
      <trkpt lat="43.22044" lon="5.37891">
        <ele>168</ele>
        <time>2017-12-31T05:33:43Z</time>
      </trkpt>
      <trkpt lat="43.22045" lon="5.379">
        <ele>167</ele>
        <time>2017-12-31T05:34:43Z</time>
      </trkpt>
      <trkpt lat="43.22042" lon="5.37906">
        <ele>165</ele>
        <time>2017-12-31T05:35:43Z</time>
      </trkpt>
      <trkpt lat="43.22039" lon="5.37914">
        <ele>163</ele>
        <time>2017-12-31T05:36:43Z</time>
      </trkpt>
      <trkpt lat="43.22034" lon="5.37916">
        <ele>160</ele>
        <time>2017-12-31T05:37:43Z</time>
      </trkpt>
      <trkpt lat="43.22028" lon="5.37917">
        <ele>158</ele>
        <time>2017-12-31T05:38:43Z</time>
      </trkpt>
      <trkpt lat="43.22022" lon="5.37914">
        <ele>156</ele>
        <time>2017-12-31T05:39:43Z</time>
      </trkpt>
      <trkpt lat="43.22016" lon="5.37912">
        <ele>153</ele>
        <time>2017-12-31T05:40:43Z</time>
      </trkpt>
      <trkpt lat="43.22011" lon="5.37908">
        <ele>152</ele>
        <time>2017-12-31T05:41:43Z</time>
      </trkpt>
      <trkpt lat="43.22006" lon="5.37906">
        <ele>150</ele>
        <time>2017-12-31T05:42:43Z</time>
      </trkpt>
      <trkpt lat="43.21999" lon="5.37906">
        <ele>147</ele>
        <time>2017-12-31T05:43:43Z</time>
      </trkpt>
      <trkpt lat="43.21994" lon="5.37906">
        <ele>147</ele>
        <time>2017-12-31T05:44:43Z</time>
      </trkpt>
      <trkpt lat="43.21989" lon="5.37905">
        <ele>147</ele>
        <time>2017-12-31T05:45:43Z</time>
      </trkpt>
      <trkpt lat="43.21983" lon="5.37906">
        <ele>147</ele>
        <time>2017-12-31T05:46:43Z</time>
      </trkpt>
      <trkpt lat="43.21976" lon="5.37906">
        <ele>146</ele>
        <time>2017-12-31T05:47:43Z</time>
      </trkpt>
      <trkpt lat="43.2197" lon="5.37906">
        <ele>146</ele>
        <time>2017-12-31T05:48:43Z</time>
      </trkpt>
      <trkpt lat="43.21964" lon="5.37902">
        <ele>146</ele>
        <time>2017-12-31T05:49:43Z</time>
      </trkpt>
      <trkpt lat="43.21959" lon="5.37896">
        <ele>146</ele>
        <time>2017-12-31T05:50:43Z</time>
      </trkpt>
      <trkpt lat="43.21954" lon="5.37894">
        <ele>145</ele>
        <time>2017-12-31T05:51:43Z</time>
      </trkpt>
      <trkpt lat="43.21953" lon="5.37901">
        <ele>145</ele>
        <time>2017-12-31T05:52:43Z</time>
      </trkpt>
      <trkpt lat="43.21955" lon="5.37912">
        <ele>145</ele>
        <time>2017-12-31T05:53:43Z</time>
      </trkpt>
      <trkpt lat="43.21956" lon="5.3792">
        <ele>146</ele>
        <time>2017-12-31T05:54:43Z</time>
      </trkpt>
      <trkpt lat="43.21953" lon="5.3793">
        <ele>146</ele>
        <time>2017-12-31T05:55:43Z</time>
      </trkpt>
      <trkpt lat="43.21949" lon="5.37937">
        <ele>146</ele>
        <time>2017-12-31T05:56:43Z</time>
      </trkpt>
      <trkpt lat="43.21946" lon="5.37945">
        <ele>147</ele>
        <time>2017-12-31T05:57:43Z</time>
      </trkpt>
      <trkpt lat="43.21944" lon="5.37953">
        <ele>147</ele>
        <time>2017-12-31T05:58:43Z</time>
      </trkpt>
      <trkpt lat="43.21941" lon="5.37961">
        <ele>147</ele>
        <time>2017-12-31T05:59:43Z</time>
      </trkpt>
      <trkpt lat="43.21938" lon="5.37971">
        <ele>148</ele>
        <time>2017-12-31T06:00:43Z</time>
      </trkpt>
      <trkpt lat="43.21936" lon="5.3798">
        <ele>148</ele>
        <time>2017-12-31T06:01:43Z</time>
      </trkpt>
      <trkpt lat="43.21938" lon="5.37989">
        <ele>149</ele>
        <time>2017-12-31T06:02:43Z</time>
      </trkpt>
      <trkpt lat="43.2194" lon="5.37997">
        <ele>149</ele>
        <time>2017-12-31T06:03:43Z</time>
      </trkpt>
      <trkpt lat="43.21934" lon="5.38003">
        <ele>149</ele>
        <time>2017-12-31T06:04:43Z</time>
      </trkpt>
      <trkpt lat="43.21928" lon="5.38008">
        <ele>150</ele>
        <time>2017-12-31T06:05:43Z</time>
      </trkpt>
      <trkpt lat="43.21925" lon="5.38016">
        <ele>151</ele>
        <time>2017-12-31T06:06:43Z</time>
      </trkpt>
      <trkpt lat="43.21921" lon="5.38024">
        <ele>152</ele>
        <time>2017-12-31T06:07:43Z</time>
      </trkpt>
      <trkpt lat="43.21916" lon="5.38028">
        <ele>153</ele>
        <time>2017-12-31T06:08:43Z</time>
      </trkpt>
      <trkpt lat="43.21909" lon="5.38029">
        <ele>157</ele>
        <time>2017-12-31T06:09:43Z</time>
      </trkpt>
      <trkpt lat="43.21907" lon="5.38038">
        <ele>159</ele>
        <time>2017-12-31T06:10:43Z</time>
      </trkpt>
      <trkpt lat="43.21904" lon="5.38046">
        <ele>162</ele>
        <time>2017-12-31T06:11:43Z</time>
      </trkpt>
      <trkpt lat="43.21899" lon="5.38051">
        <ele>165</ele>
        <time>2017-12-31T06:12:43Z</time>
      </trkpt>
      <trkpt lat="43.21893" lon="5.38056">
        <ele>168</ele>
        <time>2017-12-31T06:13:43Z</time>
      </trkpt>
      <trkpt lat="43.21889" lon="5.38063">
        <ele>170</ele>
        <time>2017-12-31T06:14:43Z</time>
      </trkpt>
      <trkpt lat="43.21883" lon="5.38068">
        <ele>172</ele>
        <time>2017-12-31T06:15:43Z</time>
      </trkpt>
      <trkpt lat="43.21876" lon="5.38069">
        <ele>175</ele>
        <time>2017-12-31T06:16:43Z</time>
      </trkpt>
      <trkpt lat="43.21871" lon="5.38075">
        <ele>177</ele>
        <time>2017-12-31T06:17:43Z</time>
      </trkpt>
      <trkpt lat="43.21866" lon="5.38085">
        <ele>179</ele>
        <time>2017-12-31T06:18:43Z</time>
      </trkpt>
      <trkpt lat="43.21864" lon="5.38093">
        <ele>181</ele>
        <time>2017-12-31T06:19:43Z</time>
      </trkpt>
      <trkpt lat="43.21859" lon="5.38098">
        <ele>184</ele>
        <time>2017-12-31T06:20:43Z</time>
      </trkpt>
      <trkpt lat="43.21854" lon="5.38103">
        <ele>186</ele>
        <time>2017-12-31T06:21:43Z</time>
      </trkpt>
      <trkpt lat="43.21849" lon="5.38108">
        <ele>188</ele>
        <time>2017-12-31T06:22:43Z</time>
      </trkpt>
      <trkpt lat="43.21844" lon="5.38115">
        <ele>190</ele>
        <time>2017-12-31T06:23:43Z</time>
      </trkpt>
      <trkpt lat="43.21839" lon="5.38118">
        <ele>191</ele>
        <time>2017-12-31T06:24:43Z</time>
      </trkpt>
      <trkpt lat="43.21833" lon="5.38122">
        <ele>192</ele>
        <time>2017-12-31T06:25:43Z</time>
      </trkpt>
      <trkpt lat="43.21827" lon="5.38123">
        <ele>195</ele>
        <time>2017-12-31T06:26:43Z</time>
      </trkpt>
      <trkpt lat="43.21821" lon="5.38128">
        <ele>198</ele>
        <time>2017-12-31T06:27:43Z</time>
      </trkpt>
      <trkpt lat="43.21816" lon="5.38133">
        <ele>200</ele>
        <time>2017-12-31T06:28:43Z</time>
      </trkpt>
      <trkpt lat="43.21809" lon="5.38135">
        <ele>203</ele>
        <time>2017-12-31T06:29:43Z</time>
      </trkpt>
      <trkpt lat="43.21803" lon="5.38131">
        <ele>205</ele>
        <time>2017-12-31T06:30:43Z</time>
      </trkpt>
      <trkpt lat="43.21798" lon="5.38125">
        <ele>208</ele>
        <time>2017-12-31T06:31:43Z</time>
      </trkpt>
      <trkpt lat="43.21793" lon="5.38119">
        <ele>212</ele>
        <time>2017-12-31T06:32:43Z</time>
      </trkpt>
      <trkpt lat="43.21788" lon="5.38114">
        <ele>215</ele>
        <time>2017-12-31T06:33:43Z</time>
      </trkpt>
      <trkpt lat="43.21783" lon="5.38118">
        <ele>217</ele>
        <time>2017-12-31T06:34:43Z</time>
      </trkpt>
      <trkpt lat="43.21778" lon="5.38123">
        <ele>218</ele>
        <time>2017-12-31T06:35:43Z</time>
      </trkpt>
      <trkpt lat="43.21777" lon="5.38133">
        <ele>216</ele>
        <time>2017-12-31T06:36:43Z</time>
      </trkpt>
      <trkpt lat="43.21778" lon="5.38144">
        <ele>212</ele>
        <time>2017-12-31T06:37:43Z</time>
      </trkpt>
      <trkpt lat="43.21776" lon="5.38152">
        <ele>211</ele>
        <time>2017-12-31T06:38:43Z</time>
      </trkpt>
      <trkpt lat="43.21775" lon="5.38161">
        <ele>209</ele>
        <time>2017-12-31T06:39:43Z</time>
      </trkpt>
      <trkpt lat="43.21774" lon="5.38169">
        <ele>207</ele>
        <time>2017-12-31T06:40:43Z</time>
      </trkpt>
      <trkpt lat="43.21773" lon="5.38177">
        <ele>208</ele>
        <time>2017-12-31T06:41:43Z</time>
      </trkpt>
      <trkpt lat="43.21769" lon="5.38185">
        <ele>209</ele>
        <time>2017-12-31T06:42:43Z</time>
      </trkpt>
      <trkpt lat="43.21765" lon="5.38192">
        <ele>210</ele>
        <time>2017-12-31T06:43:43Z</time>
      </trkpt>
      <trkpt lat="43.21759" lon="5.38198">
        <ele>210</ele>
        <time>2017-12-31T06:44:43Z</time>
      </trkpt>
      <trkpt lat="43.21753" lon="5.38202">
        <ele>210</ele>
        <time>2017-12-31T06:45:43Z</time>
      </trkpt>
      <trkpt lat="43.21752" lon="5.38211">
        <ele>210</ele>
        <time>2017-12-31T06:46:43Z</time>
      </trkpt>
      <trkpt lat="43.21755" lon="5.38219">
        <ele>210</ele>
        <time>2017-12-31T06:47:43Z</time>
      </trkpt>
      <trkpt lat="43.21756" lon="5.38229">
        <ele>210</ele>
        <time>2017-12-31T06:48:43Z</time>
      </trkpt>
      <trkpt lat="43.21755" lon="5.38239">
        <ele>209</ele>
        <time>2017-12-31T06:49:43Z</time>
      </trkpt>
      <trkpt lat="43.21755" lon="5.38249">
        <ele>209</ele>
        <time>2017-12-31T06:50:43Z</time>
      </trkpt>
      <trkpt lat="43.2175" lon="5.38254">
        <ele>209</ele>
        <time>2017-12-31T06:51:43Z</time>
      </trkpt>
      <trkpt lat="43.21748" lon="5.38262">
        <ele>212</ele>
        <time>2017-12-31T06:52:43Z</time>
      </trkpt>
      <trkpt lat="43.21746" lon="5.38271">
        <ele>215</ele>
        <time>2017-12-31T06:53:43Z</time>
      </trkpt>
      <trkpt lat="43.2174" lon="5.38276">
        <ele>219</ele>
        <time>2017-12-31T06:54:43Z</time>
      </trkpt>
      <trkpt lat="43.21736" lon="5.38284">
        <ele>223</ele>
        <time>2017-12-31T06:55:43Z</time>
      </trkpt>
      <trkpt lat="43.21731" lon="5.38287">
        <ele>225</ele>
        <time>2017-12-31T06:56:43Z</time>
      </trkpt>
      <trkpt lat="43.21725" lon="5.38288">
        <ele>228</ele>
        <time>2017-12-31T06:57:43Z</time>
      </trkpt>
      <trkpt lat="43.21721" lon="5.38296">
        <ele>230</ele>
        <time>2017-12-31T06:58:43Z</time>
      </trkpt>
      <trkpt lat="43.21719" lon="5.38303">
        <ele>232</ele>
        <time>2017-12-31T06:59:43Z</time>
      </trkpt>
      <trkpt lat="43.21713" lon="5.38308">
        <ele>234</ele>
        <time>2017-12-31T07:00:43Z</time>
      </trkpt>
      <trkpt lat="43.21708" lon="5.38311">
        <ele>236</ele>
        <time>2017-12-31T07:01:43Z</time>
      </trkpt>
      <trkpt lat="43.21703" lon="5.38314">
        <ele>237</ele>
        <time>2017-12-31T07:02:43Z</time>
      </trkpt>
      <trkpt lat="43.21701" lon="5.38322">
        <ele>238</ele>
        <time>2017-12-31T07:03:43Z</time>
      </trkpt>
      <trkpt lat="43.21699" lon="5.3833">
        <ele>238</ele>
        <time>2017-12-31T07:04:43Z</time>
      </trkpt>
      <trkpt lat="43.21697" lon="5.38338">
        <ele>239</ele>
        <time>2017-12-31T07:05:43Z</time>
      </trkpt>
      <trkpt lat="43.21697" lon="5.38346">
        <ele>240</ele>
        <time>2017-12-31T07:06:43Z</time>
      </trkpt>
      <trkpt lat="43.21698" lon="5.38355">
        <ele>241</ele>
        <time>2017-12-31T07:07:43Z</time>
      </trkpt>
      <trkpt lat="43.21699" lon="5.38363">
        <ele>242</ele>
        <time>2017-12-31T07:08:43Z</time>
      </trkpt>
      <trkpt lat="43.21699" lon="5.38372">
        <ele>244</ele>
        <time>2017-12-31T07:09:43Z</time>
      </trkpt>
      <trkpt lat="43.21696" lon="5.3838">
        <ele>245</ele>
        <time>2017-12-31T07:10:43Z</time>
      </trkpt>
      <trkpt lat="43.21691" lon="5.38385">
        <ele>245</ele>
        <time>2017-12-31T07:11:43Z</time>
      </trkpt>
      <trkpt lat="43.21686" lon="5.38391">
        <ele>245</ele>
        <time>2017-12-31T07:12:43Z</time>
      </trkpt>
      <trkpt lat="43.21681" lon="5.38399">
        <ele>246</ele>
        <time>2017-12-31T07:13:43Z</time>
      </trkpt>
      <trkpt lat="43.21679" lon="5.38407">
        <ele>246</ele>
        <time>2017-12-31T07:14:43Z</time>
      </trkpt>
      <trkpt lat="43.21678" lon="5.38414">
        <ele>246</ele>
        <time>2017-12-31T07:15:43Z</time>
      </trkpt>
      <trkpt lat="43.21673" lon="5.38419">
        <ele>246</ele>
        <time>2017-12-31T07:16:43Z</time>
      </trkpt>
      <trkpt lat="43.21668" lon="5.38427">
        <ele>246</ele>
        <time>2017-12-31T07:17:43Z</time>
      </trkpt>
      <trkpt lat="43.21665" lon="5.38434">
        <ele>247</ele>
        <time>2017-12-31T07:18:43Z</time>
      </trkpt>
      <trkpt lat="43.21662" lon="5.3844">
        <ele>248</ele>
        <time>2017-12-31T07:19:43Z</time>
      </trkpt>
      <trkpt lat="43.21661" lon="5.38449">
        <ele>249</ele>
        <time>2017-12-31T07:20:43Z</time>
      </trkpt>
      <trkpt lat="43.21656" lon="5.38452">
        <ele>250</ele>
        <time>2017-12-31T07:21:43Z</time>
      </trkpt>
      <trkpt lat="43.21651" lon="5.38452">
        <ele>251</ele>
        <time>2017-12-31T07:22:43Z</time>
      </trkpt>
      <trkpt lat="43.21646" lon="5.38446">
        <ele>252</ele>
        <time>2017-12-31T07:23:43Z</time>
      </trkpt>
      <trkpt lat="43.2164" lon="5.38446">
        <ele>253</ele>
        <time>2017-12-31T07:24:43Z</time>
      </trkpt>
      <trkpt lat="43.21635" lon="5.38451">
        <ele>254</ele>
        <time>2017-12-31T07:25:43Z</time>
      </trkpt>
      <trkpt lat="43.2163" lon="5.38458">
        <ele>255</ele>
        <time>2017-12-31T07:26:43Z</time>
      </trkpt>
      <trkpt lat="43.21628" lon="5.38468">
        <ele>255</ele>
        <time>2017-12-31T07:27:43Z</time>
      </trkpt>
      <trkpt lat="43.21628" lon="5.38476">
        <ele>255</ele>
        <time>2017-12-31T07:28:43Z</time>
      </trkpt>
      <trkpt lat="43.21623" lon="5.38484">
        <ele>255</ele>
        <time>2017-12-31T07:29:43Z</time>
      </trkpt>
      <trkpt lat="43.21621" lon="5.38493">
        <ele>254</ele>
        <time>2017-12-31T07:30:43Z</time>
      </trkpt>
      <trkpt lat="43.2162" lon="5.38502">
        <ele>254</ele>
        <time>2017-12-31T07:31:43Z</time>
      </trkpt>
      <trkpt lat="43.2162" lon="5.3851">
        <ele>255</ele>
        <time>2017-12-31T07:32:43Z</time>
      </trkpt>
      <trkpt lat="43.21621" lon="5.38519">
        <ele>255</ele>
        <time>2017-12-31T07:33:43Z</time>
      </trkpt>
      <trkpt lat="43.21625" lon="5.38526">
        <ele>256</ele>
        <time>2017-12-31T07:34:43Z</time>
      </trkpt>
      <trkpt lat="43.21625" lon="5.38536">
        <ele>257</ele>
        <time>2017-12-31T07:35:43Z</time>
      </trkpt>
      <trkpt lat="43.21625" lon="5.38546">
        <ele>258</ele>
        <time>2017-12-31T07:36:43Z</time>
      </trkpt>
      <trkpt lat="43.21623" lon="5.38554">
        <ele>258</ele>
        <time>2017-12-31T07:37:43Z</time>
      </trkpt>
      <trkpt lat="43.2162" lon="5.38566">
        <ele>258</ele>
        <time>2017-12-31T07:38:43Z</time>
      </trkpt>
      <trkpt lat="43.21615" lon="5.38573">
        <ele>257</ele>
        <time>2017-12-31T07:39:43Z</time>
      </trkpt>
      <trkpt lat="43.21613" lon="5.38581">
        <ele>257</ele>
        <time>2017-12-31T07:40:43Z</time>
      </trkpt>
      <trkpt lat="43.21612" lon="5.38591">
        <ele>258</ele>
        <time>2017-12-31T07:41:43Z</time>
      </trkpt>
      <trkpt lat="43.21613" lon="5.38602">
        <ele>259</ele>
        <time>2017-12-31T07:42:43Z</time>
      </trkpt>
      <trkpt lat="43.21615" lon="5.3861">
        <ele>260</ele>
        <time>2017-12-31T07:43:43Z</time>
      </trkpt>
      <trkpt lat="43.21617" lon="5.3862">
        <ele>262</ele>
        <time>2017-12-31T07:44:43Z</time>
      </trkpt>
      <trkpt lat="43.21619" lon="5.38629">
        <ele>263</ele>
        <time>2017-12-31T07:45:43Z</time>
      </trkpt>
      <trkpt lat="43.21621" lon="5.38639">
        <ele>265</ele>
        <time>2017-12-31T07:46:43Z</time>
      </trkpt>
      <trkpt lat="43.21621" lon="5.38647">
        <ele>266</ele>
        <time>2017-12-31T07:47:43Z</time>
      </trkpt>
      <trkpt lat="43.21622" lon="5.38657">
        <ele>267</ele>
        <time>2017-12-31T07:48:43Z</time>
      </trkpt>
      <trkpt lat="43.21624" lon="5.38664">
        <ele>268</ele>
        <time>2017-12-31T07:49:43Z</time>
      </trkpt>
      <trkpt lat="43.21626" lon="5.38672">
        <ele>271</ele>
        <time>2017-12-31T07:50:43Z</time>
      </trkpt>
      <trkpt lat="43.21623" lon="5.3868">
        <ele>272</ele>
        <time>2017-12-31T07:51:43Z</time>
      </trkpt>
      <trkpt lat="43.21622" lon="5.38687">
        <ele>273</ele>
        <time>2017-12-31T07:52:43Z</time>
      </trkpt>
      <trkpt lat="43.21622" lon="5.38696">
        <ele>276</ele>
        <time>2017-12-31T07:53:43Z</time>
      </trkpt>
      <trkpt lat="43.21619" lon="5.38704">
        <ele>277</ele>
        <time>2017-12-31T07:54:43Z</time>
      </trkpt>
      <trkpt lat="43.21614" lon="5.38709">
        <ele>277</ele>
        <time>2017-12-31T07:55:43Z</time>
      </trkpt>
      <trkpt lat="43.21609" lon="5.38716">
        <ele>278</ele>
        <time>2017-12-31T07:56:43Z</time>
      </trkpt>
      <trkpt lat="43.2161" lon="5.38724">
        <ele>280</ele>
        <time>2017-12-31T07:57:43Z</time>
      </trkpt>
      <trkpt lat="43.21614" lon="5.38734">
        <ele>284</ele>
        <time>2017-12-31T07:58:43Z</time>
      </trkpt>
      <trkpt lat="43.21617" lon="5.38741">
        <ele>286</ele>
        <time>2017-12-31T07:59:43Z</time>
      </trkpt>
      <trkpt lat="43.2162" lon="5.38751">
        <ele>289</ele>
        <time>2017-12-31T08:00:43Z</time>
      </trkpt>
      <trkpt lat="43.21621" lon="5.38759">
        <ele>292</ele>
        <time>2017-12-31T08:01:43Z</time>
      </trkpt>
      <trkpt lat="43.21623" lon="5.38768">
        <ele>295</ele>
        <time>2017-12-31T08:02:43Z</time>
      </trkpt>
      <trkpt lat="43.21623" lon="5.38777">
        <ele>297</ele>
        <time>2017-12-31T08:03:43Z</time>
      </trkpt>
      <trkpt lat="43.21625" lon="5.38785">
        <ele>300</ele>
        <time>2017-12-31T08:04:43Z</time>
      </trkpt>
      <trkpt lat="43.21622" lon="5.38794">
        <ele>302</ele>
        <time>2017-12-31T08:05:43Z</time>
      </trkpt>
      <trkpt lat="43.21625" lon="5.38801">
        <ele>304</ele>
        <time>2017-12-31T08:06:43Z</time>
      </trkpt>
      <trkpt lat="43.21631" lon="5.3881">
        <ele>307</ele>
        <time>2017-12-31T08:07:43Z</time>
      </trkpt>
      <trkpt lat="43.21628" lon="5.38818">
        <ele>309</ele>
        <time>2017-12-31T08:08:43Z</time>
      </trkpt>
      <trkpt lat="43.21626" lon="5.38825">
        <ele>311</ele>
        <time>2017-12-31T08:09:43Z</time>
      </trkpt>
      <trkpt lat="43.2163" lon="5.38834">
        <ele>313</ele>
        <time>2017-12-31T08:10:43Z</time>
      </trkpt>
      <trkpt lat="43.21632" lon="5.38843">
        <ele>315</ele>
        <time>2017-12-31T08:11:43Z</time>
      </trkpt>
      <trkpt lat="43.21627" lon="5.38845">
        <ele>315</ele>
        <time>2017-12-31T08:12:43Z</time>
      </trkpt>
      <trkpt lat="43.21623" lon="5.38854">
        <ele>317</ele>
        <time>2017-12-31T08:13:43Z</time>
      </trkpt>
      <trkpt lat="43.2162" lon="5.38862">
        <ele>319</ele>
        <time>2017-12-31T08:14:43Z</time>
      </trkpt>
      <trkpt lat="43.21621" lon="5.38872">
        <ele>320</ele>
        <time>2017-12-31T08:15:43Z</time>
      </trkpt>
      <trkpt lat="43.21619" lon="5.3888">
        <ele>322</ele>
        <time>2017-12-31T08:16:43Z</time>
      </trkpt>
      <trkpt lat="43.21614" lon="5.38885">
        <ele>323</ele>
        <time>2017-12-31T08:17:43Z</time>
      </trkpt>
      <trkpt lat="43.21615" lon="5.38893">
        <ele>324</ele>
        <time>2017-12-31T08:18:43Z</time>
      </trkpt>
      <trkpt lat="43.2161" lon="5.38901">
        <ele>326</ele>
        <time>2017-12-31T08:19:43Z</time>
      </trkpt>
      <trkpt lat="43.21605" lon="5.38909">
        <ele>328</ele>
        <time>2017-12-31T08:20:43Z</time>
      </trkpt>
      <trkpt lat="43.21601" lon="5.38916">
        <ele>329</ele>
        <time>2017-12-31T08:21:43Z</time>
      </trkpt>
      <trkpt lat="43.216" lon="5.38925">
        <ele>330</ele>
        <time>2017-12-31T08:22:43Z</time>
      </trkpt>
      <trkpt lat="43.21599" lon="5.38933">
        <ele>331</ele>
        <time>2017-12-31T08:23:43Z</time>
      </trkpt>
      <trkpt lat="43.21599" lon="5.38941">
        <ele>333</ele>
        <time>2017-12-31T08:24:43Z</time>
      </trkpt>
      <trkpt lat="43.21594" lon="5.38947">
        <ele>333</ele>
        <time>2017-12-31T08:25:43Z</time>
      </trkpt>
      <trkpt lat="43.21594" lon="5.38957">
        <ele>335</ele>
        <time>2017-12-31T08:26:43Z</time>
      </trkpt>
      <trkpt lat="43.21595" lon="5.38966">
        <ele>336</ele>
        <time>2017-12-31T08:27:43Z</time>
      </trkpt>
      <trkpt lat="43.21598" lon="5.38975">
        <ele>338</ele>
        <time>2017-12-31T08:28:43Z</time>
      </trkpt>
      <trkpt lat="43.21601" lon="5.38981">
        <ele>339</ele>
        <time>2017-12-31T08:29:43Z</time>
      </trkpt>
      <trkpt lat="43.21605" lon="5.38991">
        <ele>340</ele>
        <time>2017-12-31T08:30:43Z</time>
      </trkpt>
      <trkpt lat="43.21606" lon="5.39">
        <ele>342</ele>
        <time>2017-12-31T08:31:43Z</time>
      </trkpt>
      <trkpt lat="43.21607" lon="5.39008">
        <ele>339</ele>
        <time>2017-12-31T08:32:43Z</time>
      </trkpt>
      <trkpt lat="43.21613" lon="5.39013">
        <ele>338</ele>
        <time>2017-12-31T08:33:43Z</time>
      </trkpt>
      <trkpt lat="43.21606" lon="5.39017">
        <ele>335</ele>
        <time>2017-12-31T08:34:43Z</time>
      </trkpt>
      <trkpt lat="43.216" lon="5.39011">
        <ele>337</ele>
        <time>2017-12-31T08:35:43Z</time>
      </trkpt>
      <trkpt lat="43.21595" lon="5.39007">
        <ele>338</ele>
        <time>2017-12-31T08:36:43Z</time>
      </trkpt>
      <trkpt lat="43.21588" lon="5.39004">
        <ele>338</ele>
        <time>2017-12-31T08:37:43Z</time>
      </trkpt>
      <trkpt lat="43.21583" lon="5.38999">
        <ele>339</ele>
        <time>2017-12-31T08:38:43Z</time>
      </trkpt>
      <trkpt lat="43.2158" lon="5.38992">
        <ele>335</ele>
        <time>2017-12-31T08:39:43Z</time>
      </trkpt>
      <trkpt lat="43.21575" lon="5.38986">
        <ele>328</ele>
        <time>2017-12-31T08:40:43Z</time>
      </trkpt>
      <trkpt lat="43.21572" lon="5.38978">
        <ele>324</ele>
        <time>2017-12-31T08:41:43Z</time>
      </trkpt>
      <trkpt lat="43.21571" lon="5.38969">
        <ele>323</ele>
        <time>2017-12-31T08:42:43Z</time>
      </trkpt>
      <trkpt lat="43.2157" lon="5.38962">
        <ele>321</ele>
        <time>2017-12-31T08:43:43Z</time>
      </trkpt>
      <trkpt lat="43.21568" lon="5.38955">
        <ele>319</ele>
        <time>2017-12-31T08:44:43Z</time>
      </trkpt>
      <trkpt lat="43.21568" lon="5.38947">
        <ele>318</ele>
        <time>2017-12-31T08:45:43Z</time>
      </trkpt>
      <trkpt lat="43.21568" lon="5.3894">
        <ele>318</ele>
        <time>2017-12-31T08:46:43Z</time>
      </trkpt>
      <trkpt lat="43.21568" lon="5.38933">
        <ele>317</ele>
        <time>2017-12-31T08:47:43Z</time>
      </trkpt>
      <trkpt lat="43.21562" lon="5.38928">
        <ele>312</ele>
        <time>2017-12-31T08:48:43Z</time>
      </trkpt>
      <trkpt lat="43.21558" lon="5.38921">
        <ele>308</ele>
        <time>2017-12-31T08:49:43Z</time>
      </trkpt>
      <trkpt lat="43.21554" lon="5.38915">
        <ele>305</ele>
        <time>2017-12-31T08:50:43Z</time>
      </trkpt>
      <trkpt lat="43.2155" lon="5.38907">
        <ele>301</ele>
        <time>2017-12-31T08:51:43Z</time>
      </trkpt>
      <trkpt lat="43.21549" lon="5.389">
        <ele>300</ele>
        <time>2017-12-31T08:52:43Z</time>
      </trkpt>
      <trkpt lat="43.21547" lon="5.38892">
        <ele>298</ele>
        <time>2017-12-31T08:53:43Z</time>
      </trkpt>
      <trkpt lat="43.21545" lon="5.38885">
        <ele>297</ele>
        <time>2017-12-31T08:54:43Z</time>
      </trkpt>
      <trkpt lat="43.21545" lon="5.38873">
        <ele>297</ele>
        <time>2017-12-31T08:55:43Z</time>
      </trkpt>
      <trkpt lat="43.21551" lon="5.38882">
        <ele>301</ele>
        <time>2017-12-31T08:56:43Z</time>
      </trkpt>
      <trkpt lat="43.21552" lon="5.38892">
        <ele>302</ele>
        <time>2017-12-31T08:57:43Z</time>
      </trkpt>
      <trkpt lat="43.21556" lon="5.38906">
        <ele>306</ele>
        <time>2017-12-31T08:58:43Z</time>
      </trkpt>
      <trkpt lat="43.21561" lon="5.38912">
        <ele>310</ele>
        <time>2017-12-31T08:59:43Z</time>
      </trkpt>
      <trkpt lat="43.21568" lon="5.38918">
        <ele>317</ele>
        <time>2017-12-31T09:00:43Z</time>
      </trkpt>
      <trkpt lat="43.21571" lon="5.38927">
        <ele>320</ele>
        <time>2017-12-31T09:01:43Z</time>
      </trkpt>
      <trkpt lat="43.21574" lon="5.38939">
        <ele>323</ele>
        <time>2017-12-31T09:02:43Z</time>
      </trkpt>
      <trkpt lat="43.21574" lon="5.3895">
        <ele>324</ele>
        <time>2017-12-31T09:03:43Z</time>
      </trkpt>
      <trkpt lat="43.21575" lon="5.38962">
        <ele>326</ele>
        <time>2017-12-31T09:04:43Z</time>
      </trkpt>
      <trkpt lat="43.21578" lon="5.38975">
        <ele>331</ele>
        <time>2017-12-31T09:05:43Z</time>
      </trkpt>
      <trkpt lat="43.21581" lon="5.38983">
        <ele>335</ele>
        <time>2017-12-31T09:06:43Z</time>
      </trkpt>
      <trkpt lat="43.2159" lon="5.38996">
        <ele>340</ele>
        <time>2017-12-31T09:07:43Z</time>
      </trkpt>
      <trkpt lat="43.21613" lon="5.39023">
        <ele>335</ele>
        <time>2017-12-31T09:08:43Z</time>
      </trkpt>
      <trkpt lat="43.21622" lon="5.39017">
        <ele>339</ele>
        <time>2017-12-31T09:09:43Z</time>
      </trkpt>
      <trkpt lat="43.21628" lon="5.39021">
        <ele>339</ele>
        <time>2017-12-31T09:10:43Z</time>
      </trkpt>
      <trkpt lat="43.21636" lon="5.39024">
        <ele>340</ele>
        <time>2017-12-31T09:11:43Z</time>
      </trkpt>
      <trkpt lat="43.21642" lon="5.3903">
        <ele>341</ele>
        <time>2017-12-31T09:12:43Z</time>
      </trkpt>
      <trkpt lat="43.21648" lon="5.39033">
        <ele>342</ele>
        <time>2017-12-31T09:13:43Z</time>
      </trkpt>
      <trkpt lat="43.21654" lon="5.39035">
        <ele>344</ele>
        <time>2017-12-31T09:14:43Z</time>
      </trkpt>
      <trkpt lat="43.21662" lon="5.39037">
        <ele>347</ele>
        <time>2017-12-31T09:15:43Z</time>
      </trkpt>
      <trkpt lat="43.21669" lon="5.39038">
        <ele>349</ele>
        <time>2017-12-31T09:16:43Z</time>
      </trkpt>
      <trkpt lat="43.21675" lon="5.39039">
        <ele>350</ele>
        <time>2017-12-31T09:17:43Z</time>
      </trkpt>
      <trkpt lat="43.21683" lon="5.3904">
        <ele>352</ele>
        <time>2017-12-31T09:18:43Z</time>
      </trkpt>
      <trkpt lat="43.21691" lon="5.39041">
        <ele>353</ele>
        <time>2017-12-31T09:19:43Z</time>
      </trkpt>
      <trkpt lat="43.21699" lon="5.39038">
        <ele>355</ele>
        <time>2017-12-31T09:20:43Z</time>
      </trkpt>
      <trkpt lat="43.21705" lon="5.39035">
        <ele>356</ele>
        <time>2017-12-31T09:21:43Z</time>
      </trkpt>
      <trkpt lat="43.21711" lon="5.39029">
        <ele>358</ele>
        <time>2017-12-31T09:22:43Z</time>
      </trkpt>
      <trkpt lat="43.21717" lon="5.39024">
        <ele>359</ele>
        <time>2017-12-31T09:23:43Z</time>
      </trkpt>
      <trkpt lat="43.21724" lon="5.39023">
        <ele>361</ele>
        <time>2017-12-31T09:24:43Z</time>
      </trkpt>
      <trkpt lat="43.21731" lon="5.39024">
        <ele>362</ele>
        <time>2017-12-31T09:25:43Z</time>
      </trkpt>
      <trkpt lat="43.21739" lon="5.39027">
        <ele>364</ele>
        <time>2017-12-31T09:26:43Z</time>
      </trkpt>
      <trkpt lat="43.21746" lon="5.3903">
        <ele>365</ele>
        <time>2017-12-31T09:27:43Z</time>
      </trkpt>
      <trkpt lat="43.21751" lon="5.39035">
        <ele>365</ele>
        <time>2017-12-31T09:28:43Z</time>
      </trkpt>
      <trkpt lat="43.21756" lon="5.39042">
        <ele>366</ele>
        <time>2017-12-31T09:29:43Z</time>
      </trkpt>
      <trkpt lat="43.21761" lon="5.39049">
        <ele>366</ele>
        <time>2017-12-31T09:30:43Z</time>
      </trkpt>
      <trkpt lat="43.21767" lon="5.39053">
        <ele>366</ele>
        <time>2017-12-31T09:31:43Z</time>
      </trkpt>
      <trkpt lat="43.21773" lon="5.39058">
        <ele>367</ele>
        <time>2017-12-31T09:32:43Z</time>
      </trkpt>
      <trkpt lat="43.21778" lon="5.3906">
        <ele>368</ele>
        <time>2017-12-31T09:33:43Z</time>
      </trkpt>
      <trkpt lat="43.21781" lon="5.39067">
        <ele>367</ele>
        <time>2017-12-31T09:34:43Z</time>
      </trkpt>
      <trkpt lat="43.21784" lon="5.39075">
        <ele>367</ele>
        <time>2017-12-31T09:35:43Z</time>
      </trkpt>
      <trkpt lat="43.2179" lon="5.39079">
        <ele>368</ele>
        <time>2017-12-31T09:36:43Z</time>
      </trkpt>
      <trkpt lat="43.21796" lon="5.39083">
        <ele>369</ele>
        <time>2017-12-31T09:37:43Z</time>
      </trkpt>
      <trkpt lat="43.21802" lon="5.39086">
        <ele>369</ele>
        <time>2017-12-31T09:38:43Z</time>
      </trkpt>
      <trkpt lat="43.21809" lon="5.39089">
        <ele>370</ele>
        <time>2017-12-31T09:39:43Z</time>
      </trkpt>
      <trkpt lat="43.21816" lon="5.39091">
        <ele>371</ele>
        <time>2017-12-31T09:40:43Z</time>
      </trkpt>
      <trkpt lat="43.21823" lon="5.39095">
        <ele>372</ele>
        <time>2017-12-31T09:41:43Z</time>
      </trkpt>
      <trkpt lat="43.2183" lon="5.39095">
        <ele>373</ele>
        <time>2017-12-31T09:42:43Z</time>
      </trkpt>
      <trkpt lat="43.21835" lon="5.39099">
        <ele>373</ele>
        <time>2017-12-31T09:43:43Z</time>
      </trkpt>
      <trkpt lat="43.21842" lon="5.39101">
        <ele>372</ele>
        <time>2017-12-31T09:44:43Z</time>
      </trkpt>
      <trkpt lat="43.21845" lon="5.39108">
        <ele>370</ele>
        <time>2017-12-31T09:45:43Z</time>
      </trkpt>
      <trkpt lat="43.21849" lon="5.39117">
        <ele>368</ele>
        <time>2017-12-31T09:46:43Z</time>
      </trkpt>
      <trkpt lat="43.21853" lon="5.39125">
        <ele>366</ele>
        <time>2017-12-31T09:47:43Z</time>
      </trkpt>
      <trkpt lat="43.21856" lon="5.39132">
        <ele>365</ele>
        <time>2017-12-31T09:48:43Z</time>
      </trkpt>
      <trkpt lat="43.2186" lon="5.39139">
        <ele>363</ele>
        <time>2017-12-31T09:49:43Z</time>
      </trkpt>
      <trkpt lat="43.21866" lon="5.39143">
        <ele>362</ele>
        <time>2017-12-31T09:50:43Z</time>
      </trkpt>
      <trkpt lat="43.21869" lon="5.39152">
        <ele>361</ele>
        <time>2017-12-31T09:51:43Z</time>
      </trkpt>
      <trkpt lat="43.21872" lon="5.39159">
        <ele>359</ele>
        <time>2017-12-31T09:52:43Z</time>
      </trkpt>
      <trkpt lat="43.21876" lon="5.39167">
        <ele>358</ele>
        <time>2017-12-31T09:53:43Z</time>
      </trkpt>
      <trkpt lat="43.21879" lon="5.39173">
        <ele>358</ele>
        <time>2017-12-31T09:54:43Z</time>
      </trkpt>
      <trkpt lat="43.21883" lon="5.39181">
        <ele>358</ele>
        <time>2017-12-31T09:55:43Z</time>
      </trkpt>
      <trkpt lat="43.21889" lon="5.39186">
        <ele>357</ele>
        <time>2017-12-31T09:56:43Z</time>
      </trkpt>
      <trkpt lat="43.21897" lon="5.39185">
        <ele>357</ele>
        <time>2017-12-31T09:57:43Z</time>
      </trkpt>
      <trkpt lat="43.21904" lon="5.39179">
        <ele>356</ele>
        <time>2017-12-31T09:58:43Z</time>
      </trkpt>
      <trkpt lat="43.21911" lon="5.39174">
        <ele>355</ele>
        <time>2017-12-31T09:59:43Z</time>
      </trkpt>
      <trkpt lat="43.21918" lon="5.39169">
        <ele>354</ele>
        <time>2017-12-31T10:00:43Z</time>
      </trkpt>
      <trkpt lat="43.21923" lon="5.39162">
        <ele>353</ele>
        <time>2017-12-31T10:01:43Z</time>
      </trkpt>
      <trkpt lat="43.21929" lon="5.39159">
        <ele>352</ele>
        <time>2017-12-31T10:02:43Z</time>
      </trkpt>
      <trkpt lat="43.21935" lon="5.39159">
        <ele>351</ele>
        <time>2017-12-31T10:03:43Z</time>
      </trkpt>
      <trkpt lat="43.21941" lon="5.39156">
        <ele>350</ele>
        <time>2017-12-31T10:04:43Z</time>
      </trkpt>
      <trkpt lat="43.21948" lon="5.39151">
        <ele>349</ele>
        <time>2017-12-31T10:05:43Z</time>
      </trkpt>
      <trkpt lat="43.21953" lon="5.39146">
        <ele>348</ele>
        <time>2017-12-31T10:06:43Z</time>
      </trkpt>
      <trkpt lat="43.2196" lon="5.39147">
        <ele>347</ele>
        <time>2017-12-31T10:07:43Z</time>
      </trkpt>
      <trkpt lat="43.21968" lon="5.39147">
        <ele>345</ele>
        <time>2017-12-31T10:08:43Z</time>
      </trkpt>
      <trkpt lat="43.21974" lon="5.39147">
        <ele>344</ele>
        <time>2017-12-31T10:09:43Z</time>
      </trkpt>
      <trkpt lat="43.21982" lon="5.39147">
        <ele>343</ele>
        <time>2017-12-31T10:10:43Z</time>
      </trkpt>
      <trkpt lat="43.21986" lon="5.39155">
        <ele>341</ele>
        <time>2017-12-31T10:11:43Z</time>
      </trkpt>
      <trkpt lat="43.21989" lon="5.39163">
        <ele>340</ele>
        <time>2017-12-31T10:12:43Z</time>
      </trkpt>
      <trkpt lat="43.21994" lon="5.39169">
        <ele>339</ele>
        <time>2017-12-31T10:13:43Z</time>
      </trkpt>
      <trkpt lat="43.21999" lon="5.39172">
        <ele>338</ele>
        <time>2017-12-31T10:14:43Z</time>
      </trkpt>
      <trkpt lat="43.22005" lon="5.39178">
        <ele>338</ele>
        <time>2017-12-31T10:15:43Z</time>
      </trkpt>
      <trkpt lat="43.22011" lon="5.39182">
        <ele>337</ele>
        <time>2017-12-31T10:16:43Z</time>
      </trkpt>
      <trkpt lat="43.22018" lon="5.39183">
        <ele>335</ele>
        <time>2017-12-31T10:17:43Z</time>
      </trkpt>
      <trkpt lat="43.22025" lon="5.3918">
        <ele>334</ele>
        <time>2017-12-31T10:18:43Z</time>
      </trkpt>
      <trkpt lat="43.2203" lon="5.39179">
        <ele>333</ele>
        <time>2017-12-31T10:19:43Z</time>
      </trkpt>
      <trkpt lat="43.22038" lon="5.39179">
        <ele>331</ele>
        <time>2017-12-31T10:20:43Z</time>
      </trkpt>
      <trkpt lat="43.22046" lon="5.39179">
        <ele>330</ele>
        <time>2017-12-31T10:21:43Z</time>
      </trkpt>
      <trkpt lat="43.22052" lon="5.39179">
        <ele>328</ele>
        <time>2017-12-31T10:22:43Z</time>
      </trkpt>
      <trkpt lat="43.2206" lon="5.39178">
        <ele>327</ele>
        <time>2017-12-31T10:23:43Z</time>
      </trkpt>
      <trkpt lat="43.22065" lon="5.3917">
        <ele>326</ele>
        <time>2017-12-31T10:24:43Z</time>
      </trkpt>
      <trkpt lat="43.2207" lon="5.39164">
        <ele>324</ele>
        <time>2017-12-31T10:25:43Z</time>
      </trkpt>
      <trkpt lat="43.22075" lon="5.39158">
        <ele>323</ele>
        <time>2017-12-31T10:26:43Z</time>
      </trkpt>
      <trkpt lat="43.2208" lon="5.3915">
        <ele>322</ele>
        <time>2017-12-31T10:27:43Z</time>
      </trkpt>
      <trkpt lat="43.22083" lon="5.39143">
        <ele>320</ele>
        <time>2017-12-31T10:28:43Z</time>
      </trkpt>
      <trkpt lat="43.22084" lon="5.39134">
        <ele>319</ele>
        <time>2017-12-31T10:29:43Z</time>
      </trkpt>
      <trkpt lat="43.22088" lon="5.39126">
        <ele>317</ele>
        <time>2017-12-31T10:30:43Z</time>
      </trkpt>
      <trkpt lat="43.22089" lon="5.39119">
        <ele>316</ele>
        <time>2017-12-31T10:31:43Z</time>
      </trkpt>
      <trkpt lat="43.22091" lon="5.39112">
        <ele>315</ele>
        <time>2017-12-31T10:32:43Z</time>
      </trkpt>
      <trkpt lat="43.22093" lon="5.39105">
        <ele>314</ele>
        <time>2017-12-31T10:33:43Z</time>
      </trkpt>
      <trkpt lat="43.22094" lon="5.39098">
        <ele>313</ele>
        <time>2017-12-31T10:34:43Z</time>
      </trkpt>
      <trkpt lat="43.22101" lon="5.39092">
        <ele>309</ele>
        <time>2017-12-31T10:35:43Z</time>
      </trkpt>
      <trkpt lat="43.22108" lon="5.3909">
        <ele>306</ele>
        <time>2017-12-31T10:36:43Z</time>
      </trkpt>
      <trkpt lat="43.22114" lon="5.39088">
        <ele>303</ele>
        <time>2017-12-31T10:37:43Z</time>
      </trkpt>
      <trkpt lat="43.22121" lon="5.39085">
        <ele>300</ele>
        <time>2017-12-31T10:38:43Z</time>
      </trkpt>
      <trkpt lat="43.22126" lon="5.39083">
        <ele>297</ele>
        <time>2017-12-31T10:39:43Z</time>
      </trkpt>
      <trkpt lat="43.22126" lon="5.39074">
        <ele>295</ele>
        <time>2017-12-31T10:40:43Z</time>
      </trkpt>
      <trkpt lat="43.22126" lon="5.39066">
        <ele>293</ele>
        <time>2017-12-31T10:41:43Z</time>
      </trkpt>
      <trkpt lat="43.22126" lon="5.39058">
        <ele>291</ele>
        <time>2017-12-31T10:42:43Z</time>
      </trkpt>
      <trkpt lat="43.22129" lon="5.39051">
        <ele>288</ele>
        <time>2017-12-31T10:43:43Z</time>
      </trkpt>
      <trkpt lat="43.22134" lon="5.39047">
        <ele>284</ele>
        <time>2017-12-31T10:44:43Z</time>
      </trkpt>
      <trkpt lat="43.22134" lon="5.3904">
        <ele>282</ele>
        <time>2017-12-31T10:45:43Z</time>
      </trkpt>
      <trkpt lat="43.22135" lon="5.39032">
        <ele>280</ele>
        <time>2017-12-31T10:46:43Z</time>
      </trkpt>
      <trkpt lat="43.22136" lon="5.39024">
        <ele>277</ele>
        <time>2017-12-31T10:47:43Z</time>
      </trkpt>
      <trkpt lat="43.22141" lon="5.39018">
        <ele>272</ele>
        <time>2017-12-31T10:48:43Z</time>
      </trkpt>
      <trkpt lat="43.22146" lon="5.39011">
        <ele>266</ele>
        <time>2017-12-31T10:49:43Z</time>
      </trkpt>
      <trkpt lat="43.22149" lon="5.39003">
        <ele>262</ele>
        <time>2017-12-31T10:50:43Z</time>
      </trkpt>
      <trkpt lat="43.22153" lon="5.38993">
        <ele>258</ele>
        <time>2017-12-31T10:51:43Z</time>
      </trkpt>
      <trkpt lat="43.22158" lon="5.38986">
        <ele>255</ele>
        <time>2017-12-31T10:52:43Z</time>
      </trkpt>
      <trkpt lat="43.22163" lon="5.38981">
        <ele>252</ele>
        <time>2017-12-31T10:53:43Z</time>
      </trkpt>
      <trkpt lat="43.2217" lon="5.38975">
        <ele>249</ele>
        <time>2017-12-31T10:54:43Z</time>
      </trkpt>
      <trkpt lat="43.22177" lon="5.38972">
        <ele>246</ele>
        <time>2017-12-31T10:55:43Z</time>
      </trkpt>
      <trkpt lat="43.22183" lon="5.38969">
        <ele>244</ele>
        <time>2017-12-31T10:56:43Z</time>
      </trkpt>
      <trkpt lat="43.22188" lon="5.38963">
        <ele>243</ele>
        <time>2017-12-31T10:57:43Z</time>
      </trkpt>
      <trkpt lat="43.22194" lon="5.3896">
        <ele>241</ele>
        <time>2017-12-31T10:58:43Z</time>
      </trkpt>
      <trkpt lat="43.22202" lon="5.38959">
        <ele>238</ele>
        <time>2017-12-31T10:59:43Z</time>
      </trkpt>
      <trkpt lat="43.22209" lon="5.38961">
        <ele>235</ele>
        <time>2017-12-31T11:00:43Z</time>
      </trkpt>
      <trkpt lat="43.22215" lon="5.38961">
        <ele>233</ele>
        <time>2017-12-31T11:01:43Z</time>
      </trkpt>
      <trkpt lat="43.22224" lon="5.38961">
        <ele>229</ele>
        <time>2017-12-31T11:02:43Z</time>
      </trkpt>
      <trkpt lat="43.22233" lon="5.38958">
        <ele>226</ele>
        <time>2017-12-31T11:03:43Z</time>
      </trkpt>
      <trkpt lat="43.22239" lon="5.38954">
        <ele>224</ele>
        <time>2017-12-31T11:04:43Z</time>
      </trkpt>
      <trkpt lat="43.22247" lon="5.38952">
        <ele>221</ele>
        <time>2017-12-31T11:05:43Z</time>
      </trkpt>
      <trkpt lat="43.22254" lon="5.38953">
        <ele>219</ele>
        <time>2017-12-31T11:06:43Z</time>
      </trkpt>
      <trkpt lat="43.22261" lon="5.38955">
        <ele>217</ele>
        <time>2017-12-31T11:07:43Z</time>
      </trkpt>
      <trkpt lat="43.22268" lon="5.38958">
        <ele>215</ele>
        <time>2017-12-31T11:08:43Z</time>
      </trkpt>
      <trkpt lat="43.22276" lon="5.3896">
        <ele>212</ele>
        <time>2017-12-31T11:09:43Z</time>
      </trkpt>
      <trkpt lat="43.22283" lon="5.38958">
        <ele>210</ele>
        <time>2017-12-31T11:10:43Z</time>
      </trkpt>
      <trkpt lat="43.2229" lon="5.38958">
        <ele>208</ele>
        <time>2017-12-31T11:11:43Z</time>
      </trkpt>
      <trkpt lat="43.22298" lon="5.38957">
        <ele>206</ele>
        <time>2017-12-31T11:12:43Z</time>
      </trkpt>
      <trkpt lat="43.22305" lon="5.38957">
        <ele>204</ele>
        <time>2017-12-31T11:13:43Z</time>
      </trkpt>
      <trkpt lat="43.22313" lon="5.38953">
        <ele>203</ele>
        <time>2017-12-31T11:14:43Z</time>
      </trkpt>
      <trkpt lat="43.22317" lon="5.38947">
        <ele>203</ele>
        <time>2017-12-31T11:15:43Z</time>
      </trkpt>
      <trkpt lat="43.22321" lon="5.38939">
        <ele>203</ele>
        <time>2017-12-31T11:16:43Z</time>
      </trkpt>
      <trkpt lat="43.22328" lon="5.38934">
        <ele>202</ele>
        <time>2017-12-31T11:17:43Z</time>
      </trkpt>
      <trkpt lat="43.22331" lon="5.38927">
        <ele>203</ele>
        <time>2017-12-31T11:18:43Z</time>
      </trkpt>
      <trkpt lat="43.22338" lon="5.38919">
        <ele>204</ele>
        <time>2017-12-31T11:19:43Z</time>
      </trkpt>
      <trkpt lat="43.22343" lon="5.38913">
        <ele>206</ele>
        <time>2017-12-31T11:20:43Z</time>
      </trkpt>
      <trkpt lat="43.22349" lon="5.38909">
        <ele>208</ele>
        <time>2017-12-31T11:21:43Z</time>
      </trkpt>
      <trkpt lat="43.22354" lon="5.38916">
        <ele>205</ele>
        <time>2017-12-31T11:22:43Z</time>
      </trkpt>
      <trkpt lat="43.22361" lon="5.3892">
        <ele>204</ele>
        <time>2017-12-31T11:23:43Z</time>
      </trkpt>
      <trkpt lat="43.22367" lon="5.3892">
        <ele>204</ele>
        <time>2017-12-31T11:24:43Z</time>
      </trkpt>
      <trkpt lat="43.22374" lon="5.38921">
        <ele>204</ele>
        <time>2017-12-31T11:25:43Z</time>
      </trkpt>
      <trkpt lat="43.22381" lon="5.38921">
        <ele>204</ele>
        <time>2017-12-31T11:26:43Z</time>
      </trkpt>
      <trkpt lat="43.22387" lon="5.38925">
        <ele>203</ele>
        <time>2017-12-31T11:27:43Z</time>
      </trkpt>
      <trkpt lat="43.22391" lon="5.38933">
        <ele>201</ele>
        <time>2017-12-31T11:28:43Z</time>
      </trkpt>
      <trkpt lat="43.22397" lon="5.38933">
        <ele>201</ele>
        <time>2017-12-31T11:29:43Z</time>
      </trkpt>
      <trkpt lat="43.22404" lon="5.38938">
        <ele>199</ele>
        <time>2017-12-31T11:30:43Z</time>
      </trkpt>
      <trkpt lat="43.2241" lon="5.38939">
        <ele>198</ele>
        <time>2017-12-31T11:31:43Z</time>
      </trkpt>
      <trkpt lat="43.22416" lon="5.38939">
        <ele>198</ele>
        <time>2017-12-31T11:32:43Z</time>
      </trkpt>
      <trkpt lat="43.22419" lon="5.38948">
        <ele>194</ele>
        <time>2017-12-31T11:33:43Z</time>
      </trkpt>
      <trkpt lat="43.22419" lon="5.38956">
        <ele>191</ele>
        <time>2017-12-31T11:34:43Z</time>
      </trkpt>
      <trkpt lat="43.22422" lon="5.38964">
        <ele>187</ele>
        <time>2017-12-31T11:35:43Z</time>
      </trkpt>
      <trkpt lat="43.22424" lon="5.38971">
        <ele>184</ele>
        <time>2017-12-31T11:36:43Z</time>
      </trkpt>
      <trkpt lat="43.22428" lon="5.3898">
        <ele>179</ele>
        <time>2017-12-31T11:37:43Z</time>
      </trkpt>
      <trkpt lat="43.22422" lon="5.38983">
        <ele>179</ele>
        <time>2017-12-31T11:38:43Z</time>
      </trkpt>
      <trkpt lat="43.22417" lon="5.38987">
        <ele>178</ele>
        <time>2017-12-31T11:39:43Z</time>
      </trkpt>
      <trkpt lat="43.22416" lon="5.38994">
        <ele>176</ele>
        <time>2017-12-31T11:40:43Z</time>
      </trkpt>
      <trkpt lat="43.22416" lon="5.39003">
        <ele>173</ele>
        <time>2017-12-31T11:41:43Z</time>
      </trkpt>
      <trkpt lat="43.2241" lon="5.39009">
        <ele>174</ele>
        <time>2017-12-31T11:42:43Z</time>
      </trkpt>
      <trkpt lat="43.22405" lon="5.39011">
        <ele>176</ele>
        <time>2017-12-31T11:43:43Z</time>
      </trkpt>
      <trkpt lat="43.22404" lon="5.39018">
        <ele>176</ele>
        <time>2017-12-31T11:44:43Z</time>
      </trkpt>
      <trkpt lat="43.22403" lon="5.39027">
        <ele>177</ele>
        <time>2017-12-31T11:45:43Z</time>
      </trkpt>
      <trkpt lat="43.22403" lon="5.39036">
        <ele>177</ele>
        <time>2017-12-31T11:46:43Z</time>
      </trkpt>
      <trkpt lat="43.22409" lon="5.39041">
        <ele>175</ele>
        <time>2017-12-31T11:47:43Z</time>
      </trkpt>
      <trkpt lat="43.22416" lon="5.39046">
        <ele>173</ele>
        <time>2017-12-31T11:48:43Z</time>
      </trkpt>
      <trkpt lat="43.22422" lon="5.39047">
        <ele>172</ele>
        <time>2017-12-31T11:49:43Z</time>
      </trkpt>
      <trkpt lat="43.22429" lon="5.39049">
        <ele>170</ele>
        <time>2017-12-31T11:50:43Z</time>
      </trkpt>
      <trkpt lat="43.22436" lon="5.39051">
        <ele>169</ele>
        <time>2017-12-31T11:51:43Z</time>
      </trkpt>
      <trkpt lat="43.22442" lon="5.39052">
        <ele>168</ele>
        <time>2017-12-31T11:52:43Z</time>
      </trkpt>
      <trkpt lat="43.2245" lon="5.39053">
        <ele>166</ele>
        <time>2017-12-31T11:53:43Z</time>
      </trkpt>
      <trkpt lat="43.22457" lon="5.39052">
        <ele>165</ele>
        <time>2017-12-31T11:54:43Z</time>
      </trkpt>
      <trkpt lat="43.22466" lon="5.39052">
        <ele>163</ele>
        <time>2017-12-31T11:55:43Z</time>
      </trkpt>
      <trkpt lat="43.22473" lon="5.39052">
        <ele>161</ele>
        <time>2017-12-31T11:56:43Z</time>
      </trkpt>
      <trkpt lat="43.22479" lon="5.39052">
        <ele>160</ele>
        <time>2017-12-31T11:57:43Z</time>
      </trkpt>
      <trkpt lat="43.22487" lon="5.3905">
        <ele>159</ele>
        <time>2017-12-31T11:58:43Z</time>
      </trkpt>
      <trkpt lat="43.22497" lon="5.39048">
        <ele>157</ele>
        <time>2017-12-31T11:59:43Z</time>
      </trkpt>
      <trkpt lat="43.22504" lon="5.39049">
        <ele>155</ele>
        <time>2017-12-31T12:00:43Z</time>
      </trkpt>
      <trkpt lat="43.22511" lon="5.39042">
        <ele>154</ele>
        <time>2017-12-31T12:01:43Z</time>
      </trkpt>
      <trkpt lat="43.22503" lon="5.39042">
        <ele>156</ele>
        <time>2017-12-31T12:02:43Z</time>
      </trkpt>
      <trkpt lat="43.22496" lon="5.39041">
        <ele>157</ele>
        <time>2017-12-31T12:03:43Z</time>
      </trkpt>
      <trkpt lat="43.2249" lon="5.39042">
        <ele>158</ele>
        <time>2017-12-31T12:04:43Z</time>
      </trkpt>
      <trkpt lat="43.22482" lon="5.39044">
        <ele>160</ele>
        <time>2017-12-31T12:05:43Z</time>
      </trkpt>
      <trkpt lat="43.22474" lon="5.39045">
        <ele>162</ele>
        <time>2017-12-31T12:06:43Z</time>
      </trkpt>
      <trkpt lat="43.22467" lon="5.39045">
        <ele>163</ele>
        <time>2017-12-31T12:07:43Z</time>
      </trkpt>
      <trkpt lat="43.22461" lon="5.39044">
        <ele>164</ele>
        <time>2017-12-31T12:08:43Z</time>
      </trkpt>
      <trkpt lat="43.22456" lon="5.39045">
        <ele>165</ele>
        <time>2017-12-31T12:09:43Z</time>
      </trkpt>
      <trkpt lat="43.2245" lon="5.39046">
        <ele>166</ele>
        <time>2017-12-31T12:10:43Z</time>
      </trkpt>
      <trkpt lat="43.22444" lon="5.39044">
        <ele>168</ele>
        <time>2017-12-31T12:11:43Z</time>
      </trkpt>
      <trkpt lat="43.22438" lon="5.39042">
        <ele>169</ele>
        <time>2017-12-31T12:12:43Z</time>
      </trkpt>
      <trkpt lat="43.22431" lon="5.39041">
        <ele>170</ele>
        <time>2017-12-31T12:13:43Z</time>
      </trkpt>
      <trkpt lat="43.22426" lon="5.3904">
        <ele>171</ele>
        <time>2017-12-31T12:14:43Z</time>
      </trkpt>
      <trkpt lat="43.2242" lon="5.39039">
        <ele>172</ele>
        <time>2017-12-31T12:15:43Z</time>
      </trkpt>
      <trkpt lat="43.22414" lon="5.39036">
        <ele>174</ele>
        <time>2017-12-31T12:16:43Z</time>
      </trkpt>
      <trkpt lat="43.22409" lon="5.39034">
        <ele>175</ele>
        <time>2017-12-31T12:17:43Z</time>
      </trkpt>
      <trkpt lat="43.2241" lon="5.39023">
        <ele>175</ele>
        <time>2017-12-31T12:18:43Z</time>
      </trkpt>
      <trkpt lat="43.22418" lon="5.39021">
        <ele>173</ele>
        <time>2017-12-31T12:19:43Z</time>
      </trkpt>
      <trkpt lat="43.22426" lon="5.39022">
        <ele>171</ele>
        <time>2017-12-31T12:20:43Z</time>
      </trkpt>
      <trkpt lat="43.22434" lon="5.39023">
        <ele>170</ele>
        <time>2017-12-31T12:21:43Z</time>
      </trkpt>
      <trkpt lat="43.22441" lon="5.39017">
        <ele>169</ele>
        <time>2017-12-31T12:22:43Z</time>
      </trkpt>
      <trkpt lat="43.22447" lon="5.39013">
        <ele>168</ele>
        <time>2017-12-31T12:23:43Z</time>
      </trkpt>
      <trkpt lat="43.22454" lon="5.3901">
        <ele>166</ele>
        <time>2017-12-31T12:24:43Z</time>
      </trkpt>
      <trkpt lat="43.22461" lon="5.39006">
        <ele>165</ele>
        <time>2017-12-31T12:25:43Z</time>
      </trkpt>
      <trkpt lat="43.22466" lon="5.39">
        <ele>165</ele>
        <time>2017-12-31T12:26:43Z</time>
      </trkpt>
      <trkpt lat="43.22469" lon="5.38993">
        <ele>167</ele>
        <time>2017-12-31T12:27:43Z</time>
      </trkpt>
      <trkpt lat="43.22476" lon="5.3899">
        <ele>168</ele>
        <time>2017-12-31T12:28:43Z</time>
      </trkpt>
      <trkpt lat="43.22482" lon="5.38987">
        <ele>168</ele>
        <time>2017-12-31T12:29:43Z</time>
      </trkpt>
      <trkpt lat="43.22486" lon="5.38979">
        <ele>171</ele>
        <time>2017-12-31T12:30:43Z</time>
      </trkpt>
      <trkpt lat="43.22487" lon="5.3897">
        <ele>175</ele>
        <time>2017-12-31T12:31:43Z</time>
      </trkpt>
      <trkpt lat="43.22492" lon="5.38964">
        <ele>177</ele>
        <time>2017-12-31T12:32:43Z</time>
      </trkpt>
      <trkpt lat="43.22499" lon="5.38959">
        <ele>178</ele>
        <time>2017-12-31T12:33:43Z</time>
      </trkpt>
      <trkpt lat="43.22504" lon="5.38953">
        <ele>180</ele>
        <time>2017-12-31T12:34:43Z</time>
      </trkpt>
      <trkpt lat="43.22509" lon="5.38945">
        <ele>181</ele>
        <time>2017-12-31T12:35:43Z</time>
      </trkpt>
      <trkpt lat="43.22514" lon="5.38936">
        <ele>184</ele>
        <time>2017-12-31T12:36:43Z</time>
      </trkpt>
      <trkpt lat="43.22519" lon="5.38929">
        <ele>185</ele>
        <time>2017-12-31T12:37:43Z</time>
      </trkpt>
      <trkpt lat="43.22523" lon="5.38921">
        <ele>186</ele>
        <time>2017-12-31T12:38:43Z</time>
      </trkpt>
      <trkpt lat="43.22529" lon="5.38914">
        <ele>187</ele>
        <time>2017-12-31T12:39:43Z</time>
      </trkpt>
      <trkpt lat="43.22532" lon="5.38905">
        <ele>190</ele>
        <time>2017-12-31T12:40:43Z</time>
      </trkpt>
      <trkpt lat="43.22534" lon="5.38898">
        <ele>192</ele>
        <time>2017-12-31T12:41:43Z</time>
      </trkpt>
      <trkpt lat="43.22537" lon="5.38891">
        <ele>194</ele>
        <time>2017-12-31T12:42:43Z</time>
      </trkpt>
      <trkpt lat="43.22539" lon="5.38882">
        <ele>198</ele>
        <time>2017-12-31T12:43:43Z</time>
      </trkpt>
      <trkpt lat="43.22541" lon="5.38873">
        <ele>201</ele>
        <time>2017-12-31T12:44:43Z</time>
      </trkpt>
      <trkpt lat="43.22546" lon="5.38868">
        <ele>201</ele>
        <time>2017-12-31T12:45:43Z</time>
      </trkpt>
      <trkpt lat="43.22552" lon="5.38869">
        <ele>198</ele>
        <time>2017-12-31T12:46:43Z</time>
      </trkpt>
      <trkpt lat="43.22557" lon="5.38867">
        <ele>197</ele>
        <time>2017-12-31T12:47:43Z</time>
      </trkpt>
      <trkpt lat="43.22562" lon="5.38863">
        <ele>196</ele>
        <time>2017-12-31T12:48:43Z</time>
      </trkpt>
      <trkpt lat="43.22565" lon="5.38857">
        <ele>198</ele>
        <time>2017-12-31T12:49:43Z</time>
      </trkpt>
      <trkpt lat="43.22568" lon="5.3885">
        <ele>200</ele>
        <time>2017-12-31T12:50:43Z</time>
      </trkpt>
      <trkpt lat="43.22571" lon="5.38843">
        <ele>202</ele>
        <time>2017-12-31T12:51:43Z</time>
      </trkpt>
      <trkpt lat="43.22576" lon="5.38838">
        <ele>202</ele>
        <time>2017-12-31T12:52:43Z</time>
      </trkpt>
      <trkpt lat="43.22582" lon="5.38834">
        <ele>201</ele>
        <time>2017-12-31T12:53:43Z</time>
      </trkpt>
      <trkpt lat="43.22587" lon="5.38827">
        <ele>204</ele>
        <time>2017-12-31T12:54:43Z</time>
      </trkpt>
      <trkpt lat="43.22592" lon="5.3882">
        <ele>206</ele>
        <time>2017-12-31T12:55:43Z</time>
      </trkpt>
      <trkpt lat="43.22597" lon="5.38813">
        <ele>209</ele>
        <time>2017-12-31T12:56:43Z</time>
      </trkpt>
      <trkpt lat="43.22601" lon="5.38807">
        <ele>211</ele>
        <time>2017-12-31T12:57:43Z</time>
      </trkpt>
      <trkpt lat="43.22607" lon="5.38798">
        <ele>215</ele>
        <time>2017-12-31T12:58:43Z</time>
      </trkpt>
      <trkpt lat="43.22614" lon="5.38789">
        <ele>218</ele>
        <time>2017-12-31T12:59:43Z</time>
      </trkpt>
      <trkpt lat="43.22619" lon="5.38783">
        <ele>220</ele>
        <time>2017-12-31T13:00:43Z</time>
      </trkpt>
      <trkpt lat="43.22625" lon="5.38775">
        <ele>222</ele>
        <time>2017-12-31T13:01:43Z</time>
      </trkpt>
      <trkpt lat="43.2263" lon="5.38766">
        <ele>225</ele>
        <time>2017-12-31T13:02:43Z</time>
      </trkpt>
      <trkpt lat="43.22637" lon="5.38758">
        <ele>227</ele>
        <time>2017-12-31T13:03:43Z</time>
      </trkpt>
      <trkpt lat="43.22641" lon="5.3875">
        <ele>229</ele>
        <time>2017-12-31T13:04:43Z</time>
      </trkpt>
      <trkpt lat="43.22647" lon="5.38744">
        <ele>228</ele>
        <time>2017-12-31T13:05:43Z</time>
      </trkpt>
      <trkpt lat="43.22652" lon="5.38741">
        <ele>228</ele>
        <time>2017-12-31T13:06:43Z</time>
      </trkpt>
      <trkpt lat="43.22658" lon="5.38733">
        <ele>227</ele>
        <time>2017-12-31T13:07:43Z</time>
      </trkpt>
      <trkpt lat="43.22664" lon="5.38724">
        <ele>226</ele>
        <time>2017-12-31T13:08:43Z</time>
      </trkpt>
      <trkpt lat="43.22665" lon="5.38715">
        <ele>225</ele>
        <time>2017-12-31T13:09:43Z</time>
      </trkpt>
      <trkpt lat="43.22669" lon="5.38707">
        <ele>224</ele>
        <time>2017-12-31T13:10:43Z</time>
      </trkpt>
      <trkpt lat="43.2267" lon="5.38698">
        <ele>224</ele>
        <time>2017-12-31T13:11:43Z</time>
      </trkpt>
      <trkpt lat="43.22668" lon="5.38691">
        <ele>225</ele>
        <time>2017-12-31T13:12:43Z</time>
      </trkpt>
      <trkpt lat="43.22663" lon="5.38684">
        <ele>226</ele>
        <time>2017-12-31T13:13:43Z</time>
      </trkpt>
      <trkpt lat="43.22659" lon="5.38676">
        <ele>227</ele>
        <time>2017-12-31T13:14:43Z</time>
      </trkpt>
      <trkpt lat="43.22658" lon="5.38669">
        <ele>227</ele>
        <time>2017-12-31T13:15:43Z</time>
      </trkpt>
      <trkpt lat="43.2266" lon="5.38662">
        <ele>226</ele>
        <time>2017-12-31T13:16:43Z</time>
      </trkpt>
      <trkpt lat="43.22662" lon="5.38654">
        <ele>226</ele>
        <time>2017-12-31T13:17:43Z</time>
      </trkpt>
      <trkpt lat="43.22663" lon="5.38646">
        <ele>225</ele>
        <time>2017-12-31T13:18:43Z</time>
      </trkpt>
      <trkpt lat="43.22664" lon="5.38637">
        <ele>225</ele>
        <time>2017-12-31T13:19:43Z</time>
      </trkpt>
      <trkpt lat="43.22664" lon="5.38629">
        <ele>224</ele>
        <time>2017-12-31T13:20:43Z</time>
      </trkpt>
      <trkpt lat="43.22664" lon="5.3862">
        <ele>224</ele>
        <time>2017-12-31T13:21:43Z</time>
      </trkpt>
      <trkpt lat="43.22664" lon="5.38612">
        <ele>224</ele>
        <time>2017-12-31T13:22:43Z</time>
      </trkpt>
      <trkpt lat="43.22664" lon="5.38605">
        <ele>223</ele>
        <time>2017-12-31T13:23:43Z</time>
      </trkpt>
      <trkpt lat="43.22664" lon="5.38597">
        <ele>223</ele>
        <time>2017-12-31T13:24:43Z</time>
      </trkpt>
      <trkpt lat="43.22664" lon="5.3859">
        <ele>223</ele>
        <time>2017-12-31T13:25:43Z</time>
      </trkpt>
      <trkpt lat="43.22664" lon="5.38581">
        <ele>223</ele>
        <time>2017-12-31T13:26:43Z</time>
      </trkpt>
      <trkpt lat="43.22667" lon="5.38574">
        <ele>223</ele>
        <time>2017-12-31T13:27:43Z</time>
      </trkpt>
      <trkpt lat="43.22671" lon="5.38566">
        <ele>224</ele>
        <time>2017-12-31T13:28:43Z</time>
      </trkpt>
      <trkpt lat="43.22671" lon="5.38556">
        <ele>225</ele>
        <time>2017-12-31T13:29:43Z</time>
      </trkpt>
      <trkpt lat="43.22674" lon="5.38549">
        <ele>226</ele>
        <time>2017-12-31T13:30:43Z</time>
      </trkpt>
      <trkpt lat="43.22678" lon="5.38542">
        <ele>226</ele>
        <time>2017-12-31T13:31:43Z</time>
      </trkpt>
      <trkpt lat="43.22682" lon="5.38535">
        <ele>227</ele>
        <time>2017-12-31T13:32:43Z</time>
      </trkpt>
      <trkpt lat="43.22689" lon="5.3853">
        <ele>227</ele>
        <time>2017-12-31T13:33:43Z</time>
      </trkpt>
      <trkpt lat="43.22694" lon="5.38524">
        <ele>227</ele>
        <time>2017-12-31T13:34:43Z</time>
      </trkpt>
      <trkpt lat="43.22699" lon="5.38516">
        <ele>228</ele>
        <time>2017-12-31T13:35:43Z</time>
      </trkpt>
      <trkpt lat="43.22705" lon="5.38509">
        <ele>229</ele>
        <time>2017-12-31T13:36:43Z</time>
      </trkpt>
      <trkpt lat="43.22711" lon="5.38506">
        <ele>229</ele>
        <time>2017-12-31T13:37:43Z</time>
      </trkpt>
      <trkpt lat="43.22717" lon="5.38504">
        <ele>229</ele>
        <time>2017-12-31T13:38:43Z</time>
      </trkpt>
      <trkpt lat="43.22725" lon="5.385">
        <ele>230</ele>
        <time>2017-12-31T13:39:43Z</time>
      </trkpt>
      <trkpt lat="43.22733" lon="5.38497">
        <ele>230</ele>
        <time>2017-12-31T13:40:43Z</time>
      </trkpt>
      <trkpt lat="43.2274" lon="5.38492">
        <ele>231</ele>
        <time>2017-12-31T13:41:43Z</time>
      </trkpt>
      <trkpt lat="43.22747" lon="5.3849">
        <ele>231</ele>
        <time>2017-12-31T13:42:43Z</time>
      </trkpt>
      <trkpt lat="43.22754" lon="5.3849">
        <ele>230</ele>
        <time>2017-12-31T13:43:43Z</time>
      </trkpt>
      <trkpt lat="43.2276" lon="5.38488">
        <ele>230</ele>
        <time>2017-12-31T13:44:43Z</time>
      </trkpt>
      <trkpt lat="43.22764" lon="5.38479">
        <ele>233</ele>
        <time>2017-12-31T13:45:43Z</time>
      </trkpt>
      <trkpt lat="43.22766" lon="5.38472">
        <ele>234</ele>
        <time>2017-12-31T13:46:43Z</time>
      </trkpt>
      <trkpt lat="43.22774" lon="5.38471">
        <ele>234</ele>
        <time>2017-12-31T13:47:43Z</time>
      </trkpt>
      <trkpt lat="43.2278" lon="5.38469">
        <ele>234</ele>
        <time>2017-12-31T13:48:43Z</time>
      </trkpt>
      <trkpt lat="43.22787" lon="5.38469">
        <ele>234</ele>
        <time>2017-12-31T13:49:43Z</time>
      </trkpt>
      <trkpt lat="43.22793" lon="5.3847">
        <ele>233</ele>
        <time>2017-12-31T13:50:43Z</time>
      </trkpt>
      <trkpt lat="43.228" lon="5.38469">
        <ele>233</ele>
        <time>2017-12-31T13:51:43Z</time>
      </trkpt>
      <trkpt lat="43.22805" lon="5.38463">
        <ele>235</ele>
        <time>2017-12-31T13:52:43Z</time>
      </trkpt>
      <trkpt lat="43.22811" lon="5.38458">
        <ele>236</ele>
        <time>2017-12-31T13:53:43Z</time>
      </trkpt>
      <trkpt lat="43.22816" lon="5.38452">
        <ele>238</ele>
        <time>2017-12-31T13:54:43Z</time>
      </trkpt>
      <trkpt lat="43.22821" lon="5.38445">
        <ele>240</ele>
        <time>2017-12-31T13:55:43Z</time>
      </trkpt>
      <trkpt lat="43.22824" lon="5.38437">
        <ele>243</ele>
        <time>2017-12-31T13:56:43Z</time>
      </trkpt>
      <trkpt lat="43.22826" lon="5.3843">
        <ele>245</ele>
        <time>2017-12-31T13:57:43Z</time>
      </trkpt>
      <trkpt lat="43.2283" lon="5.38423">
        <ele>248</ele>
        <time>2017-12-31T13:58:43Z</time>
      </trkpt>
      <trkpt lat="43.22834" lon="5.38416">
        <ele>250</ele>
        <time>2017-12-31T13:59:43Z</time>
      </trkpt>
      <trkpt lat="43.22838" lon="5.38407">
        <ele>250</ele>
        <time>2017-12-31T14:00:43Z</time>
      </trkpt>
      <trkpt lat="43.22842" lon="5.38401">
        <ele>249</ele>
        <time>2017-12-31T14:01:43Z</time>
      </trkpt>
      <trkpt lat="43.22844" lon="5.38392">
        <ele>250</ele>
        <time>2017-12-31T14:02:43Z</time>
      </trkpt>
      <trkpt lat="43.22847" lon="5.38383">
        <ele>251</ele>
        <time>2017-12-31T14:03:43Z</time>
      </trkpt>
      <trkpt lat="43.22849" lon="5.38375">
        <ele>251</ele>
        <time>2017-12-31T14:04:43Z</time>
      </trkpt>
      <trkpt lat="43.22851" lon="5.38366">
        <ele>252</ele>
        <time>2017-12-31T14:05:43Z</time>
      </trkpt>
      <trkpt lat="43.22857" lon="5.38358">
        <ele>250</ele>
        <time>2017-12-31T14:06:43Z</time>
      </trkpt>
      <trkpt lat="43.2286" lon="5.3835">
        <ele>250</ele>
        <time>2017-12-31T14:07:43Z</time>
      </trkpt>
      <trkpt lat="43.22863" lon="5.38344">
        <ele>250</ele>
        <time>2017-12-31T14:08:43Z</time>
      </trkpt>
      <trkpt lat="43.22863" lon="5.38337">
        <ele>251</ele>
        <time>2017-12-31T14:09:43Z</time>
      </trkpt>
      <trkpt lat="43.22863" lon="5.38329">
        <ele>252</ele>
        <time>2017-12-31T14:10:43Z</time>
      </trkpt>
      <trkpt lat="43.22862" lon="5.3832">
        <ele>252</ele>
        <time>2017-12-31T14:11:43Z</time>
      </trkpt>
      <trkpt lat="43.2286" lon="5.38313">
        <ele>253</ele>
        <time>2017-12-31T14:12:43Z</time>
      </trkpt>
      <trkpt lat="43.22859" lon="5.38306">
        <ele>254</ele>
        <time>2017-12-31T14:13:43Z</time>
      </trkpt>
      <trkpt lat="43.22859" lon="5.38299">
        <ele>254</ele>
        <time>2017-12-31T14:14:43Z</time>
      </trkpt>
      <trkpt lat="43.22859" lon="5.38289">
        <ele>255</ele>
        <time>2017-12-31T14:15:43Z</time>
      </trkpt>
      <trkpt lat="43.22857" lon="5.38281">
        <ele>255</ele>
        <time>2017-12-31T14:16:43Z</time>
      </trkpt>
      <trkpt lat="43.22855" lon="5.38274">
        <ele>256</ele>
        <time>2017-12-31T14:17:43Z</time>
      </trkpt>
      <trkpt lat="43.22853" lon="5.38267">
        <ele>257</ele>
        <time>2017-12-31T14:18:43Z</time>
      </trkpt>
      <trkpt lat="43.22851" lon="5.3826">
        <ele>258</ele>
        <time>2017-12-31T14:19:43Z</time>
      </trkpt>
      <trkpt lat="43.2285" lon="5.38251">
        <ele>258</ele>
        <time>2017-12-31T14:20:43Z</time>
      </trkpt>
      <trkpt lat="43.22848" lon="5.38243">
        <ele>258</ele>
        <time>2017-12-31T14:21:43Z</time>
      </trkpt>
      <trkpt lat="43.22848" lon="5.38239">
        <ele>258</ele>
        <time>2017-12-31T14:22:43Z</time>
      </trkpt>
      <trkpt lat="43.22848" lon="5.38234">
        <ele>257</ele>
        <time>2017-12-31T14:23:43Z</time>
      </trkpt>
      <trkpt lat="43.22848" lon="5.38229">
        <ele>257</ele>
        <time>2017-12-31T14:24:43Z</time>
      </trkpt>
      <trkpt lat="43.22847" lon="5.38224">
        <ele>256</ele>
        <time>2017-12-31T14:25:43Z</time>
      </trkpt>
      <trkpt lat="43.22847" lon="5.38219">
        <ele>256</ele>
        <time>2017-12-31T14:26:43Z</time>
      </trkpt>
      <trkpt lat="43.22846" lon="5.38215">
        <ele>255</ele>
        <time>2017-12-31T14:27:43Z</time>
      </trkpt>
      <trkpt lat="43.2285" lon="5.38214">
        <ele>255</ele>
        <time>2017-12-31T14:28:43Z</time>
      </trkpt>
      <trkpt lat="43.22853" lon="5.38213">
        <ele>254</ele>
        <time>2017-12-31T14:29:43Z</time>
      </trkpt>
      <trkpt lat="43.22857" lon="5.38212">
        <ele>253</ele>
        <time>2017-12-31T14:30:43Z</time>
      </trkpt>
      <trkpt lat="43.2286" lon="5.38213">
        <ele>253</ele>
        <time>2017-12-31T14:31:43Z</time>
      </trkpt>
      <trkpt lat="43.22864" lon="5.38214">
        <ele>253</ele>
        <time>2017-12-31T14:32:43Z</time>
      </trkpt>
      <trkpt lat="43.22868" lon="5.38215">
        <ele>252</ele>
        <time>2017-12-31T14:33:43Z</time>
      </trkpt>
      <trkpt lat="43.22873" lon="5.38218">
        <ele>251</ele>
        <time>2017-12-31T14:34:43Z</time>
      </trkpt>
      <trkpt lat="43.22877" lon="5.38219">
        <ele>250</ele>
        <time>2017-12-31T14:35:43Z</time>
      </trkpt>
      <trkpt lat="43.2288" lon="5.38219">
        <ele>250</ele>
        <time>2017-12-31T14:36:43Z</time>
      </trkpt>
      <trkpt lat="43.22884" lon="5.38221">
        <ele>249</ele>
        <time>2017-12-31T14:37:43Z</time>
      </trkpt>
      <trkpt lat="43.22888" lon="5.38221">
        <ele>248</ele>
        <time>2017-12-31T14:38:43Z</time>
      </trkpt>
      <trkpt lat="43.22891" lon="5.38221">
        <ele>248</ele>
        <time>2017-12-31T14:39:43Z</time>
      </trkpt>
      <trkpt lat="43.22894" lon="5.38222">
        <ele>247</ele>
        <time>2017-12-31T14:40:43Z</time>
      </trkpt>
      <trkpt lat="43.22897" lon="5.38221">
        <ele>247</ele>
        <time>2017-12-31T14:41:43Z</time>
      </trkpt>
      <trkpt lat="43.22901" lon="5.38225">
        <ele>246</ele>
        <time>2017-12-31T14:42:43Z</time>
      </trkpt>
      <trkpt lat="43.22904" lon="5.38223">
        <ele>245</ele>
        <time>2017-12-31T14:43:43Z</time>
      </trkpt>
      <trkpt lat="43.22907" lon="5.38222">
        <ele>245</ele>
        <time>2017-12-31T14:44:43Z</time>
      </trkpt>
      <trkpt lat="43.22911" lon="5.38221">
        <ele>244</ele>
        <time>2017-12-31T14:45:43Z</time>
      </trkpt>
      <trkpt lat="43.22915" lon="5.38222">
        <ele>243</ele>
        <time>2017-12-31T14:46:43Z</time>
      </trkpt>
      <trkpt lat="43.22919" lon="5.38223">
        <ele>243</ele>
        <time>2017-12-31T14:47:43Z</time>
      </trkpt>
      <trkpt lat="43.22922" lon="5.38222">
        <ele>243</ele>
        <time>2017-12-31T14:48:43Z</time>
      </trkpt>
      <trkpt lat="43.22925" lon="5.38219">
        <ele>243</ele>
        <time>2017-12-31T14:49:43Z</time>
      </trkpt>
      <trkpt lat="43.22929" lon="5.38219">
        <ele>242</ele>
        <time>2017-12-31T14:50:43Z</time>
      </trkpt>
      <trkpt lat="43.22933" lon="5.38219">
        <ele>242</ele>
        <time>2017-12-31T14:51:43Z</time>
      </trkpt>
      <trkpt lat="43.22936" lon="5.38222">
        <ele>241</ele>
        <time>2017-12-31T14:52:43Z</time>
      </trkpt>
      <trkpt lat="43.2294" lon="5.38225">
        <ele>241</ele>
        <time>2017-12-31T14:53:43Z</time>
      </trkpt>
      <trkpt lat="43.22941" lon="5.38231">
        <ele>239</ele>
        <time>2017-12-31T14:54:43Z</time>
      </trkpt>
      <trkpt lat="43.22938" lon="5.38234">
        <ele>239</ele>
        <time>2017-12-31T14:55:43Z</time>
      </trkpt>
      <trkpt lat="43.2294" lon="5.38239">
        <ele>238</ele>
        <time>2017-12-31T14:56:43Z</time>
      </trkpt>
      <trkpt lat="43.22943" lon="5.38239">
        <ele>238</ele>
        <time>2017-12-31T14:57:43Z</time>
      </trkpt>
      <trkpt lat="43.22947" lon="5.3824">
        <ele>237</ele>
        <time>2017-12-31T14:58:43Z</time>
      </trkpt>
      <trkpt lat="43.22951" lon="5.3824">
        <ele>237</ele>
        <time>2017-12-31T14:59:43Z</time>
      </trkpt>
      <trkpt lat="43.22954" lon="5.38243">
        <ele>236</ele>
        <time>2017-12-31T15:00:43Z</time>
      </trkpt>
      <trkpt lat="43.22958" lon="5.38243">
        <ele>235</ele>
        <time>2017-12-31T15:01:43Z</time>
      </trkpt>
      <trkpt lat="43.22961" lon="5.38246">
        <ele>234</ele>
        <time>2017-12-31T15:02:43Z</time>
      </trkpt>
      <trkpt lat="43.22963" lon="5.38251">
        <ele>233</ele>
        <time>2017-12-31T15:03:43Z</time>
      </trkpt>
      <trkpt lat="43.22965" lon="5.38256">
        <ele>232</ele>
        <time>2017-12-31T15:04:43Z</time>
      </trkpt>
      <trkpt lat="43.22968" lon="5.38258">
        <ele>232</ele>
        <time>2017-12-31T15:05:43Z</time>
      </trkpt>
      <trkpt lat="43.22972" lon="5.38261">
        <ele>231</ele>
        <time>2017-12-31T15:06:43Z</time>
      </trkpt>
      <trkpt lat="43.22974" lon="5.38267">
        <ele>230</ele>
        <time>2017-12-31T15:07:43Z</time>
      </trkpt>
      <trkpt lat="43.22978" lon="5.3827">
        <ele>229</ele>
        <time>2017-12-31T15:08:43Z</time>
      </trkpt>
      <trkpt lat="43.2298" lon="5.38275">
        <ele>228</ele>
        <time>2017-12-31T15:09:43Z</time>
      </trkpt>
      <trkpt lat="43.22983" lon="5.38281">
        <ele>227</ele>
        <time>2017-12-31T15:10:43Z</time>
      </trkpt>
      <trkpt lat="43.22987" lon="5.38284">
        <ele>226</ele>
        <time>2017-12-31T15:11:43Z</time>
      </trkpt>
      <trkpt lat="43.2299" lon="5.38283">
        <ele>225</ele>
        <time>2017-12-31T15:12:43Z</time>
      </trkpt>
      <trkpt lat="43.22994" lon="5.38285">
        <ele>225</ele>
        <time>2017-12-31T15:13:43Z</time>
      </trkpt>
      <trkpt lat="43.22995" lon="5.3829">
        <ele>224</ele>
        <time>2017-12-31T15:14:43Z</time>
      </trkpt>
      <trkpt lat="43.22998" lon="5.38295">
        <ele>223</ele>
        <time>2017-12-31T15:15:43Z</time>
      </trkpt>
      <trkpt lat="43.23001" lon="5.38301">
        <ele>222</ele>
        <time>2017-12-31T15:16:43Z</time>
      </trkpt>
      <trkpt lat="43.23003" lon="5.38307">
        <ele>221</ele>
        <time>2017-12-31T15:17:43Z</time>
      </trkpt>
      <trkpt lat="43.23004" lon="5.38312">
        <ele>220</ele>
        <time>2017-12-31T15:18:43Z</time>
      </trkpt>
      <trkpt lat="43.23009" lon="5.38311">
        <ele>219</ele>
        <time>2017-12-31T15:19:43Z</time>
      </trkpt>
      <trkpt lat="43.23013" lon="5.38308">
        <ele>220</ele>
        <time>2017-12-31T15:20:43Z</time>
      </trkpt>
      <trkpt lat="43.23016" lon="5.38306">
        <ele>219</ele>
        <time>2017-12-31T15:21:43Z</time>
      </trkpt>
      <trkpt lat="43.23019" lon="5.38303">
        <ele>220</ele>
        <time>2017-12-31T15:22:43Z</time>
      </trkpt>
      <trkpt lat="43.23023" lon="5.38301">
        <ele>219</ele>
        <time>2017-12-31T15:23:43Z</time>
      </trkpt>
      <trkpt lat="43.23026" lon="5.38298">
        <ele>219</ele>
        <time>2017-12-31T15:24:43Z</time>
      </trkpt>
      <trkpt lat="43.23029" lon="5.38296">
        <ele>219</ele>
        <time>2017-12-31T15:25:43Z</time>
      </trkpt>
      <trkpt lat="43.23032" lon="5.38294">
        <ele>219</ele>
        <time>2017-12-31T15:26:43Z</time>
      </trkpt>
      <trkpt lat="43.23035" lon="5.3829">
        <ele>219</ele>
        <time>2017-12-31T15:27:43Z</time>
      </trkpt>
      <trkpt lat="43.23038" lon="5.38286">
        <ele>219</ele>
        <time>2017-12-31T15:28:43Z</time>
      </trkpt>
      <trkpt lat="43.23041" lon="5.38283">
        <ele>219</ele>
        <time>2017-12-31T15:29:43Z</time>
      </trkpt>
      <trkpt lat="43.23045" lon="5.3828">
        <ele>218</ele>
        <time>2017-12-31T15:30:43Z</time>
      </trkpt>
      <trkpt lat="43.23045" lon="5.38275">
        <ele>218</ele>
        <time>2017-12-31T15:31:43Z</time>
      </trkpt>
      <trkpt lat="43.23047" lon="5.38269">
        <ele>218</ele>
        <time>2017-12-31T15:32:43Z</time>
      </trkpt>
      <trkpt lat="43.23048" lon="5.38265">
        <ele>218</ele>
        <time>2017-12-31T15:33:43Z</time>
      </trkpt>
      <trkpt lat="43.2305" lon="5.3826">
        <ele>218</ele>
        <time>2017-12-31T15:34:43Z</time>
      </trkpt>
      <trkpt lat="43.23051" lon="5.38255">
        <ele>218</ele>
        <time>2017-12-31T15:35:43Z</time>
      </trkpt>
      <trkpt lat="43.23053" lon="5.38251">
        <ele>218</ele>
        <time>2017-12-31T15:36:43Z</time>
      </trkpt>
      <trkpt lat="43.23055" lon="5.38246">
        <ele>218</ele>
        <time>2017-12-31T15:37:43Z</time>
      </trkpt>
      <trkpt lat="43.23057" lon="5.38242">
        <ele>219</ele>
        <time>2017-12-31T15:38:43Z</time>
      </trkpt>
      <trkpt lat="43.23059" lon="5.38237">
        <ele>219</ele>
        <time>2017-12-31T15:39:43Z</time>
      </trkpt>
      <trkpt lat="43.23062" lon="5.38233">
        <ele>219</ele>
        <time>2017-12-31T15:40:43Z</time>
      </trkpt>
      <trkpt lat="43.23065" lon="5.38229">
        <ele>219</ele>
        <time>2017-12-31T15:41:43Z</time>
      </trkpt>
      <trkpt lat="43.23068" lon="5.38225">
        <ele>219</ele>
        <time>2017-12-31T15:42:43Z</time>
      </trkpt>
      <trkpt lat="43.23071" lon="5.38221">
        <ele>219</ele>
        <time>2017-12-31T15:43:43Z</time>
      </trkpt>
      <trkpt lat="43.23074" lon="5.38217">
        <ele>219</ele>
        <time>2017-12-31T15:44:43Z</time>
      </trkpt>
      <trkpt lat="43.23077" lon="5.38212">
        <ele>219</ele>
        <time>2017-12-31T15:45:43Z</time>
      </trkpt>
      <trkpt lat="43.2308" lon="5.38208">
        <ele>218</ele>
        <time>2017-12-31T15:46:43Z</time>
      </trkpt>
      <trkpt lat="43.23084" lon="5.38205">
        <ele>218</ele>
        <time>2017-12-31T15:47:43Z</time>
      </trkpt>
      <trkpt lat="43.23086" lon="5.38201">
        <ele>218</ele>
        <time>2017-12-31T15:48:43Z</time>
      </trkpt>
      <trkpt lat="43.23089" lon="5.38196">
        <ele>218</ele>
        <time>2017-12-31T15:49:43Z</time>
      </trkpt>
      <trkpt lat="43.23091" lon="5.3819">
        <ele>218</ele>
        <time>2017-12-31T15:50:43Z</time>
      </trkpt>
      <trkpt lat="43.23094" lon="5.38186">
        <ele>218</ele>
        <time>2017-12-31T15:51:43Z</time>
      </trkpt>
      <trkpt lat="43.23098" lon="5.3818">
        <ele>217</ele>
        <time>2017-12-31T15:52:43Z</time>
      </trkpt>
      <trkpt lat="43.23099" lon="5.38175">
        <ele>218</ele>
        <time>2017-12-31T15:53:43Z</time>
      </trkpt>
      <trkpt lat="43.23101" lon="5.38169">
        <ele>218</ele>
        <time>2017-12-31T15:54:43Z</time>
      </trkpt>
      <trkpt lat="43.23104" lon="5.38164">
        <ele>218</ele>
        <time>2017-12-31T15:55:43Z</time>
      </trkpt>
      <trkpt lat="43.23106" lon="5.38159">
        <ele>217</ele>
        <time>2017-12-31T15:56:43Z</time>
      </trkpt>
      <trkpt lat="43.23109" lon="5.38154">
        <ele>217</ele>
        <time>2017-12-31T15:57:43Z</time>
      </trkpt>
      <trkpt lat="43.23112" lon="5.3815">
        <ele>216</ele>
        <time>2017-12-31T15:58:43Z</time>
      </trkpt>
      <trkpt lat="43.23114" lon="5.38145">
        <ele>216</ele>
        <time>2017-12-31T15:59:43Z</time>
      </trkpt>
      <trkpt lat="43.23117" lon="5.3814">
        <ele>216</ele>
        <time>2017-12-31T16:00:43Z</time>
      </trkpt>
      <trkpt lat="43.23121" lon="5.38135">
        <ele>215</ele>
        <time>2017-12-31T16:01:43Z</time>
      </trkpt>
      <trkpt lat="43.23122" lon="5.3813">
        <ele>215</ele>
        <time>2017-12-31T16:02:43Z</time>
      </trkpt>
      <trkpt lat="43.23122" lon="5.38125">
        <ele>215</ele>
        <time>2017-12-31T16:03:43Z</time>
      </trkpt>
      <trkpt lat="43.23121" lon="5.38121">
        <ele>216</ele>
        <time>2017-12-31T16:04:43Z</time>
      </trkpt>
      <trkpt lat="43.23121" lon="5.38116">
        <ele>216</ele>
        <time>2017-12-31T16:05:43Z</time>
      </trkpt>
      <trkpt lat="43.2312" lon="5.38112">
        <ele>217</ele>
        <time>2017-12-31T16:06:43Z</time>
      </trkpt>
      <trkpt lat="43.2312" lon="5.38108">
        <ele>217</ele>
        <time>2017-12-31T16:07:43Z</time>
      </trkpt>
      <trkpt lat="43.2312" lon="5.38103">
        <ele>217</ele>
        <time>2017-12-31T16:08:43Z</time>
      </trkpt>
      <trkpt lat="43.23121" lon="5.38099">
        <ele>217</ele>
        <time>2017-12-31T16:09:43Z</time>
      </trkpt>
      <trkpt lat="43.23122" lon="5.38095">
        <ele>217</ele>
        <time>2017-12-31T16:10:43Z</time>
      </trkpt>
      <trkpt lat="43.23122" lon="5.38091">
        <ele>217</ele>
        <time>2017-12-31T16:11:43Z</time>
      </trkpt>
      <trkpt lat="43.23122" lon="5.38085">
        <ele>218</ele>
        <time>2017-12-31T16:12:43Z</time>
      </trkpt>
      <trkpt lat="43.23123" lon="5.38081">
        <ele>217</ele>
        <time>2017-12-31T16:13:43Z</time>
      </trkpt>
      <trkpt lat="43.23122" lon="5.38075">
        <ele>216</ele>
        <time>2017-12-31T16:14:43Z</time>
      </trkpt>
      <trkpt lat="43.2312" lon="5.38071">
        <ele>216</ele>
        <time>2017-12-31T16:15:43Z</time>
      </trkpt>
      <trkpt lat="43.23118" lon="5.38067">
        <ele>215</ele>
        <time>2017-12-31T16:16:43Z</time>
      </trkpt>
      <trkpt lat="43.23117" lon="5.38063">
        <ele>215</ele>
        <time>2017-12-31T16:17:43Z</time>
      </trkpt>
      <trkpt lat="43.23116" lon="5.38058">
        <ele>214</ele>
        <time>2017-12-31T16:18:43Z</time>
      </trkpt>
      <trkpt lat="43.23116" lon="5.38053">
        <ele>213</ele>
        <time>2017-12-31T16:19:43Z</time>
      </trkpt>
      <trkpt lat="43.23117" lon="5.38049">
        <ele>212</ele>
        <time>2017-12-31T16:20:43Z</time>
      </trkpt>
      <trkpt lat="43.23116" lon="5.38044">
        <ele>211</ele>
        <time>2017-12-31T16:21:43Z</time>
      </trkpt>
      <trkpt lat="43.23116" lon="5.3804">
        <ele>210</ele>
        <time>2017-12-31T16:22:43Z</time>
      </trkpt>
      <trkpt lat="43.23116" lon="5.38035">
        <ele>209</ele>
        <time>2017-12-31T16:23:43Z</time>
      </trkpt>
      <trkpt lat="43.23114" lon="5.3803">
        <ele>208</ele>
        <time>2017-12-31T16:24:43Z</time>
      </trkpt>
      <trkpt lat="43.23113" lon="5.38026">
        <ele>208</ele>
        <time>2017-12-31T16:25:43Z</time>
      </trkpt>
      <trkpt lat="43.23111" lon="5.38021">
        <ele>207</ele>
        <time>2017-12-31T16:26:43Z</time>
      </trkpt>
      <trkpt lat="43.23112" lon="5.38016">
        <ele>205</ele>
        <time>2017-12-31T16:27:43Z</time>
      </trkpt>
      <trkpt lat="43.23112" lon="5.38012">
        <ele>205</ele>
        <time>2017-12-31T16:28:43Z</time>
      </trkpt>
      <trkpt lat="43.2311" lon="5.38007">
        <ele>204</ele>
        <time>2017-12-31T16:29:43Z</time>
      </trkpt>
      <trkpt lat="43.23108" lon="5.38002">
        <ele>203</ele>
        <time>2017-12-31T16:30:43Z</time>
      </trkpt>
      <trkpt lat="43.23106" lon="5.37998">
        <ele>202</ele>
        <time>2017-12-31T16:31:43Z</time>
      </trkpt>
      <trkpt lat="43.23105" lon="5.37994">
        <ele>201</ele>
        <time>2017-12-31T16:32:43Z</time>
      </trkpt>
      <trkpt lat="43.23105" lon="5.3799">
        <ele>200</ele>
        <time>2017-12-31T16:33:43Z</time>
      </trkpt>
      <trkpt lat="43.23104" lon="5.37985">
        <ele>199</ele>
        <time>2017-12-31T16:34:43Z</time>
      </trkpt>
      <trkpt lat="43.23102" lon="5.3798">
        <ele>198</ele>
        <time>2017-12-31T16:35:43Z</time>
      </trkpt>
      <trkpt lat="43.23099" lon="5.37977">
        <ele>198</ele>
        <time>2017-12-31T16:36:43Z</time>
      </trkpt>
      <trkpt lat="43.23097" lon="5.37972">
        <ele>197</ele>
        <time>2017-12-31T16:37:43Z</time>
      </trkpt>
      <trkpt lat="43.23096" lon="5.37968">
        <ele>196</ele>
        <time>2017-12-31T16:38:43Z</time>
      </trkpt>
      <trkpt lat="43.23095" lon="5.37964">
        <ele>195</ele>
        <time>2017-12-31T16:39:43Z</time>
      </trkpt>
      <trkpt lat="43.23096" lon="5.37959">
        <ele>194</ele>
        <time>2017-12-31T16:40:43Z</time>
      </trkpt>
      <trkpt lat="43.23096" lon="5.37955">
        <ele>193</ele>
        <time>2017-12-31T16:41:43Z</time>
      </trkpt>
      <trkpt lat="43.23096" lon="5.37951">
        <ele>193</ele>
        <time>2017-12-31T16:42:43Z</time>
      </trkpt>
      <trkpt lat="43.23099" lon="5.37948">
        <ele>192</ele>
        <time>2017-12-31T16:43:43Z</time>
      </trkpt>
      <trkpt lat="43.23102" lon="5.37944">
        <ele>191</ele>
        <time>2017-12-31T16:44:43Z</time>
      </trkpt>
      <trkpt lat="43.23104" lon="5.3794">
        <ele>191</ele>
        <time>2017-12-31T16:45:43Z</time>
      </trkpt>
      <trkpt lat="43.23107" lon="5.37935">
        <ele>190</ele>
        <time>2017-12-31T16:46:43Z</time>
      </trkpt>
      <trkpt lat="43.23107" lon="5.3793">
        <ele>189</ele>
        <time>2017-12-31T16:47:43Z</time>
      </trkpt>
      <trkpt lat="43.23105" lon="5.37926">
        <ele>188</ele>
        <time>2017-12-31T16:48:43Z</time>
      </trkpt>
      <trkpt lat="43.23104" lon="5.37922">
        <ele>187</ele>
        <time>2017-12-31T16:49:43Z</time>
      </trkpt>
      <trkpt lat="43.23105" lon="5.37918">
        <ele>187</ele>
        <time>2017-12-31T16:50:43Z</time>
      </trkpt>
      <trkpt lat="43.23105" lon="5.37913">
        <ele>185</ele>
        <time>2017-12-31T16:51:43Z</time>
      </trkpt>
      <trkpt lat="43.23106" lon="5.37908">
        <ele>184</ele>
        <time>2017-12-31T16:52:43Z</time>
      </trkpt>
      <trkpt lat="43.23107" lon="5.37903">
        <ele>183</ele>
        <time>2017-12-31T16:53:43Z</time>
      </trkpt>
      <trkpt lat="43.23108" lon="5.37898">
        <ele>182</ele>
        <time>2017-12-31T16:54:43Z</time>
      </trkpt>
      <trkpt lat="43.2311" lon="5.37894">
        <ele>182</ele>
        <time>2017-12-31T16:55:43Z</time>
      </trkpt>
      <trkpt lat="43.23113" lon="5.37891">
        <ele>181</ele>
        <time>2017-12-31T16:56:43Z</time>
      </trkpt>
      <trkpt lat="43.23116" lon="5.37886">
        <ele>180</ele>
        <time>2017-12-31T16:57:43Z</time>
      </trkpt>
      <trkpt lat="43.23118" lon="5.37881">
        <ele>179</ele>
        <time>2017-12-31T16:58:43Z</time>
      </trkpt>
      <trkpt lat="43.2312" lon="5.37877">
        <ele>179</ele>
        <time>2017-12-31T16:59:43Z</time>
      </trkpt>
      <trkpt lat="43.23121" lon="5.37872">
        <ele>178</ele>
        <time>2017-12-31T17:00:43Z</time>
      </trkpt>
      <trkpt lat="43.23122" lon="5.37866">
        <ele>176</ele>
        <time>2017-12-31T17:01:43Z</time>
      </trkpt>
      <trkpt lat="43.23123" lon="5.37862">
        <ele>176</ele>
        <time>2017-12-31T17:02:43Z</time>
      </trkpt>
      <trkpt lat="43.23124" lon="5.37857">
        <ele>175</ele>
        <time>2017-12-31T17:03:43Z</time>
      </trkpt>
      <trkpt lat="43.23126" lon="5.37852">
        <ele>174</ele>
        <time>2017-12-31T17:04:43Z</time>
      </trkpt>
      <trkpt lat="43.23128" lon="5.37846">
        <ele>173</ele>
        <time>2017-12-31T17:05:43Z</time>
      </trkpt>
      <trkpt lat="43.23129" lon="5.37842">
        <ele>172</ele>
        <time>2017-12-31T17:06:43Z</time>
      </trkpt>
      <trkpt lat="43.2313" lon="5.37837">
        <ele>171</ele>
        <time>2017-12-31T17:07:43Z</time>
      </trkpt>
      <trkpt lat="43.23131" lon="5.37832">
        <ele>170</ele>
        <time>2017-12-31T17:08:43Z</time>
      </trkpt>
      <trkpt lat="43.23132" lon="5.37826">
        <ele>169</ele>
        <time>2017-12-31T17:09:43Z</time>
      </trkpt>
      <trkpt lat="43.23133" lon="5.37821">
        <ele>167</ele>
        <time>2017-12-31T17:10:43Z</time>
      </trkpt>
      <trkpt lat="43.23134" lon="5.37817">
        <ele>167</ele>
        <time>2017-12-31T17:11:43Z</time>
      </trkpt>
      <trkpt lat="43.23135" lon="5.37812">
        <ele>166</ele>
        <time>2017-12-31T17:12:43Z</time>
      </trkpt>
      <trkpt lat="43.23136" lon="5.37807">
        <ele>165</ele>
        <time>2017-12-31T17:13:43Z</time>
      </trkpt>
      <trkpt lat="43.23138" lon="5.37803">
        <ele>164</ele>
        <time>2017-12-31T17:14:43Z</time>
      </trkpt>
      <trkpt lat="43.23139" lon="5.37798">
        <ele>163</ele>
        <time>2017-12-31T17:15:43Z</time>
      </trkpt>
      <trkpt lat="43.23139" lon="5.37794">
        <ele>162</ele>
        <time>2017-12-31T17:16:43Z</time>
      </trkpt>
      <trkpt lat="43.23139" lon="5.37789">
        <ele>161</ele>
        <time>2017-12-31T17:17:43Z</time>
      </trkpt>
      <trkpt lat="43.23139" lon="5.37784">
        <ele>160</ele>
        <time>2017-12-31T17:18:43Z</time>
      </trkpt>
      <trkpt lat="43.23138" lon="5.37778">
        <ele>158</ele>
        <time>2017-12-31T17:19:43Z</time>
      </trkpt>
      <trkpt lat="43.23139" lon="5.37774">
        <ele>157</ele>
        <time>2017-12-31T17:20:43Z</time>
      </trkpt>
      <trkpt lat="43.23141" lon="5.37768">
        <ele>156</ele>
        <time>2017-12-31T17:21:43Z</time>
      </trkpt>
      <trkpt lat="43.23143" lon="5.37763">
        <ele>155</ele>
        <time>2017-12-31T17:22:43Z</time>
      </trkpt>
      <trkpt lat="43.23145" lon="5.37758">
        <ele>154</ele>
        <time>2017-12-31T17:23:43Z</time>
      </trkpt>
      <trkpt lat="43.23147" lon="5.37753">
        <ele>153</ele>
        <time>2017-12-31T17:24:43Z</time>
      </trkpt>
      <trkpt lat="43.23148" lon="5.37747">
        <ele>152</ele>
        <time>2017-12-31T17:25:43Z</time>
      </trkpt>
      <trkpt lat="43.23148" lon="5.37743">
        <ele>151</ele>
        <time>2017-12-31T17:26:43Z</time>
      </trkpt>
      <trkpt lat="43.23147" lon="5.37738">
        <ele>149</ele>
        <time>2017-12-31T17:27:43Z</time>
      </trkpt>
      <trkpt lat="43.23148" lon="5.37734">
        <ele>148</ele>
        <time>2017-12-31T17:28:43Z</time>
      </trkpt>
      <trkpt lat="43.23149" lon="5.37729">
        <ele>147</ele>
        <time>2017-12-31T17:29:43Z</time>
      </trkpt>
      <trkpt lat="43.2315" lon="5.37723">
        <ele>146</ele>
        <time>2017-12-31T17:30:43Z</time>
      </trkpt>
      <trkpt lat="43.23153" lon="5.37719">
        <ele>145</ele>
        <time>2017-12-31T17:31:43Z</time>
      </trkpt>
      <trkpt lat="43.23155" lon="5.37714">
        <ele>144</ele>
        <time>2017-12-31T17:32:43Z</time>
      </trkpt>
      <trkpt lat="43.23158" lon="5.37711">
        <ele>144</ele>
        <time>2017-12-31T17:33:43Z</time>
      </trkpt>
      <trkpt lat="43.23161" lon="5.37709">
        <ele>143</ele>
        <time>2017-12-31T17:34:43Z</time>
      </trkpt>
      <trkpt lat="43.23164" lon="5.37708">
        <ele>144</ele>
        <time>2017-12-31T17:35:43Z</time>
      </trkpt>
      <trkpt lat="43.23167" lon="5.37714">
        <ele>145</ele>
        <time>2017-12-31T17:36:43Z</time>
      </trkpt>
      <trkpt lat="43.23169" lon="5.37719">
        <ele>146</ele>
        <time>2017-12-31T17:37:43Z</time>
      </trkpt>
      <trkpt lat="43.23172" lon="5.37715">
        <ele>144</ele>
        <time>2017-12-31T17:38:43Z</time>
      </trkpt>
      <trkpt lat="43.23176" lon="5.37712">
        <ele>141</ele>
        <time>2017-12-31T17:39:43Z</time>
      </trkpt>
      <trkpt lat="43.23177" lon="5.37708">
        <ele>140</ele>
        <time>2017-12-31T17:40:43Z</time>
      </trkpt>
      <trkpt lat="43.23179" lon="5.37703">
        <ele>138</ele>
        <time>2017-12-31T17:41:43Z</time>
      </trkpt>
      <trkpt lat="43.2318" lon="5.37698">
        <ele>136</ele>
        <time>2017-12-31T17:42:43Z</time>
      </trkpt>
      <trkpt lat="43.23182" lon="5.37693">
        <ele>134</ele>
        <time>2017-12-31T17:43:43Z</time>
      </trkpt>
      <trkpt lat="43.23184" lon="5.37687">
        <ele>132</ele>
        <time>2017-12-31T17:44:43Z</time>
      </trkpt>
      <trkpt lat="43.23184" lon="5.37681">
        <ele>130</ele>
        <time>2017-12-31T17:45:43Z</time>
      </trkpt>
      <trkpt lat="43.23185" lon="5.37675">
        <ele>129</ele>
        <time>2017-12-31T17:46:43Z</time>
      </trkpt>
      <trkpt lat="43.23185" lon="5.37669">
        <ele>127</ele>
        <time>2017-12-31T17:47:43Z</time>
      </trkpt>
      <trkpt lat="43.23185" lon="5.37664">
        <ele>125</ele>
        <time>2017-12-31T17:48:43Z</time>
      </trkpt>
      <trkpt lat="43.23185" lon="5.37659">
        <ele>124</ele>
        <time>2017-12-31T17:49:43Z</time>
      </trkpt>
      <trkpt lat="43.23186" lon="5.37654">
        <ele>121</ele>
        <time>2017-12-31T17:50:43Z</time>
      </trkpt>
      <trkpt lat="43.23188" lon="5.3765">
        <ele>119</ele>
        <time>2017-12-31T17:51:43Z</time>
      </trkpt>
      <trkpt lat="43.23188" lon="5.37645">
        <ele>118</ele>
        <time>2017-12-31T17:52:43Z</time>
      </trkpt>
      <trkpt lat="43.23189" lon="5.3764">
        <ele>115</ele>
        <time>2017-12-31T17:53:43Z</time>
      </trkpt>
      <trkpt lat="43.23189" lon="5.37635">
        <ele>114</ele>
        <time>2017-12-31T17:54:43Z</time>
      </trkpt>
      <trkpt lat="43.2319" lon="5.37631">
        <ele>112</ele>
        <time>2017-12-31T17:55:43Z</time>
      </trkpt>
      <trkpt lat="43.23191" lon="5.37625">
        <ele>110</ele>
        <time>2017-12-31T17:56:43Z</time>
      </trkpt>
      <trkpt lat="43.23193" lon="5.37621">
        <ele>108</ele>
        <time>2017-12-31T17:57:43Z</time>
      </trkpt>
      <trkpt lat="43.23193" lon="5.37615">
        <ele>106</ele>
        <time>2017-12-31T17:58:43Z</time>
      </trkpt>
      <trkpt lat="43.23193" lon="5.3761">
        <ele>104</ele>
        <time>2017-12-31T17:59:43Z</time>
      </trkpt>
      <trkpt lat="43.23192" lon="5.37605">
        <ele>102</ele>
        <time>2017-12-31T18:00:43Z</time>
      </trkpt>
      <trkpt lat="43.23193" lon="5.37601">
        <ele>101</ele>
        <time>2017-12-31T18:01:43Z</time>
      </trkpt>
      <trkpt lat="43.23193" lon="5.37596">
        <ele>99</ele>
        <time>2017-12-31T18:02:43Z</time>
      </trkpt>
      <trkpt lat="43.23194" lon="5.37592">
        <ele>98</ele>
        <time>2017-12-31T18:03:43Z</time>
      </trkpt>
      <trkpt lat="43.23195" lon="5.37587">
        <ele>96</ele>
        <time>2017-12-31T18:04:43Z</time>
      </trkpt>
      <trkpt lat="43.23195" lon="5.37583">
        <ele>95</ele>
        <time>2017-12-31T18:05:43Z</time>
      </trkpt>
      <trkpt lat="43.23195" lon="5.37578">
        <ele>93</ele>
        <time>2017-12-31T18:06:43Z</time>
      </trkpt>
      <trkpt lat="43.23195" lon="5.37573">
        <ele>92</ele>
        <time>2017-12-31T18:07:43Z</time>
      </trkpt>
      <trkpt lat="43.23195" lon="5.37568">
        <ele>91</ele>
        <time>2017-12-31T18:08:43Z</time>
      </trkpt>
      <trkpt lat="43.23196" lon="5.37564">
        <ele>90</ele>
        <time>2017-12-31T18:09:43Z</time>
      </trkpt>
      <trkpt lat="43.23195" lon="5.37558">
        <ele>89</ele>
        <time>2017-12-31T18:10:43Z</time>
      </trkpt>
      <trkpt lat="43.23195" lon="5.37553">
        <ele>87</ele>
        <time>2017-12-31T18:11:43Z</time>
      </trkpt>
      <trkpt lat="43.23194" lon="5.37547">
        <ele>86</ele>
        <time>2017-12-31T18:12:43Z</time>
      </trkpt>
      <trkpt lat="43.23194" lon="5.37543">
        <ele>85</ele>
        <time>2017-12-31T18:13:43Z</time>
      </trkpt>
      <trkpt lat="43.23194" lon="5.37538">
        <ele>84</ele>
        <time>2017-12-31T18:14:43Z</time>
      </trkpt>
      <trkpt lat="43.23194" lon="5.37534">
        <ele>83</ele>
        <time>2017-12-31T18:15:43Z</time>
      </trkpt>
      <trkpt lat="43.23195" lon="5.3753">
        <ele>82</ele>
        <time>2017-12-31T18:16:43Z</time>
      </trkpt>
      <trkpt lat="43.23199" lon="5.37526">
        <ele>81</ele>
        <time>2017-12-31T18:17:43Z</time>
      </trkpt>
      <trkpt lat="43.23199" lon="5.3752">
        <ele>80</ele>
        <time>2017-12-31T18:18:43Z</time>
      </trkpt>
      <trkpt lat="43.23198" lon="5.37515">
        <ele>79</ele>
        <time>2017-12-31T18:19:43Z</time>
      </trkpt>
      <trkpt lat="43.23198" lon="5.3751">
        <ele>78</ele>
        <time>2017-12-31T18:20:43Z</time>
      </trkpt>
      <trkpt lat="43.23197" lon="5.37506">
        <ele>77</ele>
        <time>2017-12-31T18:21:43Z</time>
      </trkpt>
      <trkpt lat="43.23197" lon="5.37501">
        <ele>75</ele>
        <time>2017-12-31T18:22:43Z</time>
      </trkpt>
      <trkpt lat="43.23197" lon="5.37497">
        <ele>75</ele>
        <time>2017-12-31T18:23:43Z</time>
      </trkpt>
      <trkpt lat="43.23194" lon="5.37493">
        <ele>74</ele>
        <time>2017-12-31T18:24:43Z</time>
      </trkpt>
      <trkpt lat="43.23191" lon="5.37487">
        <ele>74</ele>
        <time>2017-12-31T18:25:43Z</time>
      </trkpt>
      <trkpt lat="43.23188" lon="5.37482">
        <ele>73</ele>
        <time>2017-12-31T18:26:43Z</time>
      </trkpt>
      <trkpt lat="43.23187" lon="5.37478">
        <ele>72</ele>
        <time>2017-12-31T18:27:43Z</time>
      </trkpt>
      <trkpt lat="43.23188" lon="5.37473">
        <ele>72</ele>
        <time>2017-12-31T18:28:43Z</time>
      </trkpt>
      <trkpt lat="43.2319" lon="5.37468">
        <ele>72</ele>
        <time>2017-12-31T18:29:43Z</time>
      </trkpt>
      <trkpt lat="43.23192" lon="5.37463">
        <ele>71</ele>
        <time>2017-12-31T18:30:43Z</time>
      </trkpt>
      <trkpt lat="43.23192" lon="5.37458">
        <ele>71</ele>
        <time>2017-12-31T18:31:43Z</time>
      </trkpt>
      <trkpt lat="43.23194" lon="5.37452">
        <ele>71</ele>
        <time>2017-12-31T18:32:43Z</time>
      </trkpt>
      <trkpt lat="43.23197" lon="5.37452">
        <ele>71</ele>
        <time>2017-12-31T18:33:43Z</time>
      </trkpt>
      <trkpt lat="43.23202" lon="5.37452">
        <ele>71</ele>
        <time>2017-12-31T18:34:43Z</time>
      </trkpt>
      <trkpt lat="43.23205" lon="5.37452">
        <ele>71</ele>
        <time>2017-12-31T18:35:43Z</time>
      </trkpt>
      <trkpt lat="43.2321" lon="5.37452">
        <ele>71</ele>
        <time>2017-12-31T18:36:43Z</time>
      </trkpt>
      <trkpt lat="43.23213" lon="5.3745">
        <ele>71</ele>
        <time>2017-12-31T18:37:43Z</time>
      </trkpt>
      <trkpt lat="43.23217" lon="5.37447">
        <ele>71</ele>
        <time>2017-12-31T18:38:43Z</time>
      </trkpt>
      <trkpt lat="43.23221" lon="5.37442">
        <ele>71</ele>
        <time>2017-12-31T18:39:43Z</time>
      </trkpt>
      <trkpt lat="43.23224" lon="5.37438">
        <ele>71</ele>
        <time>2017-12-31T18:40:43Z</time>
      </trkpt>
      <trkpt lat="43.23228" lon="5.37435">
        <ele>71</ele>
        <time>2017-12-31T18:41:43Z</time>
      </trkpt>
      <trkpt lat="43.2323" lon="5.37429">
        <ele>70</ele>
        <time>2017-12-31T18:42:43Z</time>
      </trkpt>
      <trkpt lat="43.23234" lon="5.37426">
        <ele>70</ele>
        <time>2017-12-31T18:43:43Z</time>
      </trkpt>
      <trkpt lat="43.23238" lon="5.3742">
        <ele>70</ele>
        <time>2017-12-31T18:44:43Z</time>
      </trkpt>
      <trkpt lat="43.23242" lon="5.37417">
        <ele>70</ele>
        <time>2017-12-31T18:45:43Z</time>
      </trkpt>
      <trkpt lat="43.23246" lon="5.37414">
        <ele>70</ele>
        <time>2017-12-31T18:46:43Z</time>
      </trkpt>
      <trkpt lat="43.23249" lon="5.37412">
        <ele>70</ele>
        <time>2017-12-31T18:47:43Z</time>
      </trkpt>
      <trkpt lat="43.23252" lon="5.37408">
        <ele>69</ele>
        <time>2017-12-31T18:48:43Z</time>
      </trkpt>
      <trkpt lat="43.23255" lon="5.37405">
        <ele>69</ele>
        <time>2017-12-31T18:49:43Z</time>
      </trkpt>
      <trkpt lat="43.2326" lon="5.37404">
        <ele>69</ele>
        <time>2017-12-31T18:50:43Z</time>
      </trkpt>
      <trkpt lat="43.23261" lon="5.37399">
        <ele>68</ele>
        <time>2017-12-31T18:51:43Z</time>
      </trkpt>
      <trkpt lat="43.23262" lon="5.37394">
        <ele>68</ele>
        <time>2017-12-31T18:52:43Z</time>
      </trkpt>
      <trkpt lat="43.23266" lon="5.3739">
        <ele>67</ele>
        <time>2017-12-31T18:53:43Z</time>
      </trkpt>
      <trkpt lat="43.23267" lon="5.37385">
        <ele>67</ele>
        <time>2017-12-31T18:54:43Z</time>
      </trkpt>
      <trkpt lat="43.23268" lon="5.3738">
        <ele>66</ele>
        <time>2017-12-31T18:55:43Z</time>
      </trkpt>
      <trkpt lat="43.23269" lon="5.37376">
        <ele>66</ele>
        <time>2017-12-31T18:56:43Z</time>
      </trkpt>
      <trkpt lat="43.23271" lon="5.3737">
        <ele>66</ele>
        <time>2017-12-31T18:57:43Z</time>
      </trkpt>
      <trkpt lat="43.23272" lon="5.37365">
        <ele>65</ele>
        <time>2017-12-31T18:58:43Z</time>
      </trkpt>
      <trkpt lat="43.23273" lon="5.37361">
        <ele>65</ele>
        <time>2017-12-31T18:59:43Z</time>
      </trkpt>
      <trkpt lat="43.23276" lon="5.37356">
        <ele>64</ele>
        <time>2017-12-31T19:00:43Z</time>
      </trkpt>
      <trkpt lat="43.23278" lon="5.37351">
        <ele>64</ele>
        <time>2017-12-31T19:01:43Z</time>
      </trkpt>
      <trkpt lat="43.23282" lon="5.37348">
        <ele>63</ele>
        <time>2017-12-31T19:02:43Z</time>
      </trkpt>
      <trkpt lat="43.23284" lon="5.37341">
        <ele>63</ele>
        <time>2017-12-31T19:03:43Z</time>
      </trkpt>
      <trkpt lat="43.23287" lon="5.37338">
        <ele>63</ele>
        <time>2017-12-31T19:04:43Z</time>
      </trkpt>
      <trkpt lat="43.23291" lon="5.37333">
        <ele>62</ele>
        <time>2017-12-31T19:05:43Z</time>
      </trkpt>
      <trkpt lat="43.23294" lon="5.3733">
        <ele>62</ele>
        <time>2017-12-31T19:06:43Z</time>
      </trkpt>
      <trkpt lat="43.23298" lon="5.37327">
        <ele>62</ele>
        <time>2017-12-31T19:07:43Z</time>
      </trkpt>
      <trkpt lat="43.23301" lon="5.37325">
        <ele>62</ele>
        <time>2017-12-31T19:08:43Z</time>
      </trkpt>
      <trkpt lat="43.23305" lon="5.37324">
        <ele>61</ele>
        <time>2017-12-31T19:09:43Z</time>
      </trkpt>
      <trkpt lat="43.23309" lon="5.37322">
        <ele>61</ele>
        <time>2017-12-31T19:10:43Z</time>
      </trkpt>
      <trkpt lat="43.23312" lon="5.37319">
        <ele>61</ele>
        <time>2017-12-31T19:11:43Z</time>
      </trkpt>
      <trkpt lat="43.23316" lon="5.37317">
        <ele>61</ele>
        <time>2017-12-31T19:12:43Z</time>
      </trkpt>
      <trkpt lat="43.2332" lon="5.37315">
        <ele>61</ele>
        <time>2017-12-31T19:13:43Z</time>
      </trkpt>
      <trkpt lat="43.23324" lon="5.37312">
        <ele>61</ele>
        <time>2017-12-31T19:14:43Z</time>
      </trkpt>
      <trkpt lat="43.23328" lon="5.3731">
        <ele>60</ele>
        <time>2017-12-31T19:15:43Z</time>
      </trkpt>
      <trkpt lat="43.23331" lon="5.37309">
        <ele>60</ele>
        <time>2017-12-31T19:16:43Z</time>
      </trkpt>
      <trkpt lat="43.23334" lon="5.37308">
        <ele>60</ele>
        <time>2017-12-31T19:17:43Z</time>
      </trkpt>
      <trkpt lat="43.23338" lon="5.37306">
        <ele>60</ele>
        <time>2017-12-31T19:18:43Z</time>
      </trkpt>
      <trkpt lat="43.23341" lon="5.37309">
        <ele>60</ele>
        <time>2017-12-31T19:19:43Z</time>
      </trkpt>
      <trkpt lat="43.23343" lon="5.37315">
        <ele>60</ele>
        <time>2017-12-31T19:20:43Z</time>
      </trkpt>
      <trkpt lat="43.23344" lon="5.3732">
        <ele>60</ele>
        <time>2017-12-31T19:21:43Z</time>
      </trkpt>
      <trkpt lat="43.23345" lon="5.37325">
        <ele>60</ele>
        <time>2017-12-31T19:22:43Z</time>
      </trkpt>
      <trkpt lat="43.23347" lon="5.37331">
        <ele>60</ele>
        <time>2017-12-31T19:23:43Z</time>
      </trkpt>
      <trkpt lat="43.23348" lon="5.37336">
        <ele>61</ele>
        <time>2017-12-31T19:24:43Z</time>
      </trkpt>
      <trkpt lat="43.2335" lon="5.3734">
        <ele>61</ele>
        <time>2017-12-31T19:25:43Z</time>
      </trkpt>
      <trkpt lat="43.23351" lon="5.37345">
        <ele>61</ele>
        <time>2017-12-31T19:26:43Z</time>
      </trkpt>
      <trkpt lat="43.23352" lon="5.37349">
        <ele>61</ele>
        <time>2017-12-31T19:27:43Z</time>
      </trkpt>
      <trkpt lat="43.23355" lon="5.37355">
        <ele>62</ele>
        <time>2017-12-31T19:28:43Z</time>
      </trkpt>
      <trkpt lat="43.23358" lon="5.37358">
        <ele>62</ele>
        <time>2017-12-31T19:29:43Z</time>
      </trkpt>
      <trkpt lat="43.23362" lon="5.37361">
        <ele>62</ele>
        <time>2017-12-31T19:30:43Z</time>
      </trkpt>
      <trkpt lat="43.23366" lon="5.37362">
        <ele>61</ele>
        <time>2017-12-31T19:31:43Z</time>
      </trkpt>
      <trkpt lat="43.2337" lon="5.37363">
        <ele>61</ele>
        <time>2017-12-31T19:32:43Z</time>
      </trkpt>
      <trkpt lat="43.23374" lon="5.37363">
        <ele>61</ele>
        <time>2017-12-31T19:33:43Z</time>
      </trkpt>
      <trkpt lat="43.23379" lon="5.37363">
        <ele>61</ele>
        <time>2017-12-31T19:34:43Z</time>
      </trkpt>
      <trkpt lat="43.23383" lon="5.37364">
        <ele>61</ele>
        <time>2017-12-31T19:35:43Z</time>
      </trkpt>
      <trkpt lat="43.23387" lon="5.37363">
        <ele>60</ele>
        <time>2017-12-31T19:36:43Z</time>
      </trkpt>
      <trkpt lat="43.2339" lon="5.37361">
        <ele>60</ele>
        <time>2017-12-31T19:37:43Z</time>
      </trkpt>
      <trkpt lat="43.23393" lon="5.37357">
        <ele>60</ele>
        <time>2017-12-31T19:38:43Z</time>
      </trkpt>
      <trkpt lat="43.23397" lon="5.37355">
        <ele>59</ele>
        <time>2017-12-31T19:39:43Z</time>
      </trkpt>
      <trkpt lat="43.234" lon="5.37352">
        <ele>59</ele>
        <time>2017-12-31T19:40:43Z</time>
      </trkpt>
      <trkpt lat="43.23402" lon="5.37348">
        <ele>59</ele>
        <time>2017-12-31T19:41:43Z</time>
      </trkpt>
      <trkpt lat="43.23406" lon="5.37345">
        <ele>58</ele>
        <time>2017-12-31T19:42:43Z</time>
      </trkpt>
      <trkpt lat="43.2341" lon="5.37341">
        <ele>58</ele>
        <time>2017-12-31T19:43:43Z</time>
      </trkpt>
      <trkpt lat="43.23413" lon="5.37337">
        <ele>57</ele>
        <time>2017-12-31T19:44:43Z</time>
      </trkpt>
      <trkpt lat="43.23415" lon="5.37332">
        <ele>57</ele>
        <time>2017-12-31T19:45:43Z</time>
      </trkpt>
      <trkpt lat="43.23418" lon="5.37327">
        <ele>57</ele>
        <time>2017-12-31T19:46:43Z</time>
      </trkpt>
      <trkpt lat="43.2342" lon="5.37322">
        <ele>57</ele>
        <time>2017-12-31T19:47:43Z</time>
      </trkpt>
      <trkpt lat="43.23423" lon="5.37317">
        <ele>57</ele>
        <time>2017-12-31T19:48:43Z</time>
      </trkpt>
      <trkpt lat="43.23426" lon="5.37311">
        <ele>57</ele>
        <time>2017-12-31T19:49:43Z</time>
      </trkpt>
      <trkpt lat="43.23428" lon="5.37306">
        <ele>57</ele>
        <time>2017-12-31T19:50:43Z</time>
      </trkpt>
      <trkpt lat="43.23431" lon="5.37301">
        <ele>57</ele>
        <time>2017-12-31T19:51:43Z</time>
      </trkpt>
      <trkpt lat="43.23433" lon="5.37297">
        <ele>57</ele>
        <time>2017-12-31T19:52:43Z</time>
      </trkpt>
      <trkpt lat="43.23436" lon="5.37292">
        <ele>57</ele>
        <time>2017-12-31T19:53:43Z</time>
      </trkpt>
      <trkpt lat="43.23437" lon="5.37288">
        <ele>57</ele>
        <time>2017-12-31T19:54:43Z</time>
      </trkpt>
      <trkpt lat="43.23437" lon="5.37283">
        <ele>57</ele>
        <time>2017-12-31T19:55:43Z</time>
      </trkpt>
      <trkpt lat="43.23437" lon="5.37277">
        <ele>57</ele>
        <time>2017-12-31T19:56:43Z</time>
      </trkpt>
      <trkpt lat="43.23438" lon="5.37272">
        <ele>57</ele>
        <time>2017-12-31T19:57:43Z</time>
      </trkpt>
      <trkpt lat="43.23438" lon="5.37266">
        <ele>57</ele>
        <time>2017-12-31T19:58:43Z</time>
      </trkpt>
      <trkpt lat="43.23439" lon="5.3726">
        <ele>57</ele>
        <time>2017-12-31T19:59:43Z</time>
      </trkpt>
      <trkpt lat="43.23439" lon="5.37254">
        <ele>57</ele>
        <time>2017-12-31T20:00:43Z</time>
      </trkpt>
      <trkpt lat="43.2344" lon="5.37249">
        <ele>57</ele>
        <time>2017-12-31T20:01:43Z</time>
      </trkpt>
      <trkpt lat="43.2344" lon="5.37243">
        <ele>57</ele>
        <time>2017-12-31T20:02:43Z</time>
      </trkpt>
      <trkpt lat="43.23442" lon="5.37238">
        <ele>56</ele>
        <time>2017-12-31T20:03:43Z</time>
      </trkpt>
      <trkpt lat="43.23443" lon="5.37233">
        <ele>56</ele>
        <time>2017-12-31T20:04:43Z</time>
      </trkpt>
      <trkpt lat="43.23445" lon="5.37228">
        <ele>55</ele>
        <time>2017-12-31T20:05:43Z</time>
      </trkpt>
      <trkpt lat="43.23452" lon="5.37223">
        <ele>55</ele>
        <time>2017-12-31T20:06:43Z</time>
      </trkpt>
      <trkpt lat="43.23458" lon="5.3722">
        <ele>55</ele>
        <time>2017-12-31T20:07:43Z</time>
      </trkpt>
      <trkpt lat="43.23464" lon="5.37214">
        <ele>54</ele>
        <time>2017-12-31T20:08:43Z</time>
      </trkpt>
      <trkpt lat="43.2347" lon="5.37208">
        <ele>54</ele>
        <time>2017-12-31T20:09:43Z</time>
      </trkpt>
      <trkpt lat="43.23477" lon="5.372">
        <ele>53</ele>
        <time>2017-12-31T20:10:43Z</time>
      </trkpt>
      <trkpt lat="43.23482" lon="5.37193">
        <ele>53</ele>
        <time>2017-12-31T20:11:43Z</time>
      </trkpt>
      <trkpt lat="43.23489" lon="5.37189">
        <ele>53</ele>
        <time>2017-12-31T20:12:43Z</time>
      </trkpt>
      <trkpt lat="43.23494" lon="5.37183">
        <ele>53</ele>
        <time>2017-12-31T20:13:43Z</time>
      </trkpt>
      <trkpt lat="43.235" lon="5.37176">
        <ele>52</ele>
        <time>2017-12-31T20:14:43Z</time>
      </trkpt>
      <trkpt lat="43.23507" lon="5.37171">
        <ele>52</ele>
        <time>2017-12-31T20:15:43Z</time>
      </trkpt>
      <trkpt lat="43.23513" lon="5.37164">
        <ele>51</ele>
        <time>2017-12-31T20:16:43Z</time>
      </trkpt>
      <trkpt lat="43.23519" lon="5.37157">
        <ele>50</ele>
        <time>2017-12-31T20:17:43Z</time>
      </trkpt>
      <trkpt lat="43.23524" lon="5.37152">
        <ele>50</ele>
        <time>2017-12-31T20:18:43Z</time>
      </trkpt>
      <trkpt lat="43.2353" lon="5.37147">
        <ele>49</ele>
        <time>2017-12-31T20:19:43Z</time>
      </trkpt>
      <trkpt lat="43.23535" lon="5.37143">
        <ele>48</ele>
        <time>2017-12-31T20:20:43Z</time>
      </trkpt>
      <trkpt lat="43.2354" lon="5.37137">
        <ele>48</ele>
        <time>2017-12-31T20:21:43Z</time>
      </trkpt>
      <trkpt lat="43.23547" lon="5.37133">
        <ele>47</ele>
        <time>2017-12-31T20:22:43Z</time>
      </trkpt>
      <trkpt lat="43.23553" lon="5.37126">
        <ele>46</ele>
        <time>2017-12-31T20:23:43Z</time>
      </trkpt>
      <trkpt lat="43.23559" lon="5.3712">
        <ele>46</ele>
        <time>2017-12-31T20:24:43Z</time>
      </trkpt>
      <trkpt lat="43.23564" lon="5.37116">
        <ele>45</ele>
        <time>2017-12-31T20:25:43Z</time>
      </trkpt>
      <trkpt lat="43.2357" lon="5.37109">
        <ele>44</ele>
        <time>2017-12-31T20:26:43Z</time>
      </trkpt>
      <trkpt lat="43.23576" lon="5.37102">
        <ele>44</ele>
        <time>2017-12-31T20:27:43Z</time>
      </trkpt>
      <trkpt lat="43.23581" lon="5.37097">
        <ele>43</ele>
        <time>2017-12-31T20:28:43Z</time>
      </trkpt>
      <trkpt lat="43.23587" lon="5.37092">
        <ele>42</ele>
        <time>2017-12-31T20:29:43Z</time>
      </trkpt>
      <trkpt lat="43.23593" lon="5.37087">
        <ele>42</ele>
        <time>2017-12-31T20:30:43Z</time>
      </trkpt>
      <trkpt lat="43.23598" lon="5.37081">
        <ele>42</ele>
        <time>2017-12-31T20:31:43Z</time>
      </trkpt>
      <trkpt lat="43.23604" lon="5.37076">
        <ele>41</ele>
        <time>2017-12-31T20:32:43Z</time>
      </trkpt>
      <trkpt lat="43.23609" lon="5.37073">
        <ele>41</ele>
        <time>2017-12-31T20:33:43Z</time>
      </trkpt>
      <trkpt lat="43.23615" lon="5.37065">
        <ele>41</ele>
        <time>2017-12-31T20:34:43Z</time>
      </trkpt>
      <trkpt lat="43.23621" lon="5.37061">
        <ele>41</ele>
        <time>2017-12-31T20:35:43Z</time>
      </trkpt>
      <trkpt lat="43.23626" lon="5.37057">
        <ele>40</ele>
        <time>2017-12-31T20:36:43Z</time>
      </trkpt>
      <trkpt lat="43.23632" lon="5.3705">
        <ele>40</ele>
        <time>2017-12-31T20:37:43Z</time>
      </trkpt>
      <trkpt lat="43.23636" lon="5.37044">
        <ele>40</ele>
        <time>2017-12-31T20:38:43Z</time>
      </trkpt>
      <trkpt lat="43.23643" lon="5.37041">
        <ele>39</ele>
        <time>2017-12-31T20:39:43Z</time>
      </trkpt>
      <trkpt lat="43.23649" lon="5.37035">
        <ele>39</ele>
        <time>2017-12-31T20:40:43Z</time>
      </trkpt>
      <trkpt lat="43.23654" lon="5.37028">
        <ele>39</ele>
        <time>2017-12-31T20:41:43Z</time>
      </trkpt>
      <trkpt lat="43.23661" lon="5.37022">
        <ele>38</ele>
        <time>2017-12-31T20:42:43Z</time>
      </trkpt>
      <trkpt lat="43.23667" lon="5.37016">
        <ele>38</ele>
        <time>2017-12-31T20:43:43Z</time>
      </trkpt>
      <trkpt lat="43.23674" lon="5.3701">
        <ele>37</ele>
        <time>2017-12-31T20:44:43Z</time>
      </trkpt>
      <trkpt lat="43.23678" lon="5.37005">
        <ele>36</ele>
        <time>2017-12-31T20:45:43Z</time>
      </trkpt>
      <trkpt lat="43.23685" lon="5.37">
        <ele>36</ele>
        <time>2017-12-31T20:46:43Z</time>
      </trkpt>
      <trkpt lat="43.2369" lon="5.36995">
        <ele>35</ele>
        <time>2017-12-31T20:47:43Z</time>
      </trkpt>
      <trkpt lat="43.23697" lon="5.36989">
        <ele>35</ele>
        <time>2017-12-31T20:48:43Z</time>
      </trkpt>
      <trkpt lat="43.23702" lon="5.36983">
        <ele>34</ele>
        <time>2017-12-31T20:49:43Z</time>
      </trkpt>
      <trkpt lat="43.23708" lon="5.36978">
        <ele>34</ele>
        <time>2017-12-31T20:50:43Z</time>
      </trkpt>
      <trkpt lat="43.23714" lon="5.36972">
        <ele>33</ele>
        <time>2017-12-31T20:51:43Z</time>
      </trkpt>
      <trkpt lat="43.23719" lon="5.36965">
        <ele>33</ele>
        <time>2017-12-31T20:52:43Z</time>
      </trkpt>
      <trkpt lat="43.23724" lon="5.36961">
        <ele>32</ele>
        <time>2017-12-31T20:53:43Z</time>
      </trkpt>
      <trkpt lat="43.2373" lon="5.36957">
        <ele>32</ele>
        <time>2017-12-31T20:54:43Z</time>
      </trkpt>
      <trkpt lat="43.23736" lon="5.36952">
        <ele>31</ele>
        <time>2017-12-31T20:55:43Z</time>
      </trkpt>
      <trkpt lat="43.23741" lon="5.36947">
        <ele>31</ele>
        <time>2017-12-31T20:56:43Z</time>
      </trkpt>
      <trkpt lat="43.23747" lon="5.36941">
        <ele>31</ele>
        <time>2017-12-31T20:57:43Z</time>
      </trkpt>
      <trkpt lat="43.23752" lon="5.36934">
        <ele>30</ele>
        <time>2017-12-31T20:58:43Z</time>
      </trkpt>
      <trkpt lat="43.23758" lon="5.36929">
        <ele>30</ele>
        <time>2017-12-31T20:59:43Z</time>
      </trkpt>
      <trkpt lat="43.23763" lon="5.36925">
        <ele>30</ele>
        <time>2017-12-31T21:00:43Z</time>
      </trkpt>
      <trkpt lat="43.23768" lon="5.36918">
        <ele>30</ele>
        <time>2017-12-31T21:01:43Z</time>
      </trkpt>
      <trkpt lat="43.23773" lon="5.36915">
        <ele>30</ele>
        <time>2017-12-31T21:02:43Z</time>
      </trkpt>
      <trkpt lat="43.23778" lon="5.36909">
        <ele>29</ele>
        <time>2017-12-31T21:03:43Z</time>
      </trkpt>
      <trkpt lat="43.23784" lon="5.36905">
        <ele>29</ele>
        <time>2017-12-31T21:04:43Z</time>
      </trkpt>
      <trkpt lat="43.2379" lon="5.369">
        <ele>29</ele>
        <time>2017-12-31T21:05:43Z</time>
      </trkpt>
      <trkpt lat="43.23795" lon="5.36893">
        <ele>28</ele>
        <time>2017-12-31T21:06:43Z</time>
      </trkpt>
      <trkpt lat="43.23801" lon="5.3689">
        <ele>28</ele>
        <time>2017-12-31T21:07:43Z</time>
      </trkpt>
      <trkpt lat="43.23807" lon="5.36883">
        <ele>28</ele>
        <time>2017-12-31T21:08:43Z</time>
      </trkpt>
      <trkpt lat="43.23811" lon="5.36877">
        <ele>28</ele>
        <time>2017-12-31T21:09:43Z</time>
      </trkpt>
      <trkpt lat="43.23817" lon="5.36872">
        <ele>27</ele>
        <time>2017-12-31T21:10:43Z</time>
      </trkpt>
      <trkpt lat="43.23823" lon="5.36867">
        <ele>27</ele>
        <time>2017-12-31T21:11:43Z</time>
      </trkpt>
      <trkpt lat="43.23829" lon="5.36862">
        <ele>27</ele>
        <time>2017-12-31T21:12:43Z</time>
      </trkpt>
      <trkpt lat="43.23833" lon="5.36855">
        <ele>27</ele>
        <time>2017-12-31T21:13:43Z</time>
      </trkpt>
      <trkpt lat="43.2384" lon="5.36849">
        <ele>26</ele>
        <time>2017-12-31T21:14:43Z</time>
      </trkpt>
      <trkpt lat="43.23847" lon="5.36844">
        <ele>26</ele>
        <time>2017-12-31T21:15:43Z</time>
      </trkpt>
      <trkpt lat="43.23843" lon="5.36835">
        <ele>26</ele>
        <time>2017-12-31T21:16:43Z</time>
      </trkpt>
      <trkpt lat="43.23841" lon="5.36827">
        <ele>26</ele>
        <time>2017-12-31T21:17:43Z</time>
      </trkpt>
      <trkpt lat="43.23838" lon="5.36819">
        <ele>26</ele>
        <time>2017-12-31T21:18:43Z</time>
      </trkpt>
      <trkpt lat="43.23836" lon="5.36811">
        <ele>25</ele>
        <time>2017-12-31T21:19:43Z</time>
      </trkpt>
      <trkpt lat="43.23834" lon="5.36803">
        <ele>25</ele>
        <time>2017-12-31T21:20:43Z</time>
      </trkpt>
      <trkpt lat="43.23831" lon="5.36794">
        <ele>25</ele>
        <time>2017-12-31T21:21:43Z</time>
      </trkpt>
      <trkpt lat="43.23828" lon="5.36787">
        <ele>25</ele>
        <time>2017-12-31T21:22:43Z</time>
      </trkpt>
      <trkpt lat="43.23825" lon="5.36779">
        <ele>25</ele>
        <time>2017-12-31T21:23:43Z</time>
      </trkpt>
      <trkpt lat="43.23821" lon="5.36771">
        <ele>25</ele>
        <time>2017-12-31T21:24:43Z</time>
      </trkpt>
      <trkpt lat="43.23817" lon="5.36762">
        <ele>24</ele>
        <time>2017-12-31T21:25:43Z</time>
      </trkpt>
      <trkpt lat="43.23814" lon="5.36754">
        <ele>24</ele>
        <time>2017-12-31T21:26:43Z</time>
      </trkpt>
      <trkpt lat="43.23812" lon="5.36748">
        <ele>24</ele>
        <time>2017-12-31T21:27:43Z</time>
      </trkpt>
      <trkpt lat="43.23808" lon="5.36741">
        <ele>24</ele>
        <time>2017-12-31T21:28:43Z</time>
      </trkpt>
      <trkpt lat="43.23805" lon="5.36733">
        <ele>24</ele>
        <time>2017-12-31T21:29:43Z</time>
      </trkpt>
      <trkpt lat="43.23801" lon="5.36725">
        <ele>24</ele>
        <time>2017-12-31T21:30:43Z</time>
      </trkpt>
      <trkpt lat="43.23799" lon="5.36717">
        <ele>24</ele>
        <time>2017-12-31T21:31:43Z</time>
      </trkpt>
      <trkpt lat="43.23794" lon="5.36709">
        <ele>23</ele>
        <time>2017-12-31T21:32:43Z</time>
      </trkpt>
      <trkpt lat="43.2379" lon="5.36701">
        <ele>23</ele>
        <time>2017-12-31T21:33:43Z</time>
      </trkpt>
      <trkpt lat="43.23785" lon="5.36691">
        <ele>23</ele>
        <time>2017-12-31T21:34:43Z</time>
      </trkpt>
      <trkpt lat="43.23782" lon="5.36683">
        <ele>23</ele>
        <time>2017-12-31T21:35:43Z</time>
      </trkpt>
      <trkpt lat="43.2378" lon="5.36678">
        <ele>23</ele>
        <time>2017-12-31T21:36:43Z</time>
      </trkpt>
      <trkpt lat="43.23776" lon="5.36671">
        <ele>23</ele>
        <time>2017-12-31T21:37:43Z</time>
      </trkpt>
      <trkpt lat="43.23772" lon="5.36662">
        <ele>23</ele>
        <time>2017-12-31T21:38:43Z</time>
      </trkpt>
      <trkpt lat="43.23768" lon="5.36655">
        <ele>23</ele>
        <time>2017-12-31T21:39:43Z</time>
      </trkpt>
      <trkpt lat="43.23764" lon="5.36646">
        <ele>22</ele>
        <time>2017-12-31T21:40:43Z</time>
      </trkpt>
      <trkpt lat="43.23761" lon="5.3664">
        <ele>22</ele>
        <time>2017-12-31T21:41:43Z</time>
      </trkpt>
      <trkpt lat="43.23759" lon="5.36636">
        <ele>22</ele>
        <time>2017-12-31T21:42:43Z</time>
      </trkpt>
    </trkseg>
  </trk>
</gpx>